Wetterdaten: Sonntag, 27.11.2016
Datum Zeit Temp. A. Temp. A. max Feuchte A. Luftdruck Regen Wind Richtung Richtung Sonnenschein ET UV Solar Taupunkt Windböen
27.11.2016 00:00 5,5 °C 5,5 °C 95 % 1017,2 hPa 0,0 mm 0,9 km/h (0 Bft) W-SW 241 ° 0 min 0,000 mm 0,0 UV-I 0 W/m² 4,8 °C 1,6 km/h (1 Bft)
27.11.2016 00:01 5,5 °C 5,5 °C 94 % 1017,2 hPa 0,0 mm 1,5 km/h (1 Bft) W-SW 241 ° 0 min 0,000 mm 0,0 UV-I 0 W/m² 4,6 °C 1,6 km/h (1 Bft)
27.11.2016 00:02 5,5 °C 5,5 °C 95 % 1017,2 hPa 0,0 mm 0,5 km/h (0 Bft) W-SW 241 ° 0 min 0,000 mm 0,0 UV-I 0 W/m² 4,8 °C 1,6 km/h (1 Bft)
27.11.2016 00:03 5,4 °C 5,5 °C 95 % 1017,2 hPa 0,0 mm 0,0 km/h (0 Bft) W-SW 241 ° 0 min 0,000 mm 0,0 UV-I 0 W/m² 4,7 °C 0,0 km/h (0 Bft)
27.11.2016 00:04 5,4 °C 5,5 °C 95 % 1017,2 hPa 0,0 mm 0,0 km/h (0 Bft) W-SW 241 ° 0 min 0,000 mm 0,0 UV-I 0 W/m² 4,7 °C 0,0 km/h (0 Bft)
27.11.2016 00:05 5,4 °C 5,5 °C 95 % 1017,2 hPa 0,0 mm 0,1 km/h (0 Bft) W-SW 241 ° 0 min 0,000 mm 0,0 UV-I 0 W/m² 4,7 °C 1,6 km/h (1 Bft)
27.11.2016 00:06 5,5 °C 5,5 °C 95 % 1017,2 hPa 0,0 mm 0,0 km/h (0 Bft) W-SW 241 ° 0 min 0,000 mm 0,0 UV-I 0 W/m² 4,8 °C 0,0 km/h (0 Bft)
27.11.2016 00:07 5,5 °C 5,5 °C 95 % 1017,2 hPa 0,0 mm 0,0 km/h (0 Bft) W-SW 241 ° 0 min 0,000 mm 0,0 UV-I 0 W/m² 4,8 °C 0,0 km/h (0 Bft)
27.11.2016 00:08 5,5 °C 5,5 °C 95 % 1017,2 hPa 0,0 mm 0,0 km/h (0 Bft) W-SW 241 ° 0 min 0,000 mm 0,0 UV-I 0 W/m² 4,8 °C 0,0 km/h (0 Bft)
27.11.2016 00:09 5,5 °C 5,5 °C 95 % 1017,2 hPa 0,0 mm 0,0 km/h (0 Bft) W-SW 241 ° 0 min 0,000 mm 0,0 UV-I 0 W/m² 4,8 °C 0,0 km/h (0 Bft)
27.11.2016 00:10 5,4 °C 5,5 °C 95 % 1017,1 hPa 0,0 mm 0,0 km/h (0 Bft) W-SW 241 ° 0 min 0,000 mm 0,0 UV-I 0 W/m² 4,7 °C 0,0 km/h (0 Bft)
27.11.2016 00:11 5,4 °C 5,5 °C 95 % 1017,1 hPa 0,0 mm 0,0 km/h (0 Bft) W-SW 241 ° 0 min 0,000 mm 0,0 UV-I 0 W/m² 4,7 °C 0,0 km/h (0 Bft)
27.11.2016 00:12 5,5 °C 5,5 °C 95 % 1017,1 hPa 0,0 mm 0,1 km/h (0 Bft) W-SW 241 ° 0 min 0,000 mm 0,0 UV-I 0 W/m² 4,8 °C 1,6 km/h (1 Bft)
27.11.2016 00:13 5,4 °C 5,5 °C 95 % 1017,1 hPa 0,0 mm 0,1 km/h (0 Bft) W-SW 241 ° 0 min 0,000 mm 0,0 UV-I 0 W/m² 4,7 °C 1,6 km/h (1 Bft)
27.11.2016 00:14 5,5 °C 5,5 °C 95 % 1017,1 hPa 0,0 mm 0,0 km/h (0 Bft) W-SW 241 ° 0 min 0,000 mm 0,0 UV-I 0 W/m² 4,8 °C 0,0 km/h (0 Bft)
27.11.2016 00:15 5,4 °C 5,5 °C 95 % 1017,1 hPa 0,0 mm 0,0 km/h (0 Bft) W-SW 241 ° 0 min 0,000 mm 0,0 UV-I 0 W/m² 4,7 °C 0,0 km/h (0 Bft)
27.11.2016 00:16 5,4 °C 5,5 °C 94 % 1017,1 hPa 0,0 mm 0,3 km/h (0 Bft) W-SW 241 ° 0 min 0,000 mm 0,0 UV-I 0 W/m² 4,5 °C 1,6 km/h (1 Bft)
27.11.2016 00:17 5,4 °C 5,5 °C 95 % 1017,2 hPa 0,0 mm 0,6 km/h (0 Bft) W-SW 241 ° 0 min 0,000 mm 0,0 UV-I 0 W/m² 4,7 °C 1,6 km/h (1 Bft)
27.11.2016 00:18 5,4 °C 5,5 °C 95 % 1017,1 hPa 0,0 mm 1,2 km/h (1 Bft) W-SW 241 ° 0 min 0,000 mm 0,0 UV-I 0 W/m² 4,7 °C 3,2 km/h (1 Bft)
27.11.2016 00:19 5,4 °C 5,4 °C 95 % 1017,1 hPa 0,0 mm 0,1 km/h (0 Bft) W-SW 241 ° 0 min 0,000 mm 0,0 UV-I 0 W/m² 4,7 °C 1,6 km/h (1 Bft)
27.11.2016 00:20 5,5 °C 5,5 °C 95 % 1017,1 hPa 0,0 mm 0,1 km/h (0 Bft) W-SW 241 ° 0 min 0,000 mm 0,0 UV-I 0 W/m² 4,8 °C 1,6 km/h (1 Bft)
27.11.2016 00:21 5,5 °C 5,5 °C 95 % 1017,1 hPa 0,0 mm 0,2 km/h (0 Bft) W-SW 241 ° 0 min 0,000 mm 0,0 UV-I 0 W/m² 4,8 °C 1,6 km/h (1 Bft)
27.11.2016 00:22 5,4 °C 5,5 °C 95 % 1017,0 hPa 0,0 mm 0,1 km/h (0 Bft) W-SW 241 ° 0 min 0,000 mm 0,0 UV-I 0 W/m² 4,7 °C 1,6 km/h (1 Bft)
27.11.2016 00:23 5,5 °C 5,5 °C 95 % 1017,0 hPa 0,0 mm 0,0 km/h (0 Bft) W-SW 241 ° 0 min 0,000 mm 0,0 UV-I 0 W/m² 4,8 °C 0,0 km/h (0 Bft)
27.11.2016 00:24 5,4 °C 5,5 °C 95 % 1017,0 hPa 0,0 mm 0,0 km/h (0 Bft) W-SW 241 ° 0 min 0,000 mm 0,0 UV-I 0 W/m² 4,7 °C 0,0 km/h (0 Bft)
27.11.2016 00:25 5,4 °C 5,4 °C 95 % 1017,0 hPa 0,0 mm 0,0 km/h (0 Bft) W-SW 241 ° 0 min 0,000 mm 0,0 UV-I 0 W/m² 4,7 °C 0,0 km/h (0 Bft)
27.11.2016 00:26 5,5 °C 5,5 °C 95 % 1017,0 hPa 0,0 mm 0,5 km/h (0 Bft) W-SW 241 ° 0 min 0,000 mm 0,0 UV-I 0 W/m² 4,8 °C 1,6 km/h (1 Bft)
27.11.2016 00:27 5,4 °C 5,5 °C 95 % 1017,0 hPa 0,0 mm 1,5 km/h (1 Bft) W-SW 241 ° 0 min 0,000 mm 0,0 UV-I 0 W/m² 4,7 °C 3,2 km/h (1 Bft)
27.11.2016 00:28 5,4 °C 5,5 °C 95 % 1017,0 hPa 0,0 mm 1,1 km/h (1 Bft) W-SW 241 ° 0 min 0,000 mm 0,0 UV-I 0 W/m² 4,7 °C 3,2 km/h (1 Bft)
27.11.2016 00:29 5,4 °C 5,5 °C 95 % 1017,1 hPa 0,0 mm 0,6 km/h (0 Bft) W-SW 241 ° 0 min 0,000 mm 0,0 UV-I 0 W/m² 4,7 °C 1,6 km/h (1 Bft)
27.11.2016 00:30 5,4 °C 5,5 °C 95 % 1017,1 hPa 0,0 mm 1,0 km/h (0 Bft) W-SW 241 ° 0 min 0,000 mm 0,0 UV-I 0 W/m² 4,7 °C 1,6 km/h (1 Bft)
27.11.2016 00:31 5,5 °C 5,5 °C 95 % 1017,0 hPa 0,0 mm 0,6 km/h (0 Bft) W-SW 241 ° 0 min 0,000 mm 0,0 UV-I 0 W/m² 4,8 °C 1,6 km/h (1 Bft)
27.11.2016 00:32 5,5 °C 5,5 °C 95 % 1017,0 hPa 0,0 mm 0,6 km/h (0 Bft) W-SW 241 ° 0 min 0,000 mm 0,0 UV-I 0 W/m² 4,8 °C 3,2 km/h (1 Bft)
27.11.2016 00:33 5,4 °C 5,5 °C 95 % 1017,0 hPa 0,0 mm 4,2 km/h (1 Bft) W-SW 252 ° 0 min 0,000 mm 0,0 UV-I 0 W/m² 4,7 °C 6,4 km/h (2 Bft)
27.11.2016 00:34 5,5 °C 5,5 °C 95 % 1017,0 hPa 0,0 mm 2,9 km/h (1 Bft) W-SW 252 ° 0 min 0,000 mm 0,0 UV-I 0 W/m² 4,8 °C 4,8 km/h (1 Bft)
27.11.2016 00:35 5,5 °C 5,5 °C 95 % 1017,0 hPa 0,0 mm 2,0 km/h (1 Bft) W-SW 252 ° 0 min 0,000 mm 0,0 UV-I 0 W/m² 4,8 °C 3,2 km/h (1 Bft)
27.11.2016 00:36 5,5 °C 5,5 °C 95 % 1017,0 hPa 0,0 mm 3,5 km/h (1 Bft) W-SW 250 ° 0 min 0,000 mm 0,0 UV-I 0 W/m² 4,8 °C 4,8 km/h (1 Bft)
27.11.2016 00:37 5,5 °C 5,5 °C 95 % 1017,0 hPa 0,0 mm 3,2 km/h (1 Bft) W 261 ° 0 min 0,000 mm 0,0 UV-I 0 W/m² 4,8 °C 4,8 km/h (1 Bft)
27.11.2016 00:38 5,4 °C 5,5 °C 95 % 1017,0 hPa 0,0 mm 1,7 km/h (1 Bft) W 261 ° 0 min 0,000 mm 0,0 UV-I 0 W/m² 4,7 °C 4,8 km/h (1 Bft)
27.11.2016 00:39 5,5 °C 5,5 °C 95 % 1016,9 hPa 0,0 mm 4,0 km/h (1 Bft) W 261 ° 0 min 0,000 mm 0,0 UV-I 0 W/m² 4,8 °C 4,8 km/h (1 Bft)
27.11.2016 00:40 5,5 °C 5,5 °C 95 % 1016,9 hPa 0,0 mm 3,8 km/h (1 Bft) W 261 ° 0 min 0,000 mm 0,0 UV-I 0 W/m² 4,8 °C 4,8 km/h (1 Bft)
27.11.2016 00:41 5,5 °C 5,5 °C 95 % 1016,9 hPa 0,0 mm 5,7 km/h (1 Bft) W-SW 254 ° 0 min 0,000 mm 0,0 UV-I 0 W/m² 4,8 °C 6,4 km/h (2 Bft)
27.11.2016 00:42 5,5 °C 5,5 °C 95 % 1017,0 hPa 0,0 mm 4,1 km/h (1 Bft) W 267 ° 0 min 0,000 mm 0,0 UV-I 0 W/m² 4,8 °C 6,4 km/h (2 Bft)
27.11.2016 00:43 5,5 °C 5,5 °C 95 % 1017,0 hPa 0,0 mm 0,6 km/h (0 Bft) W 267 ° 0 min 0,000 mm 0,0 UV-I 0 W/m² 4,8 °C 1,6 km/h (1 Bft)
27.11.2016 00:44 5,5 °C 5,5 °C 95 % 1016,9 hPa 0,0 mm 2,2 km/h (1 Bft) W 267 ° 0 min 0,000 mm 0,0 UV-I 0 W/m² 4,8 °C 3,2 km/h (1 Bft)
27.11.2016 00:45 5,5 °C 5,5 °C 95 % 1016,9 hPa 0,0 mm 3,4 km/h (1 Bft) W 278 ° 0 min 0,000 mm 0,0 UV-I 0 W/m² 4,8 °C 4,8 km/h (1 Bft)
27.11.2016 00:46 5,5 °C 5,5 °C 95 % 1016,9 hPa 0,0 mm 3,1 km/h (1 Bft) W 278 ° 0 min 0,000 mm 0,0 UV-I 0 W/m² 4,8 °C 4,8 km/h (1 Bft)
27.11.2016 00:47 5,5 °C 5,6 °C 95 % 1016,8 hPa 0,0 mm 4,3 km/h (1 Bft) W 265 ° 0 min 0,000 mm 0,0 UV-I 0 W/m² 4,8 °C 6,4 km/h (2 Bft)
27.11.2016 00:48 5,5 °C 5,6 °C 95 % 1016,8 hPa 0,0 mm 3,5 km/h (1 Bft) W 265 ° 0 min 0,000 mm 0,0 UV-I 0 W/m² 4,8 °C 4,8 km/h (1 Bft)
27.11.2016 00:49 5,5 °C 5,6 °C 95 % 1016,9 hPa 0,0 mm 2,7 km/h (1 Bft) W 269 ° 0 min 0,000 mm 0,0 UV-I 0 W/m² 4,8 °C 3,2 km/h (1 Bft)
27.11.2016 00:50 5,5 °C 5,6 °C 95 % 1016,9 hPa 0,0 mm 3,0 km/h (1 Bft) W 268 ° 0 min 0,000 mm 0,0 UV-I 0 W/m² 4,8 °C 4,8 km/h (1 Bft)
27.11.2016 00:51 5,5 °C 5,6 °C 95 % 1016,8 hPa 0,0 mm 1,9 km/h (1 Bft) W 268 ° 0 min 0,000 mm 0,0 UV-I 0 W/m² 4,8 °C 3,2 km/h (1 Bft)
27.11.2016 00:52 5,6 °C 5,6 °C 95 % 1016,8 hPa 0,0 mm 2,6 km/h (1 Bft) W 268 ° 0 min 0,000 mm 0,0 UV-I 0 W/m² 4,9 °C 3,2 km/h (1 Bft)
27.11.2016 00:53 5,6 °C 5,6 °C 95 % 1016,8 hPa 0,0 mm 2,5 km/h (1 Bft) W 268 ° 0 min 0,000 mm 0,0 UV-I 0 W/m² 4,9 °C 3,2 km/h (1 Bft)
27.11.2016 00:54 5,5 °C 5,6 °C 95 % 1016,9 hPa 0,0 mm 1,8 km/h (1 Bft) W 268 ° 0 min 0,000 mm 0,0 UV-I 0 W/m² 4,8 °C 3,2 km/h (1 Bft)
27.11.2016 00:55 5,6 °C 5,6 °C 95 % 1016,9 hPa 0,0 mm 1,8 km/h (1 Bft) W 268 ° 0 min 0,000 mm 0,0 UV-I 0 W/m² 4,9 °C 3,2 km/h (1 Bft)
27.11.2016 00:56 5,6 °C 5,6 °C 95 % 1016,8 hPa 0,0 mm 1,3 km/h (1 Bft) W 268 ° 0 min 0,000 mm 0,0 UV-I 0 W/m² 4,9 °C 3,2 km/h (1 Bft)
27.11.2016 00:57 5,6 °C 5,6 °C 95 % 1016,8 hPa 0,0 mm 1,9 km/h (1 Bft) W 268 ° 0 min 0,000 mm 0,0 UV-I 0 W/m² 4,9 °C 3,2 km/h (1 Bft)
27.11.2016 00:58 5,6 °C 5,6 °C 95 % 1016,8 hPa 0,0 mm 1,9 km/h (1 Bft) W 268 ° 0 min 0,000 mm 0,0 UV-I 0 W/m² 4,9 °C 3,2 km/h (1 Bft)
27.11.2016 00:59 5,6 °C 5,6 °C 95 % 1016,8 hPa 0,0 mm 1,2 km/h (1 Bft) W 268 ° 0 min 0,000 mm 0,0 UV-I 0 W/m² 4,9 °C 3,2 km/h (1 Bft)
27.11.2016 01:00 5,6 °C 5,6 °C 95 % 1016,8 hPa 0,0 mm 0,8 km/h (0 Bft) W 268 ° 0 min 0,000 mm 0,0 UV-I 0 W/m² 4,9 °C 1,6 km/h (1 Bft)
27.11.2016 01:01 5,6 °C 5,6 °C 95 % 1016,7 hPa 0,0 mm 0,1 km/h (0 Bft) W 268 ° 0 min 0,000 mm 0,0 UV-I 0 W/m² 4,9 °C 1,6 km/h (1 Bft)
27.11.2016 01:02 5,6 °C 5,6 °C 95 % 1016,7 hPa 0,0 mm 0,4 km/h (0 Bft) W 268 ° 0 min 0,000 mm 0,0 UV-I 0 W/m² 4,9 °C 1,6 km/h (1 Bft)
27.11.2016 01:03 5,6 °C 5,6 °C 95 % 1016,7 hPa 0,0 mm 1,6 km/h (1 Bft) W 268 ° 0 min 0,000 mm 0,0 UV-I 0 W/m² 4,9 °C 3,2 km/h (1 Bft)
27.11.2016 01:04 5,6 °C 5,6 °C 95 % 1016,7 hPa 0,0 mm 1,4 km/h (1 Bft) W 268 ° 0 min 0,000 mm 0,0 UV-I 0 W/m² 4,9 °C 1,6 km/h (1 Bft)
27.11.2016 01:05 5,6 °C 5,6 °C 95 % 1016,7 hPa 0,0 mm 1,1 km/h (1 Bft) W 268 ° 0 min 0,000 mm 0,0 UV-I 0 W/m² 4,9 °C 1,6 km/h (1 Bft)
27.11.2016 01:06 5,6 °C 5,6 °C 95 % 1016,7 hPa 0,0 mm 1,3 km/h (1 Bft) W 268 ° 0 min 0,000 mm 0,0 UV-I 0 W/m² 4,9 °C 1,6 km/h (1 Bft)
27.11.2016 01:07 5,6 °C 5,6 °C 95 % 1016,7 hPa 0,0 mm 1,2 km/h (1 Bft) W 268 ° 0 min 0,000 mm 0,0 UV-I 0 W/m² 4,9 °C 3,2 km/h (1 Bft)
27.11.2016 01:08 5,6 °C 5,6 °C 95 % 1016,7 hPa 0,0 mm 0,4 km/h (0 Bft) W 268 ° 0 min 0,000 mm 0,0 UV-I 0 W/m² 4,9 °C 1,6 km/h (1 Bft)
27.11.2016 01:09 5,6 °C 5,6 °C 95 % 1016,7 hPa 0,0 mm 0,1 km/h (0 Bft) W 268 ° 0 min 0,000 mm 0,0 UV-I 0 W/m² 4,9 °C 1,6 km/h (1 Bft)
27.11.2016 01:10 5,6 °C 5,6 °C 95 % 1016,7 hPa 0,0 mm 0,0 km/h (0 Bft) W 268 ° 0 min 0,000 mm 0,0 UV-I 0 W/m² 4,9 °C 0,0 km/h (0 Bft)
27.11.2016 01:11 5,6 °C 5,6 °C 95 % 1016,7 hPa 0,0 mm 0,2 km/h (0 Bft) W 268 ° 0 min 0,000 mm 0,0 UV-I 0 W/m² 4,9 °C 1,6 km/h (1 Bft)
27.11.2016 01:12 5,6 °C 5,6 °C 95 % 1016,6 hPa 0,0 mm 0,5 km/h (0 Bft) W 268 ° 0 min 0,000 mm 0,0 UV-I 0 W/m² 4,9 °C 1,6 km/h (1 Bft)
27.11.2016 01:13 5,6 °C 5,6 °C 95 % 1016,7 hPa 0,0 mm 0,0 km/h (0 Bft) W 268 ° 0 min 0,000 mm 0,0 UV-I 0 W/m² 4,9 °C 0,0 km/h (0 Bft)
27.11.2016 01:14 5,6 °C 5,6 °C 95 % 1016,6 hPa 0,0 mm 1,9 km/h (1 Bft) W 269 ° 0 min 0,000 mm 0,0 UV-I 0 W/m² 4,9 °C 3,2 km/h (1 Bft)
27.11.2016 01:15 5,6 °C 5,6 °C 95 % 1016,7 hPa 0,0 mm 1,3 km/h (1 Bft) W 269 ° 0 min 0,000 mm 0,0 UV-I 0 W/m² 4,9 °C 3,2 km/h (1 Bft)
27.11.2016 01:16 5,6 °C 5,6 °C 95 % 1016,6 hPa 0,0 mm 0,9 km/h (0 Bft) W 269 ° 0 min 0,000 mm 0,0 UV-I 0 W/m² 4,9 °C 1,6 km/h (1 Bft)
27.11.2016 01:17 5,6 °C 5,6 °C 95 % 1016,6 hPa 0,0 mm 0,4 km/h (0 Bft) W 269 ° 0 min 0,000 mm 0,0 UV-I 0 W/m² 4,9 °C 1,6 km/h (1 Bft)
27.11.2016 01:18 5,6 °C 5,6 °C 95 % 1016,6 hPa 0,0 mm 0,1 km/h (0 Bft) W 269 ° 0 min 0,000 mm 0,0 UV-I 0 W/m² 4,9 °C 1,6 km/h (1 Bft)
27.11.2016 01:19 5,6 °C 5,6 °C 95 % 1016,6 hPa 0,0 mm 0,0 km/h (0 Bft) W 269 ° 0 min 0,000 mm 0,0 UV-I 0 W/m² 4,9 °C 0,0 km/h (0 Bft)
27.11.2016 01:20 5,6 °C 5,6 °C 95 % 1016,6 hPa 0,0 mm 0,1 km/h (0 Bft) W 269 ° 0 min 0,000 mm 0,0 UV-I 0 W/m² 4,9 °C 1,6 km/h (1 Bft)
27.11.2016 01:21 5,6 °C 5,6 °C 95 % 1016,6 hPa 0,0 mm 0,2 km/h (0 Bft) W 269 ° 0 min 0,000 mm 0,0 UV-I 0 W/m² 4,9 °C 1,6 km/h (1 Bft)
27.11.2016 01:22 5,6 °C 5,6 °C 95 % 1016,6 hPa 0,0 mm 0,0 km/h (0 Bft) W 269 ° 0 min 0,000 mm 0,0 UV-I 0 W/m² 4,9 °C 0,0 km/h (0 Bft)
27.11.2016 01:23 5,6 °C 5,6 °C 95 % 1016,7 hPa 0,0 mm 0,4 km/h (0 Bft) W 269 ° 0 min 0,000 mm 0,0 UV-I 0 W/m² 4,9 °C 1,6 km/h (1 Bft)
27.11.2016 01:24 5,6 °C 5,6 °C 95 % 1016,7 hPa 0,0 mm 0,7 km/h (0 Bft) W 269 ° 0 min 0,000 mm 0,0 UV-I 0 W/m² 4,9 °C 1,6 km/h (1 Bft)
27.11.2016 01:25 5,6 °C 5,6 °C 95 % 1016,7 hPa 0,0 mm 0,7 km/h (0 Bft) W 269 ° 0 min 0,000 mm 0,0 UV-I 0 W/m² 4,9 °C 1,6 km/h (1 Bft)
27.11.2016 01:26 5,6 °C 5,6 °C 95 % 1016,6 hPa 0,0 mm 0,1 km/h (0 Bft) W 269 ° 0 min 0,000 mm 0,0 UV-I 0 W/m² 4,9 °C 1,6 km/h (1 Bft)
27.11.2016 01:27 5,6 °C 5,6 °C 95 % 1016,6 hPa 0,0 mm 0,1 km/h (0 Bft) W 269 ° 0 min 0,000 mm 0,0 UV-I 0 W/m² 4,9 °C 1,6 km/h (1 Bft)
27.11.2016 01:28 5,6 °C 5,6 °C 95 % 1016,6 hPa 0,0 mm 0,3 km/h (0 Bft) W 269 ° 0 min 0,000 mm 0,0 UV-I 0 W/m² 4,9 °C 1,6 km/h (1 Bft)
27.11.2016 01:29 5,6 °C 5,6 °C 95 % 1016,6 hPa 0,0 mm 0,3 km/h (0 Bft) W 269 ° 0 min 0,000 mm 0,0 UV-I 0 W/m² 4,9 °C 1,6 km/h (1 Bft)
27.11.2016 01:30 5,6 °C 5,6 °C 95 % 1016,6 hPa 0,0 mm 0,0 km/h (0 Bft) W 269 ° 0 min 0,000 mm 0,0 UV-I 0 W/m² 4,9 °C 0,0 km/h (0 Bft)
27.11.2016 01:31 5,6 °C 5,6 °C 95 % 1016,6 hPa 0,0 mm 0,0 km/h (0 Bft) W 269 ° 0 min 0,000 mm 0,0 UV-I 0 W/m² 4,9 °C 0,0 km/h (0 Bft)
27.11.2016 01:32 5,6 °C 5,6 °C 95 % 1016,6 hPa 0,0 mm 0,2 km/h (0 Bft) W 269 ° 0 min 0,000 mm 0,0 UV-I 0 W/m² 4,9 °C 1,6 km/h (1 Bft)
27.11.2016 01:33 5,6 °C 5,6 °C 95 % 1016,6 hPa 0,0 mm 0,6 km/h (0 Bft) W 269 ° 0 min 0,000 mm 0,0 UV-I 0 W/m² 4,9 °C 1,6 km/h (1 Bft)
27.11.2016 01:34 5,6 °C 5,6 °C 95 % 1016,6 hPa 0,0 mm 0,5 km/h (0 Bft) W 269 ° 0 min 0,000 mm 0,0 UV-I 0 W/m² 4,9 °C 1,6 km/h (1 Bft)
27.11.2016 01:35 5,6 °C 5,6 °C 95 % 1016,6 hPa 0,0 mm 0,1 km/h (0 Bft) W 269 ° 0 min 0,000 mm 0,0 UV-I 0 W/m² 4,9 °C 1,6 km/h (1 Bft)
27.11.2016 01:36 5,6 °C 5,6 °C 95 % 1016,6 hPa 0,0 mm 0,1 km/h (0 Bft) W 269 ° 0 min 0,000 mm 0,0 UV-I 0 W/m² 4,9 °C 1,6 km/h (1 Bft)
27.11.2016 01:37 5,6 °C 5,6 °C 95 % 1016,6 hPa 0,0 mm 0,7 km/h (0 Bft) W 269 ° 0 min 0,000 mm 0,0 UV-I 0 W/m² 4,9 °C 1,6 km/h (1 Bft)
27.11.2016 01:38 5,6 °C 5,6 °C 95 % 1016,6 hPa 0,0 mm 0,0 km/h (0 Bft) W 269 ° 0 min 0,000 mm 0,0 UV-I 0 W/m² 4,9 °C 0,0 km/h (0 Bft)
27.11.2016 01:39 5,6 °C 5,6 °C 95 % 1016,6 hPa 0,0 mm 0,0 km/h (0 Bft) W 269 ° 0 min 0,000 mm 0,0 UV-I 0 W/m² 4,9 °C 0,0 km/h (0 Bft)
27.11.2016 01:40 5,6 °C 5,6 °C 95 % 1016,6 hPa 0,0 mm 0,0 km/h (0 Bft) W 269 ° 0 min 0,000 mm 0,0 UV-I 0 W/m² 4,9 °C 0,0 km/h (0 Bft)
27.11.2016 01:41 5,6 °C 5,6 °C 95 % 1016,6 hPa 0,0 mm 0,0 km/h (0 Bft) W 269 ° 0 min 0,000 mm 0,0 UV-I 0 W/m² 4,9 °C 0,0 km/h (0 Bft)
27.11.2016 01:42 5,6 °C 5,6 °C 95 % 1016,6 hPa 0,0 mm 0,0 km/h (0 Bft) W 269 ° 0 min 0,000 mm 0,0 UV-I 0 W/m² 4,9 °C 0,0 km/h (0 Bft)
27.11.2016 01:43 5,6 °C 5,6 °C 95 % 1016,6 hPa 0,0 mm 0,0 km/h (0 Bft) W 269 ° 0 min 0,000 mm 0,0 UV-I 0 W/m² 4,9 °C 0,0 km/h (0 Bft)
27.11.2016 01:44 5,6 °C 5,6 °C 95 % 1016,7 hPa 0,0 mm 0,0 km/h (0 Bft) W 269 ° 0 min 0,000 mm 0,0 UV-I 0 W/m² 4,9 °C 0,0 km/h (0 Bft)
27.11.2016 01:45 5,6 °C 5,6 °C 95 % 1016,6 hPa 0,0 mm 0,0 km/h (0 Bft) W 269 ° 0 min 0,000 mm 0,0 UV-I 0 W/m² 4,9 °C 0,0 km/h (0 Bft)
27.11.2016 01:46 5,6 °C 5,6 °C 95 % 1016,6 hPa 0,0 mm 0,0 km/h (0 Bft) W 269 ° 0 min 0,000 mm 0,0 UV-I 0 W/m² 4,9 °C 0,0 km/h (0 Bft)
27.11.2016 01:47 5,6 °C 5,6 °C 95 % 1016,6 hPa 0,0 mm 0,0 km/h (0 Bft) W 269 ° 0 min 0,000 mm 0,0 UV-I 0 W/m² 4,9 °C 0,0 km/h (0 Bft)
27.11.2016 01:48 5,6 °C 5,6 °C 95 % 1016,6 hPa 0,0 mm 0,0 km/h (0 Bft) W 269 ° 0 min 0,000 mm 0,0 UV-I 0 W/m² 4,9 °C 0,0 km/h (0 Bft)
27.11.2016 01:49 5,6 °C 5,6 °C 95 % 1016,6 hPa 0,0 mm 0,0 km/h (0 Bft) W 269 ° 0 min 0,000 mm 0,0 UV-I 0 W/m² 4,9 °C 0,0 km/h (0 Bft)
27.11.2016 01:50 5,6 °C 5,6 °C 95 % 1016,6 hPa 0,0 mm 0,0 km/h (0 Bft) W 269 ° 0 min 0,000 mm 0,0 UV-I 0 W/m² 4,9 °C 0,0 km/h (0 Bft)
27.11.2016 01:51 5,6 °C 5,6 °C 95 % 1016,5 hPa 0,0 mm 0,0 km/h (0 Bft) W 269 ° 0 min 0,000 mm 0,0 UV-I 0 W/m² 4,9 °C 0,0 km/h (0 Bft)
27.11.2016 01:52 5,6 °C 5,6 °C 95 % 1016,6 hPa 0,0 mm 0,0 km/h (0 Bft) W 269 ° 0 min 0,000 mm 0,0 UV-I 0 W/m² 4,9 °C 0,0 km/h (0 Bft)
27.11.2016 01:53 5,6 °C 5,6 °C 95 % 1016,6 hPa 0,0 mm 0,0 km/h (0 Bft) W 269 ° 0 min 0,000 mm 0,0 UV-I 0 W/m² 4,9 °C 0,0 km/h (0 Bft)
27.11.2016 01:54 5,6 °C 5,6 °C 95 % 1016,5 hPa 0,0 mm 0,0 km/h (0 Bft) W 269 ° 0 min 0,000 mm 0,0 UV-I 0 W/m² 4,9 °C 0,0 km/h (0 Bft)
27.11.2016 01:55 5,6 °C 5,6 °C 95 % 1016,5 hPa 0,0 mm 0,0 km/h (0 Bft) W 269 ° 0 min 0,000 mm 0,0 UV-I 0 W/m² 4,9 °C 0,0 km/h (0 Bft)
27.11.2016 01:56 5,6 °C 5,6 °C 95 % 1016,6 hPa 0,0 mm 0,1 km/h (0 Bft) W 269 ° 0 min 0,000 mm 0,0 UV-I 0 W/m² 4,9 °C 1,6 km/h (1 Bft)
27.11.2016 01:57 5,6 °C 5,6 °C 95 % 1016,6 hPa 0,0 mm 0,1 km/h (0 Bft) W 269 ° 0 min 0,000 mm 0,0 UV-I 0 W/m² 4,9 °C 1,6 km/h (1 Bft)
27.11.2016 01:58 5,6 °C 5,6 °C 95 % 1016,6 hPa 0,0 mm 0,7 km/h (0 Bft) W 269 ° 0 min 0,000 mm 0,0 UV-I 0 W/m² 4,9 °C 1,6 km/h (1 Bft)
27.11.2016 01:59 5,6 °C 5,6 °C 95 % 1016,5 hPa 0,0 mm 0,3 km/h (0 Bft) W 269 ° 0 min 0,000 mm 0,0 UV-I 0 W/m² 4,9 °C 1,6 km/h (1 Bft)
27.11.2016 02:00 5,6 °C 5,6 °C 95 % 1016,5 hPa 0,0 mm 0,0 km/h (0 Bft) W 269 ° 0 min 0,000 mm 0,0 UV-I 0 W/m² 4,9 °C 0,0 km/h (0 Bft)
27.11.2016 02:01 5,6 °C 5,6 °C 95 % 1016,5 hPa 0,0 mm 0,6 km/h (0 Bft) W 269 ° 0 min 0,000 mm 0,0 UV-I 0 W/m² 4,9 °C 1,6 km/h (1 Bft)
27.11.2016 02:02 5,6 °C 5,6 °C 95 % 1016,5 hPa 0,0 mm 0,7 km/h (0 Bft) W 269 ° 0 min 0,000 mm 0,0 UV-I 0 W/m² 4,9 °C 1,6 km/h (1 Bft)
27.11.2016 02:03 5,6 °C 5,6 °C 95 % 1016,5 hPa 0,0 mm 0,8 km/h (0 Bft) W 269 ° 0 min 0,000 mm 0,0 UV-I 0 W/m² 4,9 °C 1,6 km/h (1 Bft)
27.11.2016 02:04 5,6 °C 5,6 °C 95 % 1016,5 hPa 0,0 mm 0,5 km/h (0 Bft) W 269 ° 0 min 0,000 mm 0,0 UV-I 0 W/m² 4,9 °C 1,6 km/h (1 Bft)
27.11.2016 02:05 5,6 °C 5,6 °C 95 % 1016,5 hPa 0,0 mm 0,9 km/h (0 Bft) W 269 ° 0 min 0,000 mm 0,0 UV-I 0 W/m² 4,9 °C 1,6 km/h (1 Bft)
27.11.2016 02:06 5,6 °C 5,6 °C 95 % 1016,5 hPa 0,0 mm 1,0 km/h (0 Bft) W 269 ° 0 min 0,000 mm 0,0 UV-I 0 W/m² 4,9 °C 1,6 km/h (1 Bft)
27.11.2016 02:07 5,6 °C 5,6 °C 95 % 1016,5 hPa 0,0 mm 0,7 km/h (0 Bft) W 269 ° 0 min 0,000 mm 0,0 UV-I 0 W/m² 4,9 °C 1,6 km/h (1 Bft)
27.11.2016 02:08 5,6 °C 5,6 °C 95 % 1016,5 hPa 0,0 mm 1,2 km/h (1 Bft) W 269 ° 0 min 0,000 mm 0,0 UV-I 0 W/m² 4,9 °C 1,6 km/h (1 Bft)
27.11.2016 02:09 5,6 °C 5,6 °C 95 % 1016,5 hPa 0,0 mm 0,7 km/h (0 Bft) W 269 ° 0 min 0,000 mm 0,0 UV-I 0 W/m² 4,9 °C 1,6 km/h (1 Bft)
27.11.2016 02:10 5,6 °C 5,6 °C 95 % 1016,5 hPa 0,0 mm 0,0 km/h (0 Bft) W 269 ° 0 min 0,000 mm 0,0 UV-I 0 W/m² 4,9 °C 0,0 km/h (0 Bft)
27.11.2016 02:11 5,6 °C 5,6 °C 95 % 1016,5 hPa 0,0 mm 0,0 km/h (0 Bft) W 269 ° 0 min 0,000 mm 0,0 UV-I 0 W/m² 4,9 °C 0,0 km/h (0 Bft)
27.11.2016 02:12 5,6 °C 5,6 °C 95 % 1016,5 hPa 0,0 mm 0,0 km/h (0 Bft) W 269 ° 0 min 0,000 mm 0,0 UV-I 0 W/m² 4,9 °C 0,0 km/h (0 Bft)
27.11.2016 02:13 5,6 °C 5,6 °C 95 % 1016,5 hPa 0,0 mm 0,0 km/h (0 Bft) W 269 ° 0 min 0,000 mm 0,0 UV-I 0 W/m² 4,9 °C 0,0 km/h (0 Bft)
27.11.2016 02:14 5,6 °C 5,6 °C 95 % 1016,5 hPa 0,0 mm 0,0 km/h (0 Bft) W 269 ° 0 min 0,000 mm 0,0 UV-I 0 W/m² 4,9 °C 0,0 km/h (0 Bft)
27.11.2016 02:15 5,6 °C 5,6 °C 95 % 1016,5 hPa 0,0 mm 0,0 km/h (0 Bft) W 269 ° 0 min 0,000 mm 0,0 UV-I 0 W/m² 4,9 °C 0,0 km/h (0 Bft)
27.11.2016 02:16 5,6 °C 5,6 °C 95 % 1016,5 hPa 0,0 mm 0,0 km/h (0 Bft) W 269 ° 0 min 0,000 mm 0,0 UV-I 0 W/m² 4,9 °C 0,0 km/h (0 Bft)
27.11.2016 02:17 5,6 °C 5,6 °C 95 % 1016,5 hPa 0,0 mm 0,0 km/h (0 Bft) W 269 ° 0 min 0,000 mm 0,0 UV-I 0 W/m² 4,9 °C 0,0 km/h (0 Bft)
27.11.2016 02:18 5,6 °C 5,6 °C 95 % 1016,5 hPa 0,0 mm 0,4 km/h (0 Bft) W 269 ° 0 min 0,000 mm 0,0 UV-I 0 W/m² 4,9 °C 1,6 km/h (1 Bft)
27.11.2016 02:19 5,6 °C 5,6 °C 95 % 1016,5 hPa 0,0 mm 0,2 km/h (0 Bft) W 269 ° 0 min 0,000 mm 0,0 UV-I 0 W/m² 4,9 °C 1,6 km/h (1 Bft)
27.11.2016 02:20 5,6 °C 5,6 °C 95 % 1016,5 hPa 0,0 mm 0,0 km/h (0 Bft) W 269 ° 0 min 0,000 mm 0,0 UV-I 0 W/m² 4,9 °C 0,0 km/h (0 Bft)
27.11.2016 02:21 5,6 °C 5,6 °C 95 % 1016,5 hPa 0,0 mm 0,6 km/h (0 Bft) W 269 ° 0 min 0,000 mm 0,0 UV-I 0 W/m² 4,9 °C 3,2 km/h (1 Bft)
27.11.2016 02:22 5,6 °C 5,6 °C 95 % 1016,5 hPa 0,0 mm 1,4 km/h (1 Bft) W 269 ° 0 min 0,000 mm 0,0 UV-I 0 W/m² 4,9 °C 1,6 km/h (1 Bft)
27.11.2016 02:23 5,6 °C 5,6 °C 95 % 1016,4 hPa 0,0 mm 0,1 km/h (0 Bft) W 269 ° 0 min 0,000 mm 0,0 UV-I 0 W/m² 4,9 °C 1,6 km/h (1 Bft)
27.11.2016 02:24 5,6 °C 5,6 °C 95 % 1016,5 hPa 0,0 mm 0,2 km/h (0 Bft) W 269 ° 0 min 0,000 mm 0,0 UV-I 0 W/m² 4,9 °C 1,6 km/h (1 Bft)
27.11.2016 02:25 5,6 °C 5,6 °C 95 % 1016,5 hPa 0,0 mm 0,0 km/h (0 Bft) W 269 ° 0 min 0,000 mm 0,0 UV-I 0 W/m² 4,9 °C 0,0 km/h (0 Bft)
27.11.2016 02:26 5,6 °C 5,6 °C 95 % 1016,4 hPa 0,0 mm 0,0 km/h (0 Bft) W 269 ° 0 min 0,000 mm 0,0 UV-I 0 W/m² 4,9 °C 0,0 km/h (0 Bft)
27.11.2016 02:27 5,6 °C 5,6 °C 95 % 1016,4 hPa 0,0 mm 0,1 km/h (0 Bft) W 269 ° 0 min 0,000 mm 0,0 UV-I 0 W/m² 4,9 °C 1,6 km/h (1 Bft)
27.11.2016 02:28 5,6 °C 5,6 °C 95 % 1016,4 hPa 0,0 mm 1,3 km/h (1 Bft) W 269 ° 0 min 0,000 mm 0,0 UV-I 0 W/m² 4,9 °C 3,2 km/h (1 Bft)
27.11.2016 02:29 5,6 °C 5,6 °C 95 % 1016,4 hPa 0,0 mm 0,7 km/h (0 Bft) W 269 ° 0 min 0,000 mm 0,0 UV-I 0 W/m² 4,9 °C 1,6 km/h (1 Bft)
27.11.2016 02:30 5,6 °C 5,6 °C 95 % 1016,4 hPa 0,0 mm 1,3 km/h (1 Bft) W 269 ° 0 min 0,000 mm 0,0 UV-I 0 W/m² 4,9 °C 1,6 km/h (1 Bft)
27.11.2016 02:31 5,6 °C 5,6 °C 95 % 1016,3 hPa 0,0 mm 2,8 km/h (1 Bft) W 268 ° 0 min 0,000 mm 0,0 UV-I 0 W/m² 4,9 °C 4,8 km/h (1 Bft)
27.11.2016 02:32 5,6 °C 5,6 °C 95 % 1016,3 hPa 0,0 mm 1,3 km/h (1 Bft) W 268 ° 0 min 0,000 mm 0,0 UV-I 0 W/m² 4,9 °C 3,2 km/h (1 Bft)
27.11.2016 02:33 5,6 °C 5,6 °C 95 % 1016,4 hPa 0,0 mm 0,5 km/h (0 Bft) W 268 ° 0 min 0,000 mm 0,0 UV-I 0 W/m² 4,9 °C 1,6 km/h (1 Bft)
27.11.2016 02:34 5,6 °C 5,6 °C 95 % 1016,3 hPa 0,0 mm 1,0 km/h (0 Bft) W 268 ° 0 min 0,000 mm 0,0 UV-I 0 W/m² 4,9 °C 1,6 km/h (1 Bft)
27.11.2016 02:35 5,6 °C 5,6 °C 95 % 1016,3 hPa 0,0 mm 0,1 km/h (0 Bft) W 268 ° 0 min 0,000 mm 0,0 UV-I 0 W/m² 4,9 °C 1,6 km/h (1 Bft)
27.11.2016 02:36 5,6 °C 5,7 °C 95 % 1016,3 hPa 0,0 mm 0,1 km/h (0 Bft) W 268 ° 0 min 0,000 mm 0,0 UV-I 0 W/m² 4,9 °C 1,6 km/h (1 Bft)
27.11.2016 02:37 5,6 °C 5,6 °C 95 % 1016,3 hPa 0,0 mm 0,0 km/h (0 Bft) W 268 ° 0 min 0,000 mm 0,0 UV-I 0 W/m² 4,9 °C 0,0 km/h (0 Bft)
27.11.2016 02:38 5,6 °C 5,6 °C 95 % 1016,3 hPa 0,0 mm 0,0 km/h (0 Bft) W 268 ° 0 min 0,000 mm 0,0 UV-I 0 W/m² 4,9 °C 0,0 km/h (0 Bft)
27.11.2016 02:39 5,6 °C 5,6 °C 95 % 1016,3 hPa 0,0 mm 0,0 km/h (0 Bft) W 268 ° 0 min 0,000 mm 0,0 UV-I 0 W/m² 4,9 °C 0,0 km/h (0 Bft)
27.11.2016 02:40 5,6 °C 5,6 °C 95 % 1016,3 hPa 0,0 mm 0,0 km/h (0 Bft) W 268 ° 0 min 0,000 mm 0,0 UV-I 0 W/m² 4,9 °C 0,0 km/h (0 Bft)
27.11.2016 02:41 5,6 °C 5,7 °C 95 % 1016,3 hPa 0,0 mm 0,0 km/h (0 Bft) W 268 ° 0 min 0,000 mm 0,0 UV-I 0 W/m² 4,9 °C 0,0 km/h (0 Bft)
27.11.2016 02:42 5,6 °C 5,6 °C 95 % 1016,3 hPa 0,0 mm 0,0 km/h (0 Bft) W 268 ° 0 min 0,000 mm 0,0 UV-I 0 W/m² 4,9 °C 0,0 km/h (0 Bft)
27.11.2016 02:43 5,6 °C 5,7 °C 95 % 1016,3 hPa 0,0 mm 0,1 km/h (0 Bft) W 268 ° 0 min 0,000 mm 0,0 UV-I 0 W/m² 4,9 °C 1,6 km/h (1 Bft)
27.11.2016 02:44 5,6 °C 5,6 °C 95 % 1016,4 hPa 0,0 mm 0,3 km/h (0 Bft) W 268 ° 0 min 0,000 mm 0,0 UV-I 0 W/m² 4,9 °C 1,6 km/h (1 Bft)
27.11.2016 02:45 5,6 °C 5,6 °C 95 % 1016,4 hPa 0,0 mm 0,0 km/h (0 Bft) W 268 ° 0 min 0,000 mm 0,0 UV-I 0 W/m² 4,9 °C 0,0 km/h (0 Bft)
27.11.2016 02:46 5,7 °C 5,7 °C 95 % 1016,3 hPa 0,0 mm 0,0 km/h (0 Bft) W 268 ° 0 min 0,000 mm 0,0 UV-I 0 W/m² 5,0 °C 0,0 km/h (0 Bft)
27.11.2016 02:47 5,6 °C 5,7 °C 95 % 1016,3 hPa 0,0 mm 0,0 km/h (0 Bft) W 268 ° 0 min 0,000 mm 0,0 UV-I 0 W/m² 4,9 °C 0,0 km/h (0 Bft)
27.11.2016 02:48 5,6 °C 5,6 °C 95 % 1016,3 hPa 0,0 mm 0,0 km/h (0 Bft) W 268 ° 0 min 0,000 mm 0,0 UV-I 0 W/m² 4,9 °C 0,0 km/h (0 Bft)
27.11.2016 02:49 5,6 °C 5,6 °C 95 % 1016,3 hPa 0,0 mm 0,0 km/h (0 Bft) W 268 ° 0 min 0,000 mm 0,0 UV-I 0 W/m² 4,9 °C 0,0 km/h (0 Bft)
27.11.2016 02:50 5,6 °C 5,6 °C 95 % 1016,3 hPa 0,0 mm 0,0 km/h (0 Bft) W 268 ° 0 min 0,000 mm 0,0 UV-I 0 W/m² 4,9 °C 0,0 km/h (0 Bft)
27.11.2016 02:51 5,6 °C 5,6 °C 95 % 1016,4 hPa 0,0 mm 0,1 km/h (0 Bft) W 268 ° 0 min 0,000 mm 0,0 UV-I 0 W/m² 4,9 °C 1,6 km/h (1 Bft)
27.11.2016 02:52 5,6 °C 5,7 °C 95 % 1016,3 hPa 0,0 mm 0,1 km/h (0 Bft) W 268 ° 0 min 0,000 mm 0,0 UV-I 0 W/m² 4,9 °C 1,6 km/h (1 Bft)
27.11.2016 02:53 5,6 °C 5,6 °C 95 % 1016,4 hPa 0,0 mm 0,0 km/h (0 Bft) W 268 ° 0 min 0,000 mm 0,0 UV-I 0 W/m² 4,9 °C 0,0 km/h (0 Bft)
27.11.2016 02:54 5,6 °C 5,6 °C 95 % 1016,3 hPa 0,0 mm 0,0 km/h (0 Bft) W 268 ° 0 min 0,000 mm 0,0 UV-I 0 W/m² 4,9 °C 0,0 km/h (0 Bft)
27.11.2016 02:55 5,6 °C 5,6 °C 95 % 1016,3 hPa 0,0 mm 0,0 km/h (0 Bft) W 268 ° 0 min 0,000 mm 0,0 UV-I 0 W/m² 4,9 °C 0,0 km/h (0 Bft)
27.11.2016 02:56 5,6 °C 5,6 °C 95 % 1016,3 hPa 0,0 mm 0,0 km/h (0 Bft) W 268 ° 0 min 0,000 mm 0,0 UV-I 0 W/m² 4,9 °C 0,0 km/h (0 Bft)
27.11.2016 02:57 5,6 °C 5,6 °C 95 % 1016,3 hPa 0,0 mm 0,8 km/h (0 Bft) W 268 ° 0 min 0,000 mm 0,0 UV-I 0 W/m² 4,9 °C 1,6 km/h (1 Bft)
27.11.2016 02:58 5,6 °C 5,6 °C 95 % 1016,3 hPa 0,0 mm 1,0 km/h (0 Bft) W 268 ° 0 min 0,000 mm 0,0 UV-I 0 W/m² 4,9 °C 1,6 km/h (1 Bft)
27.11.2016 02:59 5,6 °C 5,6 °C 95 % 1016,3 hPa 0,0 mm 1,1 km/h (1 Bft) W 268 ° 0 min 0,000 mm 0,0 UV-I 0 W/m² 4,9 °C 1,6 km/h (1 Bft)
27.11.2016 03:00 5,6 °C 5,6 °C 95 % 1016,2 hPa 0,0 mm 1,8 km/h (1 Bft) W 268 ° 0 min 0,000 mm 0,0 UV-I 0 W/m² 4,9 °C 3,2 km/h (1 Bft)
27.11.2016 03:01 5,6 °C 5,6 °C 95 % 1016,2 hPa 0,0 mm 2,8 km/h (1 Bft) W 268 ° 0 min 0,000 mm 0,0 UV-I 0 W/m² 4,9 °C 3,2 km/h (1 Bft)
27.11.2016 03:02 5,6 °C 5,6 °C 95 % 1016,2 hPa 0,0 mm 2,7 km/h (1 Bft) W 268 ° 0 min 0,000 mm 0,0 UV-I 0 W/m² 4,9 °C 3,2 km/h (1 Bft)
27.11.2016 03:03 5,6 °C 5,6 °C 95 % 1016,2 hPa 0,0 mm 1,7 km/h (1 Bft) W 268 ° 0 min 0,000 mm 0,0 UV-I 0 W/m² 4,9 °C 3,2 km/h (1 Bft)
27.11.2016 03:04 5,6 °C 5,6 °C 95 % 1016,2 hPa 0,0 mm 0,3 km/h (0 Bft) W 268 ° 0 min 0,000 mm 0,0 UV-I 0 W/m² 4,9 °C 1,6 km/h (1 Bft)
27.11.2016 03:05 5,6 °C 5,6 °C 95 % 1016,2 hPa 0,0 mm 3,3 km/h (1 Bft) S 177 ° 0 min 0,000 mm 0,0 UV-I 0 W/m² 4,9 °C 6,4 km/h (2 Bft)
27.11.2016 03:06 5,6 °C 5,6 °C 95 % 1016,2 hPa 0,0 mm 2,0 km/h (1 Bft) S 170 ° 0 min 0,000 mm 0,0 UV-I 0 W/m² 4,9 °C 3,2 km/h (1 Bft)
27.11.2016 03:07 5,6 °C 5,6 °C 95 % 1016,2 hPa 0,0 mm 1,3 km/h (1 Bft) S 170 ° 0 min 0,000 mm 0,0 UV-I 0 W/m² 4,9 °C 3,2 km/h (1 Bft)
27.11.2016 03:08 5,6 °C 5,6 °C 95 % 1016,2 hPa 0,0 mm 1,3 km/h (1 Bft) S 170 ° 0 min 0,000 mm 0,0 UV-I 0 W/m² 4,9 °C 1,6 km/h (1 Bft)
27.11.2016 03:09 5,6 °C 5,6 °C 95 % 1016,2 hPa 0,0 mm 0,0 km/h (0 Bft) S 170 ° 0 min 0,000 mm 0,0 UV-I 0 W/m² 4,9 °C 0,0 km/h (0 Bft)
27.11.2016 03:10 5,6 °C 5,6 °C 95 % 1016,2 hPa 0,0 mm 0,0 km/h (0 Bft) S 170 ° 0 min 0,000 mm 0,0 UV-I 0 W/m² 4,9 °C 0,0 km/h (0 Bft)
27.11.2016 03:11 5,6 °C 5,6 °C 95 % 1016,2 hPa 0,0 mm 0,0 km/h (0 Bft) S 170 ° 0 min 0,000 mm 0,0 UV-I 0 W/m² 4,9 °C 0,0 km/h (0 Bft)
27.11.2016 03:12 5,5 °C 5,6 °C 95 % 1016,2 hPa 0,0 mm 0,0 km/h (0 Bft) S 170 ° 0 min 0,000 mm 0,0 UV-I 0 W/m² 4,8 °C 0,0 km/h (0 Bft)
27.11.2016 03:13 5,6 °C 5,6 °C 95 % 1016,2 hPa 0,0 mm 0,0 km/h (0 Bft) S 170 ° 0 min 0,000 mm 0,0 UV-I 0 W/m² 4,9 °C 0,0 km/h (0 Bft)
27.11.2016 03:14 5,5 °C 5,6 °C 95 % 1016,2 hPa 0,0 mm 0,0 km/h (0 Bft) S 170 ° 0 min 0,000 mm 0,0 UV-I 0 W/m² 4,8 °C 0,0 km/h (0 Bft)
27.11.2016 03:15 5,5 °C 5,6 °C 95 % 1016,2 hPa 0,0 mm 0,2 km/h (0 Bft) S 170 ° 0 min 0,000 mm 0,0 UV-I 0 W/m² 4,8 °C 1,6 km/h (1 Bft)
27.11.2016 03:16 5,5 °C 5,6 °C 95 % 1016,2 hPa 0,0 mm 0,7 km/h (0 Bft) S 170 ° 0 min 0,000 mm 0,0 UV-I 0 W/m² 4,8 °C 1,6 km/h (1 Bft)
27.11.2016 03:17 5,5 °C 5,6 °C 95 % 1016,2 hPa 0,0 mm 0,7 km/h (0 Bft) S 170 ° 0 min 0,000 mm 0,0 UV-I 0 W/m² 4,8 °C 1,6 km/h (1 Bft)
27.11.2016 03:18 5,5 °C 5,5 °C 95 % 1016,2 hPa 0,0 mm 0,0 km/h (0 Bft) S 170 ° 0 min 0,000 mm 0,0 UV-I 0 W/m² 4,8 °C 0,0 km/h (0 Bft)
27.11.2016 03:19 5,5 °C 5,5 °C 95 % 1016,2 hPa 0,0 mm 0,1 km/h (0 Bft) S 170 ° 0 min 0,000 mm 0,0 UV-I 0 W/m² 4,8 °C 1,6 km/h (1 Bft)
27.11.2016 03:20 5,5 °C 5,5 °C 95 % 1016,1 hPa 0,0 mm 1,5 km/h (1 Bft) S-SO 168 ° 0 min 0,000 mm 0,0 UV-I 0 W/m² 4,8 °C 3,2 km/h (1 Bft)
27.11.2016 03:21 5,5 °C 5,6 °C 95 % 1016,1 hPa 0,0 mm 1,9 km/h (1 Bft) S-SO 168 ° 0 min 0,000 mm 0,0 UV-I 0 W/m² 4,8 °C 3,2 km/h (1 Bft)
27.11.2016 03:22 5,5 °C 5,5 °C 95 % 1016,0 hPa 0,0 mm 3,4 km/h (1 Bft) S-SW 194 ° 0 min 0,000 mm 0,0 UV-I 0 W/m² 4,8 °C 6,4 km/h (2 Bft)
27.11.2016 03:23 5,5 °C 5,5 °C 95 % 1016,0 hPa 0,0 mm 3,0 km/h (1 Bft) S 190 ° 0 min 0,000 mm 0,0 UV-I 0 W/m² 4,8 °C 4,8 km/h (1 Bft)
27.11.2016 03:24 5,5 °C 5,5 °C 95 % 1016,0 hPa 0,0 mm 3,9 km/h (1 Bft) S-SW 202 ° 0 min 0,000 mm 0,0 UV-I 0 W/m² 4,8 °C 4,8 km/h (1 Bft)
27.11.2016 03:25 5,5 °C 5,5 °C 95 % 1016,0 hPa 0,0 mm 3,4 km/h (1 Bft) S-SW 202 ° 0 min 0,000 mm 0,0 UV-I 0 W/m² 4,8 °C 6,4 km/h (2 Bft)
27.11.2016 03:26 5,5 °C 5,5 °C 95 % 1016,0 hPa 0,0 mm 2,6 km/h (1 Bft) S 180 ° 0 min 0,000 mm 0,0 UV-I 0 W/m² 4,8 °C 4,8 km/h (1 Bft)
27.11.2016 03:27 5,5 °C 5,5 °C 95 % 1015,9 hPa 0,0 mm 1,6 km/h (1 Bft) W 275 ° 0 min 0,000 mm 0,0 UV-I 0 W/m² 4,8 °C 3,2 km/h (1 Bft)
27.11.2016 03:28 5,5 °C 5,5 °C 95 % 1016,0 hPa 0,0 mm 1,6 km/h (1 Bft) W 275 ° 0 min 0,000 mm 0,0 UV-I 0 W/m² 4,8 °C 3,2 km/h (1 Bft)
27.11.2016 03:29 5,5 °C 5,5 °C 95 % 1016,0 hPa 0,0 mm 0,3 km/h (0 Bft) W 275 ° 0 min 0,000 mm 0,0 UV-I 0 W/m² 4,8 °C 1,6 km/h (1 Bft)
27.11.2016 03:30 5,5 °C 5,6 °C 95 % 1016,0 hPa 0,0 mm 0,7 km/h (0 Bft) W 275 ° 0 min 0,000 mm 0,0 UV-I 0 W/m² 4,8 °C 3,2 km/h (1 Bft)
27.11.2016 03:31 5,6 °C 5,6 °C 95 % 1016,1 hPa 0,0 mm 1,5 km/h (1 Bft) W 275 ° 0 min 0,000 mm 0,0 UV-I 0 W/m² 4,9 °C 3,2 km/h (1 Bft)
27.11.2016 03:32 5,5 °C 5,6 °C 95 % 1016,0 hPa 0,0 mm 0,2 km/h (0 Bft) W 275 ° 0 min 0,000 mm 0,0 UV-I 0 W/m² 4,8 °C 1,6 km/h (1 Bft)
27.11.2016 03:33 5,5 °C 5,5 °C 95 % 1016,0 hPa 0,0 mm 0,5 km/h (0 Bft) W 275 ° 0 min 0,000 mm 0,0 UV-I 0 W/m² 4,8 °C 1,6 km/h (1 Bft)
27.11.2016 03:34 5,6 °C 5,6 °C 95 % 1016,1 hPa 0,0 mm 0,9 km/h (0 Bft) W 275 ° 0 min 0,000 mm 0,0 UV-I 0 W/m² 4,9 °C 1,6 km/h (1 Bft)
27.11.2016 03:35 5,5 °C 5,6 °C 95 % 1016,1 hPa 0,0 mm 0,9 km/h (0 Bft) W 275 ° 0 min 0,000 mm 0,0 UV-I 0 W/m² 4,8 °C 1,6 km/h (1 Bft)
27.11.2016 03:36 5,5 °C 5,6 °C 95 % 1016,0 hPa 0,0 mm 1,3 km/h (1 Bft) W 275 ° 0 min 0,000 mm 0,0 UV-I 0 W/m² 4,8 °C 3,2 km/h (1 Bft)
27.11.2016 03:37 5,5 °C 5,5 °C 95 % 1016,0 hPa 0,0 mm 1,1 km/h (1 Bft) W 275 ° 0 min 0,000 mm 0,0 UV-I 0 W/m² 4,8 °C 1,6 km/h (1 Bft)
27.11.2016 03:38 5,5 °C 5,5 °C 95 % 1016,0 hPa 0,0 mm 0,4 km/h (0 Bft) W 275 ° 0 min 0,000 mm 0,0 UV-I 0 W/m² 4,8 °C 1,6 km/h (1 Bft)
27.11.2016 03:39 5,5 °C 5,5 °C 95 % 1016,0 hPa 0,0 mm 0,7 km/h (0 Bft) W 275 ° 0 min 0,000 mm 0,0 UV-I 0 W/m² 4,8 °C 1,6 km/h (1 Bft)
27.11.2016 03:40 5,5 °C 5,5 °C 95 % 1016,1 hPa 0,0 mm 0,0 km/h (0 Bft) W 275 ° 0 min 0,000 mm 0,0 UV-I 0 W/m² 4,8 °C 0,0 km/h (0 Bft)
27.11.2016 03:41 5,5 °C 5,5 °C 95 % 1016,1 hPa 0,0 mm 0,1 km/h (0 Bft) W 275 ° 0 min 0,000 mm 0,0 UV-I 0 W/m² 4,8 °C 1,6 km/h (1 Bft)
27.11.2016 03:42 5,5 °C 5,5 °C 95 % 1016,0 hPa 0,0 mm 0,0 km/h (0 Bft) W 275 ° 0 min 0,000 mm 0,0 UV-I 0 W/m² 4,8 °C 0,0 km/h (0 Bft)
27.11.2016 03:43 5,5 °C 5,5 °C 95 % 1016,0 hPa 0,0 mm 0,3 km/h (0 Bft) W 275 ° 0 min 0,000 mm 0,0 UV-I 0 W/m² 4,8 °C 1,6 km/h (1 Bft)
27.11.2016 03:44 5,5 °C 5,5 °C 95 % 1016,0 hPa 0,0 mm 0,7 km/h (0 Bft) W 275 ° 0 min 0,000 mm 0,0 UV-I 0 W/m² 4,8 °C 1,6 km/h (1 Bft)
27.11.2016 03:45 5,5 °C 5,5 °C 95 % 1016,1 hPa 0,0 mm 0,3 km/h (0 Bft) W 275 ° 0 min 0,000 mm 0,0 UV-I 0 W/m² 4,8 °C 1,6 km/h (1 Bft)
27.11.2016 03:46 5,5 °C 5,5 °C 95 % 1016,0 hPa 0,0 mm 0,0 km/h (0 Bft) W 275 ° 0 min 0,000 mm 0,0 UV-I 0 W/m² 4,8 °C 0,0 km/h (0 Bft)
27.11.2016 03:47 5,5 °C 5,5 °C 95 % 1016,0 hPa 0,0 mm 0,1 km/h (0 Bft) W 275 ° 0 min 0,000 mm 0,0 UV-I 0 W/m² 4,8 °C 1,6 km/h (1 Bft)
27.11.2016 03:48 5,4 °C 5,5 °C 95 % 1016,0 hPa 0,0 mm 1,3 km/h (1 Bft) W 275 ° 0 min 0,000 mm 0,0 UV-I 0 W/m² 4,7 °C 3,2 km/h (1 Bft)
27.11.2016 03:49 5,4 °C 5,5 °C 95 % 1016,1 hPa 0,0 mm 2,1 km/h (1 Bft) W 275 ° 0 min 0,000 mm 0,0 UV-I 0 W/m² 4,7 °C 3,2 km/h (1 Bft)
27.11.2016 03:50 5,5 °C 5,5 °C 95 % 1016,1 hPa 0,0 mm 1,1 km/h (1 Bft) W 275 ° 0 min 0,000 mm 0,0 UV-I 0 W/m² 4,8 °C 3,2 km/h (1 Bft)
27.11.2016 03:51 5,4 °C 5,5 °C 95 % 1016,1 hPa 0,0 mm 1,4 km/h (1 Bft) W 275 ° 0 min 0,000 mm 0,0 UV-I 0 W/m² 4,7 °C 1,6 km/h (1 Bft)
27.11.2016 03:52 5,4 °C 5,4 °C 95 % 1016,1 hPa 0,0 mm 0,6 km/h (0 Bft) W 275 ° 0 min 0,000 mm 0,0 UV-I 0 W/m² 4,7 °C 1,6 km/h (1 Bft)
27.11.2016 03:53 5,4 °C 5,4 °C 95 % 1016,1 hPa 0,0 mm 1,4 km/h (1 Bft) W 275 ° 0 min 0,000 mm 0,0 UV-I 0 W/m² 4,7 °C 1,6 km/h (1 Bft)
27.11.2016 03:54 5,4 °C 5,4 °C 95 % 1016,1 hPa 0,0 mm 0,9 km/h (0 Bft) W 275 ° 0 min 0,000 mm 0,0 UV-I 0 W/m² 4,7 °C 3,2 km/h (1 Bft)
27.11.2016 03:55 5,4 °C 5,5 °C 95 % 1016,1 hPa 0,0 mm 0,5 km/h (0 Bft) W 275 ° 0 min 0,000 mm 0,0 UV-I 0 W/m² 4,7 °C 1,6 km/h (1 Bft)
27.11.2016 03:56 5,4 °C 5,4 °C 95 % 1016,1 hPa 0,0 mm 2,5 km/h (1 Bft) W 275 ° 0 min 0,000 mm 0,0 UV-I 0 W/m² 4,7 °C 3,2 km/h (1 Bft)
27.11.2016 03:57 5,4 °C 5,5 °C 95 % 1016,1 hPa 0,0 mm 1,3 km/h (1 Bft) W 275 ° 0 min 0,000 mm 0,0 UV-I 0 W/m² 4,7 °C 3,2 km/h (1 Bft)
27.11.2016 03:58 5,4 °C 5,5 °C 95 % 1016,1 hPa 0,0 mm 1,3 km/h (1 Bft) W 275 ° 0 min 0,000 mm 0,0 UV-I 0 W/m² 4,7 °C 4,8 km/h (1 Bft)
27.11.2016 03:59 5,4 °C 5,5 °C 95 % 1016,1 hPa 0,0 mm 0,5 km/h (0 Bft) W 275 ° 0 min 0,000 mm 0,0 UV-I 0 W/m² 4,7 °C 3,2 km/h (1 Bft)
27.11.2016 04:00 5,5 °C 5,5 °C 95 % 1016,1 hPa 0,0 mm 0,8 km/h (0 Bft) W-SW 256 ° 0 min 0,000 mm 0,0 UV-I 0 W/m² 4,8 °C 3,2 km/h (1 Bft)
27.11.2016 04:01 5,4 °C 5,5 °C 95 % 1016,1 hPa 0,0 mm 4,0 km/h (1 Bft) W 260 ° 0 min 0,000 mm 0,0 UV-I 0 W/m² 4,7 °C 6,4 km/h (2 Bft)
27.11.2016 04:02 5,5 °C 5,5 °C 95 % 1016,1 hPa 0,0 mm 2,5 km/h (1 Bft) W 260 ° 0 min 0,000 mm 0,0 UV-I 0 W/m² 4,8 °C 3,2 km/h (1 Bft)
27.11.2016 04:03 5,5 °C 5,5 °C 95 % 1016,1 hPa 0,0 mm 1,3 km/h (1 Bft) W 260 ° 0 min 0,000 mm 0,0 UV-I 0 W/m² 4,8 °C 3,2 km/h (1 Bft)
27.11.2016 04:04 5,5 °C 5,5 °C 95 % 1016,1 hPa 0,0 mm 6,2 km/h (2 Bft) S-SW 195 ° 0 min 0,000 mm 0,0 UV-I 0 W/m² 4,8 °C 8,0 km/h (2 Bft)
27.11.2016 04:05 5,5 °C 5,5 °C 95 % 1016,1 hPa 0,0 mm 3,2 km/h (1 Bft) W-SW 246 ° 0 min 0,000 mm 0,0 UV-I 0 W/m² 4,8 °C 4,8 km/h (1 Bft)
27.11.2016 04:06 5,5 °C 5,5 °C 95 % 1016,1 hPa 0,0 mm 3,4 km/h (1 Bft) W-SW 246 ° 0 min 0,000 mm 0,0 UV-I 0 W/m² 4,8 °C 4,8 km/h (1 Bft)
27.11.2016 04:07 5,5 °C 5,6 °C 95 % 1016,1 hPa 0,0 mm 2,8 km/h (1 Bft) W-SW 246 ° 0 min 0,000 mm 0,0 UV-I 0 W/m² 4,8 °C 4,8 km/h (1 Bft)
27.11.2016 04:08 5,6 °C 5,6 °C 95 % 1016,1 hPa 0,0 mm 2,6 km/h (1 Bft) W 268 ° 0 min 0,000 mm 0,0 UV-I 0 W/m² 4,9 °C 4,8 km/h (1 Bft)
27.11.2016 04:09 5,6 °C 5,6 °C 95 % 1016,1 hPa 0,0 mm 3,6 km/h (1 Bft) W 268 ° 0 min 0,000 mm 0,0 UV-I 0 W/m² 4,9 °C 4,8 km/h (1 Bft)
27.11.2016 04:10 5,6 °C 5,6 °C 95 % 1016,2 hPa 0,0 mm 5,0 km/h (1 Bft) W-SW 256 ° 0 min 0,000 mm 0,0 UV-I 0 W/m² 4,9 °C 6,4 km/h (2 Bft)
27.11.2016 04:11 5,6 °C 5,6 °C 95 % 1016,2 hPa 0,0 mm 5,7 km/h (1 Bft) W 279 ° 0 min 0,000 mm 0,0 UV-I 0 W/m² 4,9 °C 8,0 km/h (2 Bft)
27.11.2016 04:12 5,6 °C 5,6 °C 95 % 1016,1 hPa 0,0 mm 3,8 km/h (1 Bft) W 279 ° 0 min 0,000 mm 0,0 UV-I 0 W/m² 4,9 °C 4,8 km/h (1 Bft)
27.11.2016 04:13 5,6 °C 5,6 °C 95 % 1016,2 hPa 0,0 mm 3,9 km/h (1 Bft) W 267 ° 0 min 0,000 mm 0,0 UV-I 0 W/m² 4,9 °C 6,4 km/h (2 Bft)
27.11.2016 04:14 5,6 °C 5,6 °C 95 % 1016,1 hPa 0,0 mm 3,2 km/h (1 Bft) SW 236 ° 0 min 0,000 mm 0,0 UV-I 0 W/m² 4,9 °C 6,4 km/h (2 Bft)
27.11.2016 04:15 5,6 °C 5,6 °C 95 % 1016,1 hPa 0,0 mm 6,2 km/h (2 Bft) W 263 ° 0 min 0,000 mm 0,0 UV-I 0 W/m² 4,9 °C 9,7 km/h (2 Bft)
27.11.2016 04:16 5,6 °C 5,6 °C 95 % 1016,1 hPa 0,0 mm 4,9 km/h (1 Bft) W-SW 256 ° 0 min 0,000 mm 0,0 UV-I 0 W/m² 4,9 °C 8,0 km/h (2 Bft)
27.11.2016 04:17 5,6 °C 5,6 °C 95 % 1016,1 hPa 0,0 mm 6,7 km/h (2 Bft) SW 236 ° 0 min 0,000 mm 0,0 UV-I 0 W/m² 4,9 °C 9,7 km/h (2 Bft)
27.11.2016 04:18 5,6 °C 5,6 °C 95 % 1016,1 hPa 0,0 mm 2,8 km/h (1 Bft) W-SW 244 ° 0 min 0,000 mm 0,0 UV-I 0 W/m² 4,9 °C 4,8 km/h (1 Bft)
27.11.2016 04:19 5,6 °C 5,6 °C 95 % 1016,1 hPa 0,0 mm 4,1 km/h (1 Bft) W-NW 301 ° 0 min 0,000 mm 0,0 UV-I 0 W/m² 4,9 °C 9,7 km/h (2 Bft)
27.11.2016 04:20 5,6 °C 5,6 °C 95 % 1016,1 hPa 0,0 mm 4,4 km/h (1 Bft) W-SW 238 ° 0 min 0,000 mm 0,0 UV-I 0 W/m² 4,9 °C 6,4 km/h (2 Bft)
27.11.2016 04:21 5,7 °C 5,7 °C 95 % 1016,1 hPa 0,0 mm 3,8 km/h (1 Bft) SW 236 ° 0 min 0,000 mm 0,0 UV-I 0 W/m² 5,0 °C 6,4 km/h (2 Bft)
27.11.2016 04:22 5,7 °C 5,7 °C 95 % 1016,1 hPa 0,0 mm 4,2 km/h (1 Bft) W-SW 256 ° 0 min 0,000 mm 0,0 UV-I 0 W/m² 5,0 °C 6,4 km/h (2 Bft)
27.11.2016 04:23 5,7 °C 5,7 °C 95 % 1016,1 hPa 0,0 mm 11,0 km/h (2 Bft) W 274 ° 0 min 0,000 mm 0,0 UV-I 0 W/m² 5,0 °C 16,1 km/h (3 Bft)
27.11.2016 04:24 5,7 °C 5,7 °C 95 % 1016,1 hPa 0,0 mm 9,9 km/h (2 Bft) SW 235 ° 0 min 0,000 mm 0,0 UV-I 0 W/m² 5,0 °C 14,5 km/h (3 Bft)
27.11.2016 04:25 5,7 °C 5,7 °C 95 % 1016,1 hPa 0,0 mm 4,7 km/h (1 Bft) SW 217 ° 0 min 0,000 mm 0,0 UV-I 0 W/m² 5,0 °C 8,0 km/h (2 Bft)
27.11.2016 04:26 5,7 °C 5,7 °C 95 % 1016,1 hPa 0,0 mm 4,2 km/h (1 Bft) W 260 ° 0 min 0,000 mm 0,0 UV-I 0 W/m² 5,0 °C 4,8 km/h (1 Bft)
27.11.2016 04:27 5,7 °C 5,7 °C 95 % 1016,2 hPa 0,0 mm 4,3 km/h (1 Bft) S 181 ° 0 min 0,000 mm 0,0 UV-I 0 W/m² 5,0 °C 8,0 km/h (2 Bft)
27.11.2016 04:28 5,7 °C 5,7 °C 95 % 1016,1 hPa 0,0 mm 3,6 km/h (1 Bft) SW 219 ° 0 min 0,000 mm 0,0 UV-I 0 W/m² 5,0 °C 9,7 km/h (2 Bft)
27.11.2016 04:29 5,7 °C 5,7 °C 95 % 1016,1 hPa 0,0 mm 2,3 km/h (1 Bft) W 263 ° 0 min 0,000 mm 0,0 UV-I 0 W/m² 5,0 °C 4,8 km/h (1 Bft)
27.11.2016 04:30 5,7 °C 5,7 °C 95 % 1016,1 hPa 0,0 mm 3,7 km/h (1 Bft) SW 236 ° 0 min 0,000 mm 0,0 UV-I 0 W/m² 5,0 °C 4,8 km/h (1 Bft)
27.11.2016 04:31 5,7 °C 5,7 °C 95 % 1016,1 hPa 0,0 mm 1,3 km/h (1 Bft) SW 236 ° 0 min 0,000 mm 0,0 UV-I 0 W/m² 5,0 °C 3,2 km/h (1 Bft)
27.11.2016 04:32 5,8 °C 5,8 °C 95 % 1016,1 hPa 0,0 mm 1,9 km/h (1 Bft) SW 236 ° 0 min 0,000 mm 0,0 UV-I 0 W/m² 5,1 °C 3,2 km/h (1 Bft)
27.11.2016 04:33 5,7 °C 5,8 °C 94 % 1016,1 hPa 0,0 mm 1,7 km/h (1 Bft) SW 236 ° 0 min 0,000 mm 0,0 UV-I 0 W/m² 4,8 °C 3,2 km/h (1 Bft)
27.11.2016 04:34 5,8 °C 5,8 °C 94 % 1016,1 hPa 0,0 mm 2,3 km/h (1 Bft) SW 226 ° 0 min 0,000 mm 0,0 UV-I 0 W/m² 4,9 °C 3,2 km/h (1 Bft)
27.11.2016 04:35 5,8 °C 5,8 °C 94 % 1016,1 hPa 0,0 mm 3,8 km/h (1 Bft) W-SW 250 ° 0 min 0,000 mm 0,0 UV-I 0 W/m² 4,9 °C 6,4 km/h (2 Bft)
27.11.2016 04:36 5,8 °C 5,8 °C 94 % 1016,1 hPa 0,0 mm 3,0 km/h (1 Bft) SW 219 ° 0 min 0,000 mm 0,0 UV-I 0 W/m² 4,9 °C 4,8 km/h (1 Bft)
27.11.2016 04:37 5,7 °C 5,8 °C 94 % 1016,1 hPa 0,0 mm 1,3 km/h (1 Bft) SW 219 ° 0 min 0,000 mm 0,0 UV-I 0 W/m² 4,8 °C 3,2 km/h (1 Bft)
27.11.2016 04:38 5,8 °C 5,8 °C 94 % 1016,1 hPa 0,0 mm 2,9 km/h (1 Bft) W 260 ° 0 min 0,000 mm 0,0 UV-I 0 W/m² 4,9 °C 6,4 km/h (2 Bft)
27.11.2016 04:39 5,8 °C 5,8 °C 94 % 1016,1 hPa 0,0 mm 7,2 km/h (2 Bft) W-SW 258 ° 0 min 0,000 mm 0,0 UV-I 0 W/m² 4,9 °C 9,7 km/h (2 Bft)
27.11.2016 04:40 5,8 °C 5,8 °C 94 % 1016,2 hPa 0,0 mm 3,1 km/h (1 Bft) W-SW 258 ° 0 min 0,000 mm 0,0 UV-I 0 W/m² 4,9 °C 6,4 km/h (2 Bft)
27.11.2016 04:41 5,8 °C 5,8 °C 94 % 1016,2 hPa 0,0 mm 3,6 km/h (1 Bft) W-SW 258 ° 0 min 0,000 mm 0,0 UV-I 0 W/m² 4,9 °C 4,8 km/h (1 Bft)
27.11.2016 04:42 5,8 °C 5,8 °C 94 % 1016,2 hPa 0,0 mm 4,0 km/h (1 Bft) W 263 ° 0 min 0,000 mm 0,0 UV-I 0 W/m² 4,9 °C 4,8 km/h (1 Bft)
27.11.2016 04:43 5,8 °C 5,8 °C 94 % 1016,3 hPa 0,0 mm 4,2 km/h (1 Bft) W 265 ° 0 min 0,000 mm 0,0 UV-I 0 W/m² 4,9 °C 6,4 km/h (2 Bft)
27.11.2016 04:44 5,7 °C 5,8 °C 94 % 1016,3 hPa 0,0 mm 3,7 km/h (1 Bft) W-SW 257 ° 0 min 0,000 mm 0,0 UV-I 0 W/m² 4,8 °C 4,8 km/h (1 Bft)
27.11.2016 04:45 5,8 °C 5,8 °C 94 % 1016,3 hPa 0,0 mm 5,3 km/h (1 Bft) W 265 ° 0 min 0,000 mm 0,0 UV-I 0 W/m² 4,9 °C 9,7 km/h (2 Bft)
27.11.2016 04:46 5,7 °C 5,8 °C 94 % 1016,2 hPa 0,0 mm 7,3 km/h (2 Bft) W-SW 248 ° 0 min 0,000 mm 0,0 UV-I 0 W/m² 4,8 °C 12,9 km/h (3 Bft)
27.11.2016 04:47 5,8 °C 5,8 °C 94 % 1016,3 hPa 0,0 mm 12,9 km/h (3 Bft) W-SW 250 ° 0 min 0,000 mm 0,0 UV-I 0 W/m² 4,9 °C 16,1 km/h (3 Bft)
27.11.2016 04:48 5,8 °C 5,8 °C 94 % 1016,3 hPa 0,0 mm 7,4 km/h (2 Bft) W-SW 248 ° 0 min 0,000 mm 0,0 UV-I 0 W/m² 4,9 °C 11,3 km/h (2 Bft)
27.11.2016 04:49 5,8 °C 5,8 °C 94 % 1016,3 hPa 0,0 mm 4,4 km/h (1 Bft) W-SW 256 ° 0 min 0,000 mm 0,0 UV-I 0 W/m² 4,9 °C 8,0 km/h (2 Bft)
27.11.2016 04:50 5,7 °C 5,8 °C 94 % 1016,3 hPa 0,0 mm 4,8 km/h (1 Bft) W-SW 246 ° 0 min 0,000 mm 0,0 UV-I 0 W/m² 4,8 °C 6,4 km/h (2 Bft)
27.11.2016 04:51 5,8 °C 5,8 °C 94 % 1016,2 hPa 0,0 mm 4,8 km/h (1 Bft) W 265 ° 0 min 0,000 mm 0,0 UV-I 0 W/m² 4,9 °C 6,4 km/h (2 Bft)
27.11.2016 04:52 5,7 °C 5,8 °C 94 % 1016,2 hPa 0,0 mm 4,8 km/h (1 Bft) W-SW 256 ° 0 min 0,000 mm 0,0 UV-I 0 W/m² 4,8 °C 6,4 km/h (2 Bft)
27.11.2016 04:53 5,7 °C 5,8 °C 94 % 1016,2 hPa 0,0 mm 2,9 km/h (1 Bft) W-SW 256 ° 0 min 0,000 mm 0,0 UV-I 0 W/m² 4,8 °C 4,8 km/h (1 Bft)
27.11.2016 04:54 5,8 °C 5,8 °C 94 % 1016,3 hPa 0,0 mm 3,5 km/h (1 Bft) W-SW 257 ° 0 min 0,000 mm 0,0 UV-I 0 W/m² 4,9 °C 4,8 km/h (1 Bft)
27.11.2016 04:55 5,8 °C 5,8 °C 94 % 1016,3 hPa 0,0 mm 4,3 km/h (1 Bft) W 265 ° 0 min 0,000 mm 0,0 UV-I 0 W/m² 4,9 °C 6,4 km/h (2 Bft)
27.11.2016 04:56 5,8 °C 5,8 °C 94 % 1016,3 hPa 0,0 mm 3,6 km/h (1 Bft) W 269 ° 0 min 0,000 mm 0,0 UV-I 0 W/m² 4,9 °C 6,4 km/h (2 Bft)
27.11.2016 04:57 5,7 °C 5,8 °C 94 % 1016,3 hPa 0,0 mm 2,9 km/h (1 Bft) W 263 ° 0 min 0,000 mm 0,0 UV-I 0 W/m² 4,8 °C 4,8 km/h (1 Bft)
27.11.2016 04:58 5,7 °C 5,8 °C 94 % 1016,3 hPa 0,0 mm 2,9 km/h (1 Bft) W 266 ° 0 min 0,000 mm 0,0 UV-I 0 W/m² 4,8 °C 4,8 km/h (1 Bft)
27.11.2016 04:59 5,7 °C 5,8 °C 94 % 1016,3 hPa 0,0 mm 4,8 km/h (1 Bft) W-SW 253 ° 0 min 0,000 mm 0,0 UV-I 0 W/m² 4,8 °C 6,4 km/h (2 Bft)
27.11.2016 05:00 5,7 °C 5,8 °C 94 % 1016,3 hPa 0,0 mm 4,2 km/h (1 Bft) W 265 ° 0 min 0,000 mm 0,0 UV-I 0 W/m² 4,8 °C 6,4 km/h (2 Bft)
27.11.2016 05:01 5,7 °C 5,8 °C 94 % 1016,3 hPa 0,0 mm 3,6 km/h (1 Bft) W-SW 251 ° 0 min 0,000 mm 0,0 UV-I 0 W/m² 4,8 °C 6,4 km/h (2 Bft)
27.11.2016 05:02 5,7 °C 5,7 °C 94 % 1016,3 hPa 0,0 mm 5,1 km/h (1 Bft) W-SW 250 ° 0 min 0,000 mm 0,0 UV-I 0 W/m² 4,8 °C 6,4 km/h (2 Bft)
27.11.2016 05:03 5,7 °C 5,8 °C 94 % 1016,2 hPa 0,0 mm 3,8 km/h (1 Bft) W 263 ° 0 min 0,000 mm 0,0 UV-I 0 W/m² 4,8 °C 4,8 km/h (1 Bft)
27.11.2016 05:04 5,7 °C 5,8 °C 94 % 1016,2 hPa 0,0 mm 5,6 km/h (1 Bft) SW 234 ° 0 min 0,000 mm 0,0 UV-I 0 W/m² 4,8 °C 11,3 km/h (2 Bft)
27.11.2016 05:05 5,7 °C 5,7 °C 94 % 1016,2 hPa 0,0 mm 4,7 km/h (1 Bft) W-SW 249 ° 0 min 0,000 mm 0,0 UV-I 0 W/m² 4,8 °C 8,0 km/h (2 Bft)
27.11.2016 05:06 5,7 °C 5,7 °C 94 % 1016,2 hPa 0,0 mm 7,0 km/h (2 Bft) W 275 ° 0 min 0,000 mm 0,0 UV-I 0 W/m² 4,8 °C 11,3 km/h (2 Bft)
27.11.2016 05:07 5,7 °C 5,7 °C 94 % 1016,2 hPa 0,0 mm 5,8 km/h (2 Bft) W 272 ° 0 min 0,000 mm 0,0 UV-I 0 W/m² 4,8 °C 9,7 km/h (2 Bft)
27.11.2016 05:08 5,7 °C 5,7 °C 95 % 1016,2 hPa 0,0 mm 5,2 km/h (1 Bft) W-SW 257 ° 0 min 0,000 mm 0,0 UV-I 0 W/m² 5,0 °C 8,0 km/h (2 Bft)
27.11.2016 05:09 5,7 °C 5,7 °C 95 % 1016,2 hPa 0,0 mm 6,6 km/h (2 Bft) W-NW 284 ° 0 min 0,000 mm 0,0 UV-I 0 W/m² 5,0 °C 11,3 km/h (2 Bft)
27.11.2016 05:10 5,7 °C 5,7 °C 95 % 1016,2 hPa 0,0 mm 6,9 km/h (2 Bft) W-SW 248 ° 0 min 0,000 mm 0,0 UV-I 0 W/m² 5,0 °C 9,7 km/h (2 Bft)
27.11.2016 05:11 5,7 °C 5,7 °C 95 % 1016,2 hPa 0,0 mm 7,6 km/h (2 Bft) W-SW 254 ° 0 min 0,000 mm 0,0 UV-I 0 W/m² 5,0 °C 9,7 km/h (2 Bft)
27.11.2016 05:12 5,7 °C 5,7 °C 95 % 1016,1 hPa 0,0 mm 4,7 km/h (1 Bft) W-SW 250 ° 0 min 0,000 mm 0,0 UV-I 0 W/m² 5,0 °C 6,4 km/h (2 Bft)
27.11.2016 05:13 5,7 °C 5,7 °C 95 % 1016,1 hPa 0,0 mm 3,2 km/h (1 Bft) W-SW 251 ° 0 min 0,000 mm 0,0 UV-I 0 W/m² 5,0 °C 4,8 km/h (1 Bft)
27.11.2016 05:14 5,7 °C 5,7 °C 95 % 1016,1 hPa 0,0 mm 5,2 km/h (1 Bft) W-SW 254 ° 0 min 0,000 mm 0,0 UV-I 0 W/m² 5,0 °C 8,0 km/h (2 Bft)
27.11.2016 05:15 5,7 °C 5,7 °C 95 % 1016,2 hPa 0,0 mm 5,9 km/h (2 Bft) W 277 ° 0 min 0,000 mm 0,0 UV-I 0 W/m² 5,0 °C 11,3 km/h (2 Bft)
27.11.2016 05:16 5,7 °C 5,7 °C 95 % 1016,1 hPa 0,0 mm 5,2 km/h (1 Bft) W 261 ° 0 min 0,000 mm 0,0 UV-I 0 W/m² 5,0 °C 11,3 km/h (2 Bft)
27.11.2016 05:17 5,7 °C 5,7 °C 95 % 1016,2 hPa 0,0 mm 9,9 km/h (2 Bft) W 275 ° 0 min 0,000 mm 0,0 UV-I 0 W/m² 5,0 °C 16,1 km/h (3 Bft)
27.11.2016 05:18 5,7 °C 5,7 °C 95 % 1016,2 hPa 0,0 mm 6,5 km/h (2 Bft) W-SW 242 ° 0 min 0,000 mm 0,0 UV-I 0 W/m² 5,0 °C 11,3 km/h (2 Bft)
27.11.2016 05:19 5,7 °C 5,7 °C 95 % 1016,2 hPa 0,0 mm 7,2 km/h (2 Bft) W 262 ° 0 min 0,000 mm 0,0 UV-I 0 W/m² 5,0 °C 11,3 km/h (2 Bft)
27.11.2016 05:20 5,7 °C 5,7 °C 95 % 1016,2 hPa 0,0 mm 9,0 km/h (2 Bft) W-NW 293 ° 0 min 0,000 mm 0,0 UV-I 0 W/m² 5,0 °C 11,3 km/h (2 Bft)
27.11.2016 05:21 5,7 °C 5,7 °C 95 % 1016,2 hPa 0,0 mm 5,8 km/h (2 Bft) W 273 ° 0 min 0,000 mm 0,0 UV-I 0 W/m² 5,0 °C 9,7 km/h (2 Bft)
27.11.2016 05:22 5,7 °C 5,7 °C 95 % 1016,2 hPa 0,0 mm 7,6 km/h (2 Bft) W-SW 250 ° 0 min 0,000 mm 0,0 UV-I 0 W/m² 5,0 °C 11,3 km/h (2 Bft)
27.11.2016 05:23 5,7 °C 5,7 °C 95 % 1016,2 hPa 0,0 mm 6,0 km/h (2 Bft) W-SW 246 ° 0 min 0,000 mm 0,0 UV-I 0 W/m² 5,0 °C 11,3 km/h (2 Bft)
27.11.2016 05:24 5,7 °C 5,7 °C 95 % 1016,2 hPa 0,0 mm 10,9 km/h (2 Bft) SW 230 ° 0 min 0,000 mm 0,0 UV-I 0 W/m² 5,0 °C 14,5 km/h (3 Bft)
27.11.2016 05:25 5,7 °C 5,7 °C 95 % 1016,2 hPa 0,0 mm 11,1 km/h (2 Bft) W 278 ° 0 min 0,000 mm 0,0 UV-I 0 W/m² 5,0 °C 14,5 km/h (3 Bft)
27.11.2016 05:26 5,7 °C 5,7 °C 95 % 1016,2 hPa 0,0 mm 12,5 km/h (3 Bft) W-SW 246 ° 0 min 0,000 mm 0,0 UV-I 0 W/m² 5,0 °C 20,9 km/h (4 Bft)
27.11.2016 05:27 5,7 °C 5,7 °C 95 % 1016,1 hPa 0,0 mm 10,9 km/h (2 Bft) W-NW 292 ° 0 min 0,000 mm 0,0 UV-I 0 W/m² 5,0 °C 17,7 km/h (3 Bft)
27.11.2016 05:28 5,7 °C 5,7 °C 95 % 1016,2 hPa 0,0 mm 7,4 km/h (2 Bft) W-SW 252 ° 0 min 0,000 mm 0,0 UV-I 0 W/m² 5,0 °C 12,9 km/h (3 Bft)
27.11.2016 05:29 5,7 °C 5,7 °C 95 % 1016,2 hPa 0,0 mm 8,0 km/h (2 Bft) W-SW 244 ° 0 min 0,000 mm 0,0 UV-I 0 W/m² 5,0 °C 11,3 km/h (2 Bft)
27.11.2016 05:30 5,7 °C 5,7 °C 95 % 1016,2 hPa 0,0 mm 8,8 km/h (2 Bft) W-SW 245 ° 0 min 0,000 mm 0,0 UV-I 0 W/m² 5,0 °C 12,9 km/h (3 Bft)
27.11.2016 05:31 5,6 °C 5,7 °C 95 % 1016,2 hPa 0,0 mm 11,9 km/h (2 Bft) W-SW 248 ° 0 min 0,000 mm 0,0 UV-I 0 W/m² 4,9 °C 14,5 km/h (3 Bft)
27.11.2016 05:32 5,7 °C 5,7 °C 95 % 1016,2 hPa 0,0 mm 12,9 km/h (3 Bft) W-SW 256 ° 0 min 0,000 mm 0,0 UV-I 0 W/m² 5,0 °C 19,3 km/h (3 Bft)
27.11.2016 05:33 5,7 °C 5,7 °C 95 % 1016,2 hPa 0,0 mm 9,4 km/h (2 Bft) SW 233 ° 0 min 0,000 mm 0,0 UV-I 0 W/m² 5,0 °C 14,5 km/h (3 Bft)
27.11.2016 05:34 5,7 °C 5,7 °C 95 % 1016,2 hPa 0,0 mm 3,9 km/h (1 Bft) W-NW 282 ° 0 min 0,000 mm 0,0 UV-I 0 W/m² 5,0 °C 6,4 km/h (2 Bft)
27.11.2016 05:35 5,7 °C 5,7 °C 95 % 1016,2 hPa 0,0 mm 5,5 km/h (1 Bft) W 269 ° 0 min 0,000 mm 0,0 UV-I 0 W/m² 5,0 °C 9,7 km/h (2 Bft)
27.11.2016 05:36 5,6 °C 5,7 °C 95 % 1016,1 hPa 0,0 mm 4,4 km/h (1 Bft) W 279 ° 0 min 0,000 mm 0,0 UV-I 0 W/m² 4,9 °C 6,4 km/h (2 Bft)
27.11.2016 05:37 5,6 °C 5,7 °C 95 % 1016,1 hPa 0,0 mm 3,9 km/h (1 Bft) W-NW 293 ° 0 min 0,000 mm 0,0 UV-I 0 W/m² 4,9 °C 4,8 km/h (1 Bft)
27.11.2016 05:38 5,7 °C 5,7 °C 95 % 1016,1 hPa 0,0 mm 7,0 km/h (2 Bft) W-SW 257 ° 0 min 0,000 mm 0,0 UV-I 0 W/m² 5,0 °C 12,9 km/h (3 Bft)
27.11.2016 05:39 5,6 °C 5,7 °C 95 % 1016,2 hPa 0,0 mm 9,7 km/h (2 Bft) W-NW 284 ° 0 min 0,000 mm 0,0 UV-I 0 W/m² 4,9 °C 14,5 km/h (3 Bft)
27.11.2016 05:40 5,6 °C 5,6 °C 95 % 1016,2 hPa 0,0 mm 7,3 km/h (2 Bft) W-SW 238 ° 0 min 0,000 mm 0,0 UV-I 0 W/m² 4,9 °C 11,3 km/h (2 Bft)
27.11.2016 05:41 5,7 °C 5,7 °C 95 % 1016,2 hPa 0,0 mm 7,6 km/h (2 Bft) W 281 ° 0 min 0,000 mm 0,0 UV-I 0 W/m² 5,0 °C 11,3 km/h (2 Bft)
27.11.2016 05:42 5,6 °C 5,7 °C 95 % 1016,2 hPa 0,0 mm 13,9 km/h (3 Bft) W 281 ° 0 min 0,000 mm 0,0 UV-I 0 W/m² 4,9 °C 17,7 km/h (3 Bft)
27.11.2016 05:43 5,6 °C 5,6 °C 95 % 1016,2 hPa 0,0 mm 10,0 km/h (2 Bft) W 277 ° 0 min 0,000 mm 0,0 UV-I 0 W/m² 4,9 °C 12,9 km/h (3 Bft)
27.11.2016 05:44 5,6 °C 5,6 °C 95 % 1016,1 hPa 0,0 mm 9,9 km/h (2 Bft) W 277 ° 0 min 0,000 mm 0,0 UV-I 0 W/m² 4,9 °C 16,1 km/h (3 Bft)
27.11.2016 05:45 5,6 °C 5,6 °C 95 % 1016,2 hPa 0,0 mm 9,1 km/h (2 Bft) W-NW 299 ° 0 min 0,000 mm 0,0 UV-I 0 W/m² 4,9 °C 14,5 km/h (3 Bft)
27.11.2016 05:46 5,6 °C 5,6 °C 95 % 1016,1 hPa 0,0 mm 9,5 km/h (2 Bft) W-NW 285 ° 0 min 0,000 mm 0,0 UV-I 0 W/m² 4,9 °C 11,3 km/h (2 Bft)
27.11.2016 05:47 5,6 °C 5,6 °C 95 % 1016,1 hPa 0,0 mm 7,9 km/h (2 Bft) W 261 ° 0 min 0,000 mm 0,0 UV-I 0 W/m² 4,9 °C 12,9 km/h (3 Bft)
27.11.2016 05:48 5,6 °C 5,6 °C 95 % 1016,1 hPa 0,0 mm 9,8 km/h (2 Bft) W 264 ° 0 min 0,000 mm 0,0 UV-I 0 W/m² 4,9 °C 14,5 km/h (3 Bft)
27.11.2016 05:49 5,6 °C 5,6 °C 95 % 1016,2 hPa 0,0 mm 15,6 km/h (3 Bft) W 265 ° 0 min 0,000 mm 0,0 UV-I 0 W/m² 4,9 °C 20,9 km/h (4 Bft)
27.11.2016 05:50 5,6 °C 5,6 °C 95 % 1016,1 hPa 0,0 mm 9,3 km/h (2 Bft) W-SW 242 ° 0 min 0,000 mm 0,0 UV-I 0 W/m² 4,9 °C 17,7 km/h (3 Bft)
27.11.2016 05:51 5,6 °C 5,6 °C 95 % 1016,1 hPa 0,0 mm 9,1 km/h (2 Bft) W-NW 296 ° 0 min 0,000 mm 0,0 UV-I 0 W/m² 4,9 °C 14,5 km/h (3 Bft)
27.11.2016 05:52 5,6 °C 5,6 °C 95 % 1016,1 hPa 0,0 mm 5,6 km/h (1 Bft) W 263 ° 0 min 0,000 mm 0,0 UV-I 0 W/m² 4,9 °C 9,7 km/h (2 Bft)
27.11.2016 05:53 5,6 °C 5,6 °C 95 % 1016,1 hPa 0,0 mm 5,1 km/h (1 Bft) W 265 ° 0 min 0,000 mm 0,0 UV-I 0 W/m² 4,9 °C 9,7 km/h (2 Bft)
27.11.2016 05:54 5,6 °C 5,6 °C 95 % 1016,1 hPa 0,0 mm 7,0 km/h (2 Bft) W 265 ° 0 min 0,000 mm 0,0 UV-I 0 W/m² 4,9 °C 9,7 km/h (2 Bft)
27.11.2016 05:55 5,6 °C 5,6 °C 95 % 1016,2 hPa 0,0 mm 5,3 km/h (1 Bft) W 266 ° 0 min 0,000 mm 0,0 UV-I 0 W/m² 4,9 °C 11,3 km/h (2 Bft)
27.11.2016 05:56 5,6 °C 5,6 °C 95 % 1016,1 hPa 0,0 mm 7,7 km/h (2 Bft) W-NW 285 ° 0 min 0,000 mm 0,0 UV-I 0 W/m² 4,9 °C 12,9 km/h (3 Bft)
27.11.2016 05:57 5,6 °C 5,6 °C 95 % 1016,1 hPa 0,0 mm 5,4 km/h (1 Bft) SW 233 ° 0 min 0,000 mm 0,0 UV-I 0 W/m² 4,9 °C 9,7 km/h (2 Bft)
27.11.2016 05:58 5,6 °C 5,6 °C 95 % 1016,1 hPa 0,0 mm 7,4 km/h (2 Bft) W-SW 244 ° 0 min 0,000 mm 0,0 UV-I 0 W/m² 4,9 °C 11,3 km/h (2 Bft)
27.11.2016 05:59 5,6 °C 5,6 °C 95 % 1016,1 hPa 0,0 mm 7,3 km/h (2 Bft) SW 230 ° 0 min 0,000 mm 0,0 UV-I 0 W/m² 4,9 °C 11,3 km/h (2 Bft)
27.11.2016 06:00 5,6 °C 5,6 °C 95 % 1016,2 hPa 0,0 mm 10,8 km/h (2 Bft) W-SW 242 ° 0 min 0,000 mm 0,0 UV-I 0 W/m² 4,9 °C 14,5 km/h (3 Bft)
27.11.2016 06:01 5,6 °C 5,6 °C 95 % 1016,1 hPa 0,0 mm 6,4 km/h (2 Bft) W 261 ° 0 min 0,000 mm 0,0 UV-I 0 W/m² 4,9 °C 12,9 km/h (3 Bft)
27.11.2016 06:02 5,6 °C 5,6 °C 95 % 1016,1 hPa 0,0 mm 14,7 km/h (3 Bft) W-SW 254 ° 0 min 0,000 mm 0,0 UV-I 0 W/m² 4,9 °C 19,3 km/h (3 Bft)
27.11.2016 06:03 5,6 °C 5,6 °C 95 % 1016,1 hPa 0,0 mm 8,9 km/h (2 Bft) W-NW 290 ° 0 min 0,000 mm 0,0 UV-I 0 W/m² 4,9 °C 11,3 km/h (2 Bft)
27.11.2016 06:04 5,6 °C 5,6 °C 95 % 1016,1 hPa 0,0 mm 10,7 km/h (2 Bft) W-NW 296 ° 0 min 0,000 mm 0,0 UV-I 0 W/m² 4,9 °C 14,5 km/h (3 Bft)
27.11.2016 06:05 5,5 °C 5,6 °C 95 % 1016,1 hPa 0,0 mm 13,9 km/h (3 Bft) W 269 ° 0 min 0,000 mm 0,0 UV-I 0 W/m² 4,8 °C 19,3 km/h (3 Bft)
27.11.2016 06:06 5,5 °C 5,6 °C 95 % 1016,1 hPa 0,0 mm 9,1 km/h (2 Bft) W 271 ° 0 min 0,000 mm 0,0 UV-I 0 W/m² 4,8 °C 12,9 km/h (3 Bft)
27.11.2016 06:07 5,5 °C 5,6 °C 95 % 1016,1 hPa 0,0 mm 9,4 km/h (2 Bft) W-SW 254 ° 0 min 0,000 mm 0,0 UV-I 0 W/m² 4,8 °C 12,9 km/h (3 Bft)
27.11.2016 06:08 5,5 °C 5,6 °C 95 % 1016,1 hPa 0,0 mm 8,1 km/h (2 Bft) W-NW 286 ° 0 min 0,000 mm 0,0 UV-I 0 W/m² 4,8 °C 14,5 km/h (3 Bft)
27.11.2016 06:09 5,5 °C 5,6 °C 95 % 1016,1 hPa 0,0 mm 10,3 km/h (2 Bft) W 277 ° 0 min 0,000 mm 0,0 UV-I 0 W/m² 4,8 °C 14,5 km/h (3 Bft)
27.11.2016 06:10 5,5 °C 5,5 °C 95 % 1016,1 hPa 0,0 mm 10,3 km/h (2 Bft) W-SW 251 ° 0 min 0,000 mm 0,0 UV-I 0 W/m² 4,8 °C 14,5 km/h (3 Bft)
27.11.2016 06:11 5,5 °C 5,5 °C 95 % 1016,2 hPa 0,0 mm 10,0 km/h (2 Bft) W-SW 241 ° 0 min 0,000 mm 0,0 UV-I 0 W/m² 4,8 °C 14,5 km/h (3 Bft)
27.11.2016 06:12 5,5 °C 5,5 °C 95 % 1016,1 hPa 0,0 mm 10,4 km/h (2 Bft) W-SW 242 ° 0 min 0,000 mm 0,0 UV-I 0 W/m² 4,8 °C 14,5 km/h (3 Bft)
27.11.2016 06:13 5,5 °C 5,5 °C 95 % 1016,2 hPa 0,0 mm 5,7 km/h (1 Bft) W-NW 295 ° 0 min 0,000 mm 0,0 UV-I 0 W/m² 4,8 °C 8,0 km/h (2 Bft)
27.11.2016 06:14 5,5 °C 5,5 °C 95 % 1016,2 hPa 0,0 mm 5,3 km/h (1 Bft) W 277 ° 0 min 0,000 mm 0,0 UV-I 0 W/m² 4,8 °C 8,0 km/h (2 Bft)
27.11.2016 06:15 5,4 °C 5,5 °C 95 % 1016,2 hPa 0,2 mm 7,1 km/h (2 Bft) W 276 ° 0 min 0,000 mm 0,0 UV-I 0 W/m² 4,7 °C 12,9 km/h (3 Bft)
27.11.2016 06:16 5,4 °C 5,5 °C 95 % 1016,2 hPa 0,0 mm 8,4 km/h (2 Bft) W 281 ° 0 min 0,000 mm 0,0 UV-I 0 W/m² 4,7 °C 11,3 km/h (2 Bft)
27.11.2016 06:17 5,5 °C 5,5 °C 95 % 1016,2 hPa 0,0 mm 6,8 km/h (2 Bft) W-SW 258 ° 0 min 0,000 mm 0,0 UV-I 0 W/m² 4,8 °C 11,3 km/h (2 Bft)
27.11.2016 06:18 5,5 °C 5,5 °C 95 % 1016,2 hPa 0,0 mm 7,9 km/h (2 Bft) W-SW 245 ° 0 min 0,000 mm 0,0 UV-I 0 W/m² 4,8 °C 12,9 km/h (3 Bft)
27.11.2016 06:19 5,5 °C 5,5 °C 95 % 1016,1 hPa 0,0 mm 9,0 km/h (2 Bft) W 263 ° 0 min 0,000 mm 0,0 UV-I 0 W/m² 4,8 °C 14,5 km/h (3 Bft)
27.11.2016 06:20 5,4 °C 5,5 °C 95 % 1016,1 hPa 0,0 mm 8,2 km/h (2 Bft) W-SW 257 ° 0 min 0,000 mm 0,0 UV-I 0 W/m² 4,7 °C 11,3 km/h (2 Bft)
27.11.2016 06:21 5,5 °C 5,5 °C 95 % 1016,1 hPa 0,0 mm 6,2 km/h (2 Bft) W-SW 246 ° 0 min 0,000 mm 0,0 UV-I 0 W/m² 4,8 °C 8,0 km/h (2 Bft)
27.11.2016 06:22 5,4 °C 5,5 °C 95 % 1016,1 hPa 0,0 mm 10,4 km/h (2 Bft) W 269 ° 0 min 0,000 mm 0,0 UV-I 0 W/m² 4,7 °C 17,7 km/h (3 Bft)
27.11.2016 06:23 5,4 °C 5,4 °C 94 % 1016,1 hPa 0,0 mm 10,6 km/h (2 Bft) W 274 ° 0 min 0,000 mm 0,0 UV-I 0 W/m² 4,5 °C 14,5 km/h (3 Bft)
27.11.2016 06:24 5,5 °C 5,5 °C 95 % 1016,2 hPa 0,0 mm 7,2 km/h (2 Bft) W 278 ° 0 min 0,000 mm 0,0 UV-I 0 W/m² 4,8 °C 11,3 km/h (2 Bft)
27.11.2016 06:25 5,4 °C 5,5 °C 94 % 1016,1 hPa 0,0 mm 7,2 km/h (2 Bft) W 261 ° 0 min 0,000 mm 0,0 UV-I 0 W/m² 4,5 °C 11,3 km/h (2 Bft)
27.11.2016 06:26 5,4 °C 5,4 °C 94 % 1016,1 hPa 0,0 mm 7,4 km/h (2 Bft) W 260 ° 0 min 0,000 mm 0,0 UV-I 0 W/m² 4,5 °C 11,3 km/h (2 Bft)
27.11.2016 06:27 5,4 °C 5,5 °C 94 % 1016,2 hPa 0,0 mm 12,3 km/h (3 Bft) W-NW 298 ° 0 min 0,000 mm 0,0 UV-I 0 W/m² 4,5 °C 16,1 km/h (3 Bft)
27.11.2016 06:28 5,4 °C 5,4 °C 94 % 1016,2 hPa 0,0 mm 10,9 km/h (2 Bft) W 260 ° 0 min 0,000 mm 0,0 UV-I 0 W/m² 4,5 °C 16,1 km/h (3 Bft)
27.11.2016 06:29 5,4 °C 5,4 °C 94 % 1016,2 hPa 0,0 mm 8,5 km/h (2 Bft) W-NW 288 ° 0 min 0,000 mm 0,0 UV-I 0 W/m² 4,5 °C 14,5 km/h (3 Bft)
27.11.2016 06:30 5,4 °C 5,4 °C 94 % 1016,2 hPa 0,0 mm 10,3 km/h (2 Bft) W-NW 297 ° 0 min 0,000 mm 0,0 UV-I 0 W/m² 4,5 °C 17,7 km/h (3 Bft)
27.11.2016 06:31 5,4 °C 5,4 °C 94 % 1016,2 hPa 0,0 mm 6,7 km/h (2 Bft) W 260 ° 0 min 0,000 mm 0,0 UV-I 0 W/m² 4,5 °C 14,5 km/h (3 Bft)
27.11.2016 06:32 5,4 °C 5,4 °C 94 % 1016,2 hPa 0,0 mm 4,0 km/h (1 Bft) W 261 ° 0 min 0,000 mm 0,0 UV-I 0 W/m² 4,5 °C 6,4 km/h (2 Bft)
27.11.2016 06:33 5,4 °C 5,4 °C 94 % 1016,2 hPa 0,0 mm 10,6 km/h (2 Bft) W-SW 247 ° 0 min 0,000 mm 0,0 UV-I 0 W/m² 4,5 °C 14,5 km/h (3 Bft)
27.11.2016 06:34 5,4 °C 5,4 °C 95 % 1016,2 hPa 0,0 mm 9,1 km/h (2 Bft) W 269 ° 0 min 0,000 mm 0,0 UV-I 0 W/m² 4,7 °C 14,5 km/h (3 Bft)
27.11.2016 06:35 5,4 °C 5,4 °C 95 % 1016,2 hPa 0,0 mm 5,6 km/h (1 Bft) W 261 ° 0 min 0,000 mm 0,0 UV-I 0 W/m² 4,7 °C 12,9 km/h (3 Bft)
27.11.2016 06:36 5,4 °C 5,4 °C 95 % 1016,3 hPa 0,0 mm 6,4 km/h (2 Bft) W-NW 282 ° 0 min 0,000 mm 0,0 UV-I 0 W/m² 4,7 °C 9,7 km/h (2 Bft)
27.11.2016 06:37 5,4 °C 5,4 °C 95 % 1016,3 hPa 0,0 mm 3,8 km/h (1 Bft) W 262 ° 0 min 0,000 mm 0,0 UV-I 0 W/m² 4,7 °C 4,8 km/h (1 Bft)
27.11.2016 06:38 5,4 °C 5,4 °C 95 % 1016,2 hPa 0,0 mm 5,5 km/h (1 Bft) W 263 ° 0 min 0,000 mm 0,0 UV-I 0 W/m² 4,7 °C 8,0 km/h (2 Bft)
27.11.2016 06:39 5,4 °C 5,4 °C 95 % 1016,2 hPa 0,0 mm 3,2 km/h (1 Bft) W 263 ° 0 min 0,000 mm 0,0 UV-I 0 W/m² 4,7 °C 4,8 km/h (1 Bft)
27.11.2016 06:40 5,4 °C 5,4 °C 95 % 1016,2 hPa 0,0 mm 4,9 km/h (1 Bft) W-SW 258 ° 0 min 0,000 mm 0,0 UV-I 0 W/m² 4,7 °C 12,9 km/h (3 Bft)
27.11.2016 06:41 5,4 °C 5,4 °C 95 % 1016,2 hPa 0,0 mm 6,4 km/h (2 Bft) W-SW 248 ° 0 min 0,000 mm 0,0 UV-I 0 W/m² 4,7 °C 11,3 km/h (2 Bft)
27.11.2016 06:42 5,4 °C 5,4 °C 95 % 1016,2 hPa 0,0 mm 2,2 km/h (1 Bft) W 271 ° 0 min 0,000 mm 0,0 UV-I 0 W/m² 4,7 °C 3,2 km/h (1 Bft)
27.11.2016 06:43 5,4 °C 5,4 °C 95 % 1016,2 hPa 0,0 mm 3,4 km/h (1 Bft) W 274 ° 0 min 0,000 mm 0,0 UV-I 0 W/m² 4,7 °C 4,8 km/h (1 Bft)
27.11.2016 06:44 5,4 °C 5,4 °C 95 % 1016,2 hPa 0,0 mm 6,0 km/h (2 Bft) W 267 ° 0 min 0,000 mm 0,0 UV-I 0 W/m² 4,7 °C 9,7 km/h (2 Bft)
27.11.2016 06:45 5,4 °C 5,4 °C 95 % 1016,3 hPa 0,0 mm 8,9 km/h (2 Bft) W 265 ° 0 min 0,000 mm 0,0 UV-I 0 W/m² 4,7 °C 14,5 km/h (3 Bft)
27.11.2016 06:46 5,4 °C 5,4 °C 95 % 1016,2 hPa 0,0 mm 9,3 km/h (2 Bft) W 275 ° 0 min 0,000 mm 0,0 UV-I 0 W/m² 4,7 °C 14,5 km/h (3 Bft)
27.11.2016 06:47 5,4 °C 5,4 °C 95 % 1016,2 hPa 0,0 mm 7,6 km/h (2 Bft) W-NW 284 ° 0 min 0,000 mm 0,0 UV-I 0 W/m² 4,7 °C 11,3 km/h (2 Bft)
27.11.2016 06:48 5,4 °C 5,4 °C 95 % 1016,2 hPa 0,0 mm 4,4 km/h (1 Bft) W-NW 284 ° 0 min 0,000 mm 0,0 UV-I 0 W/m² 4,7 °C 6,4 km/h (2 Bft)
27.11.2016 06:49 5,4 °C 5,4 °C 95 % 1016,3 hPa 0,0 mm 3,4 km/h (1 Bft) W 260 ° 0 min 0,000 mm 0,0 UV-I 0 W/m² 4,7 °C 4,8 km/h (1 Bft)
27.11.2016 06:50 5,4 °C 5,4 °C 95 % 1016,3 hPa 0,0 mm 7,0 km/h (2 Bft) W-SW 257 ° 0 min 0,000 mm 0,0 UV-I 0 W/m² 4,7 °C 9,7 km/h (2 Bft)
27.11.2016 06:51 5,4 °C 5,4 °C 95 % 1016,3 hPa 0,0 mm 6,2 km/h (2 Bft) W 269 ° 0 min 0,000 mm 0,0 UV-I 0 W/m² 4,7 °C 9,7 km/h (2 Bft)
27.11.2016 06:52 5,4 °C 5,4 °C 95 % 1016,2 hPa 0,0 mm 5,8 km/h (2 Bft) W 275 ° 0 min 0,000 mm 0,0 UV-I 0 W/m² 4,7 °C 9,7 km/h (2 Bft)
27.11.2016 06:53 5,4 °C 5,4 °C 95 % 1016,2 hPa 0,0 mm 11,4 km/h (2 Bft) W 259 ° 0 min 0,000 mm 0,0 UV-I 0 W/m² 4,7 °C 14,5 km/h (3 Bft)
27.11.2016 06:54 5,4 °C 5,4 °C 95 % 1016,2 hPa 0,0 mm 7,0 km/h (2 Bft) W-SW 251 ° 0 min 0,000 mm 0,0 UV-I 0 W/m² 4,7 °C 11,3 km/h (2 Bft)
27.11.2016 06:55 5,4 °C 5,4 °C 95 % 1016,2 hPa 0,0 mm 4,5 km/h (1 Bft) W-SW 257 ° 0 min 0,000 mm 0,0 UV-I 0 W/m² 4,7 °C 6,4 km/h (2 Bft)
27.11.2016 06:56 5,4 °C 5,4 °C 95 % 1016,2 hPa 0,0 mm 6,5 km/h (2 Bft) W 275 ° 0 min 0,000 mm 0,0 UV-I 0 W/m² 4,7 °C 9,7 km/h (2 Bft)
27.11.2016 06:57 5,3 °C 5,4 °C 95 % 1016,2 hPa 0,0 mm 4,4 km/h (1 Bft) W 265 ° 0 min 0,000 mm 0,0 UV-I 0 W/m² 4,6 °C 6,4 km/h (2 Bft)
27.11.2016 06:58 5,3 °C 5,4 °C 95 % 1016,2 hPa 0,0 mm 5,0 km/h (1 Bft) W-SW 257 ° 0 min 0,000 mm 0,0 UV-I 0 W/m² 4,6 °C 6,4 km/h (2 Bft)
27.11.2016 06:59 5,4 °C 5,4 °C 95 % 1016,2 hPa 0,0 mm 8,4 km/h (2 Bft) W 262 ° 0 min 0,000 mm 0,0 UV-I 0 W/m² 4,7 °C 12,9 km/h (3 Bft)
27.11.2016 07:00 5,3 °C 5,4 °C 95 % 1016,2 hPa 0,0 mm 5,8 km/h (2 Bft) W-SW 248 ° 0 min 0,000 mm 0,0 UV-I 0 W/m² 4,6 °C 11,3 km/h (2 Bft)
27.11.2016 07:01 5,4 °C 5,4 °C 95 % 1016,2 hPa 0,0 mm 3,4 km/h (1 Bft) W-SW 248 ° 0 min 0,000 mm 0,0 UV-I 0 W/m² 4,7 °C 4,8 km/h (1 Bft)
27.11.2016 07:02 5,4 °C 5,4 °C 95 % 1016,2 hPa 0,0 mm 3,9 km/h (1 Bft) W 265 ° 0 min 0,000 mm 0,0 UV-I 0 W/m² 4,7 °C 4,8 km/h (1 Bft)
27.11.2016 07:03 5,4 °C 5,4 °C 95 % 1016,2 hPa 0,0 mm 6,3 km/h (2 Bft) W-SW 244 ° 0 min 0,000 mm 0,0 UV-I 0 W/m² 4,7 °C 12,9 km/h (3 Bft)
27.11.2016 07:04 5,3 °C 5,4 °C 95 % 1016,2 hPa 0,0 mm 10,3 km/h (2 Bft) W-SW 241 ° 0 min 0,000 mm 0,0 UV-I 0 W/m² 4,6 °C 12,9 km/h (3 Bft)
27.11.2016 07:05 5,4 °C 5,4 °C 95 % 1016,2 hPa 0,0 mm 6,1 km/h (2 Bft) W 261 ° 0 min 0,000 mm 0,0 UV-I 0 W/m² 4,7 °C 9,7 km/h (2 Bft)
27.11.2016 07:06 5,3 °C 5,4 °C 95 % 1016,2 hPa 0,0 mm 6,0 km/h (2 Bft) W-SW 255 ° 0 min 0,000 mm 0,0 UV-I 0 W/m² 4,6 °C 9,7 km/h (2 Bft)
27.11.2016 07:07 5,4 °C 5,4 °C 95 % 1016,2 hPa 0,0 mm 2,9 km/h (1 Bft) W 259 ° 0 min 0,000 mm 0,0 UV-I 0 W/m² 4,7 °C 4,8 km/h (1 Bft)
27.11.2016 07:08 5,4 °C 5,4 °C 95 % 1016,2 hPa 0,0 mm 5,7 km/h (1 Bft) W 263 ° 0 min 0,000 mm 0,0 UV-I 0 W/m² 4,7 °C 9,7 km/h (2 Bft)
27.11.2016 07:09 5,4 °C 5,4 °C 95 % 1016,2 hPa 0,0 mm 4,3 km/h (1 Bft) W-NW 291 ° 0 min 0,000 mm 0,0 UV-I 0 W/m² 4,7 °C 6,4 km/h (2 Bft)
27.11.2016 07:10 5,3 °C 5,4 °C 95 % 1016,2 hPa 0,0 mm 3,6 km/h (1 Bft) W 279 ° 0 min 0,000 mm 0,0 UV-I 0 W/m² 4,6 °C 6,4 km/h (2 Bft)
27.11.2016 07:11 5,3 °C 5,3 °C 95 % 1016,2 hPa 0,0 mm 5,7 km/h (1 Bft) W-NW 285 ° 0 min 0,000 mm 0,0 UV-I 0 W/m² 4,6 °C 9,7 km/h (2 Bft)
27.11.2016 07:12 5,3 °C 5,3 °C 95 % 1016,2 hPa 0,0 mm 4,9 km/h (1 Bft) W-SW 251 ° 0 min 0,000 mm 0,0 UV-I 0 W/m² 4,6 °C 8,0 km/h (2 Bft)
27.11.2016 07:13 5,3 °C 5,4 °C 95 % 1016,2 hPa 0,0 mm 9,0 km/h (2 Bft) SW 225 ° 0 min 0,000 mm 0,0 UV-I 0 W/m² 4,6 °C 12,9 km/h (3 Bft)
27.11.2016 07:14 5,3 °C 5,3 °C 95 % 1016,2 hPa 0,0 mm 8,6 km/h (2 Bft) W 261 ° 0 min 0,000 mm 0,0 UV-I 0 W/m² 4,6 °C 12,9 km/h (3 Bft)
27.11.2016 07:15 5,3 °C 5,3 °C 95 % 1016,2 hPa 0,0 mm 4,4 km/h (1 Bft) W 265 ° 0 min 0,000 mm 0,0 UV-I 0 W/m² 4,6 °C 8,0 km/h (2 Bft)
27.11.2016 07:16 5,3 °C 5,3 °C 95 % 1016,2 hPa 0,0 mm 3,8 km/h (1 Bft) W-SW 253 ° 0 min 0,000 mm 0,0 UV-I 0 W/m² 4,6 °C 4,8 km/h (1 Bft)
27.11.2016 07:17 5,3 °C 5,3 °C 95 % 1016,2 hPa 0,0 mm 6,6 km/h (2 Bft) W 261 ° 0 min 0,000 mm 0,0 UV-I 0 W/m² 4,6 °C 11,3 km/h (2 Bft)
27.11.2016 07:18 5,3 °C 5,3 °C 95 % 1016,2 hPa 0,0 mm 5,7 km/h (1 Bft) W-SW 258 ° 0 min 0,000 mm 0,0 UV-I 0 W/m² 4,6 °C 6,4 km/h (2 Bft)
27.11.2016 07:19 5,3 °C 5,3 °C 95 % 1016,3 hPa 0,0 mm 4,0 km/h (1 Bft) W 263 ° 0 min 0,000 mm 0,0 UV-I 0 W/m² 4,6 °C 4,8 km/h (1 Bft)
27.11.2016 07:20 5,3 °C 5,3 °C 95 % 1016,3 hPa 0,0 mm 4,2 km/h (1 Bft) W-SW 254 ° 0 min 0,000 mm 0,0 UV-I 0 W/m² 4,6 °C 6,4 km/h (2 Bft)
27.11.2016 07:21 5,3 °C 5,3 °C 95 % 1016,4 hPa 0,0 mm 3,6 km/h (1 Bft) W-SW 252 ° 0 min 0,000 mm 0,0 UV-I 0 W/m² 4,6 °C 9,7 km/h (2 Bft)
27.11.2016 07:22 5,3 °C 5,3 °C 95 % 1016,3 hPa 0,0 mm 7,1 km/h (2 Bft) W-NW 288 ° 0 min 0,000 mm 0,0 UV-I 0 W/m² 4,6 °C 9,7 km/h (2 Bft)
27.11.2016 07:23 5,3 °C 5,3 °C 95 % 1016,3 hPa 0,0 mm 6,6 km/h (2 Bft) W 278 ° 0 min 0,000 mm 0,0 UV-I 0 W/m² 4,6 °C 9,7 km/h (2 Bft)
27.11.2016 07:24 5,3 °C 5,3 °C 95 % 1016,4 hPa 0,0 mm 4,0 km/h (1 Bft) W 265 ° 0 min 0,000 mm 0,0 UV-I 0 W/m² 4,6 °C 4,8 km/h (1 Bft)
27.11.2016 07:25 5,3 °C 5,3 °C 95 % 1016,4 hPa 0,0 mm 3,0 km/h (1 Bft) W 265 ° 0 min 0,000 mm 0,0 UV-I 0 W/m² 4,6 °C 4,8 km/h (1 Bft)
27.11.2016 07:26 5,3 °C 5,3 °C 95 % 1016,3 hPa 0,0 mm 3,0 km/h (1 Bft) W-SW 255 ° 0 min 0,000 mm 0,0 UV-I 0 W/m² 4,6 °C 4,8 km/h (1 Bft)
27.11.2016 07:27 5,3 °C 5,3 °C 95 % 1016,3 hPa 0,0 mm 3,8 km/h (1 Bft) W-SW 256 ° 0 min 0,000 mm 0,0 UV-I 0 W/m² 4,6 °C 4,8 km/h (1 Bft)
27.11.2016 07:28 5,3 °C 5,3 °C 95 % 1016,4 hPa 0,0 mm 6,2 km/h (2 Bft) W 270 ° 0 min 0,000 mm 0,0 UV-I 0 W/m² 4,6 °C 9,7 km/h (2 Bft)
27.11.2016 07:29 5,3 °C 5,3 °C 95 % 1016,4 hPa 0,0 mm 5,8 km/h (2 Bft) W-NW 286 ° 0 min 0,000 mm 0,0 UV-I 0 W/m² 4,6 °C 9,7 km/h (2 Bft)
27.11.2016 07:30 5,3 °C 5,3 °C 95 % 1016,4 hPa 0,0 mm 5,6 km/h (1 Bft) W-SW 258 ° 0 min 0,000 mm 0,0 UV-I 0 W/m² 4,6 °C 6,4 km/h (2 Bft)
27.11.2016 07:31 5,3 °C 5,3 °C 95 % 1016,4 hPa 0,0 mm 3,9 km/h (1 Bft) W-SW 257 ° 0 min 0,000 mm 0,0 UV-I 0 W/m² 4,6 °C 4,8 km/h (1 Bft)
27.11.2016 07:32 5,3 °C 5,3 °C 95 % 1016,4 hPa 0,0 mm 4,4 km/h (1 Bft) SW 236 ° 0 min 0,000 mm 0,0 UV-I 0 W/m² 4,6 °C 6,4 km/h (2 Bft)
27.11.2016 07:33 5,3 °C 5,3 °C 95 % 1016,4 hPa 0,0 mm 4,6 km/h (1 Bft) W 259 ° 0 min 0,000 mm 0,0 UV-I 0 W/m² 4,6 °C 6,4 km/h (2 Bft)
27.11.2016 07:34 5,3 °C 5,3 °C 95 % 1016,4 hPa 0,0 mm 2,3 km/h (1 Bft) W-SW 256 ° 0 min 0,000 mm 0,0 UV-I 0 W/m² 4,6 °C 3,2 km/h (1 Bft)
27.11.2016 07:35 5,3 °C 5,3 °C 95 % 1016,4 hPa 0,0 mm 4,7 km/h (1 Bft) W 279 ° 0 min 0,000 mm 0,0 UV-I 0 W/m² 4,6 °C 6,4 km/h (2 Bft)
27.11.2016 07:36 5,3 °C 5,3 °C 95 % 1016,5 hPa 0,0 mm 4,3 km/h (1 Bft) W-NW 287 ° 0 min 0,000 mm 0,0 UV-I 0 W/m² 4,6 °C 6,4 km/h (2 Bft)
27.11.2016 07:37 5,3 °C 5,3 °C 95 % 1016,5 hPa 0,0 mm 3,2 km/h (1 Bft) W 268 ° 0 min 0,000 mm 0,0 UV-I 0 W/m² 4,6 °C 4,8 km/h (1 Bft)
27.11.2016 07:38 5,3 °C 5,3 °C 95 % 1016,5 hPa 0,2 mm 4,5 km/h (1 Bft) W 259 ° 0 min 0,000 mm 0,0 UV-I 0 W/m² 4,6 °C 6,4 km/h (2 Bft)
27.11.2016 07:39 5,3 °C 5,3 °C 95 % 1016,4 hPa 0,0 mm 3,4 km/h (1 Bft) W 281 ° 0 min 0,000 mm 0,0 UV-I 0 W/m² 4,6 °C 4,8 km/h (1 Bft)
27.11.2016 07:40 5,3 °C 5,3 °C 95 % 1016,5 hPa 0,0 mm 4,4 km/h (1 Bft) W-NW 282 ° 0 min 0,000 mm 0,0 UV-I 0 W/m² 4,6 °C 6,4 km/h (2 Bft)
27.11.2016 07:41 5,3 °C 5,3 °C 95 % 1016,5 hPa 0,0 mm 2,6 km/h (1 Bft) W-NW 282 ° 0 min 0,000 mm 0,0 UV-I 0 W/m² 4,6 °C 3,2 km/h (1 Bft)
27.11.2016 07:42 5,3 °C 5,3 °C 95 % 1016,5 hPa 0,0 mm 1,1 km/h (1 Bft) W-NW 282 ° 0 min 0,000 mm 0,0 UV-I 0 W/m² 4,6 °C 1,6 km/h (1 Bft)
27.11.2016 07:43 5,3 °C 5,3 °C 95 % 1016,6 hPa 0,0 mm 2,3 km/h (1 Bft) W 273 ° 0 min 0,000 mm 0,0 UV-I 0 W/m² 4,6 °C 3,2 km/h (1 Bft)
27.11.2016 07:44 5,3 °C 5,3 °C 95 % 1016,6 hPa 0,0 mm 1,2 km/h (1 Bft) W 273 ° 0 min 0,000 mm 0,0 UV-I 0 W/m² 4,6 °C 1,6 km/h (1 Bft)
27.11.2016 07:45 5,3 °C 5,3 °C 95 % 1016,6 hPa 0,0 mm 0,9 km/h (0 Bft) W 273 ° 0 min 0,000 mm 0,0 UV-I 0 W/m² 4,6 °C 1,6 km/h (1 Bft)
27.11.2016 07:46 5,3 °C 5,3 °C 95 % 1016,6 hPa 0,0 mm 1,1 km/h (1 Bft) W 273 ° 0 min 0,000 mm 0,0 UV-I 0 W/m² 4,6 °C 3,2 km/h (1 Bft)
27.11.2016 07:47 5,3 °C 5,3 °C 95 % 1016,6 hPa 0,0 mm 2,6 km/h (1 Bft) W 269 ° 0 min 0,000 mm 0,0 UV-I 0 W/m² 4,6 °C 3,2 km/h (1 Bft)
27.11.2016 07:48 5,3 °C 5,3 °C 95 % 1016,6 hPa 0,0 mm 2,6 km/h (1 Bft) W 265 ° 0 min 0,000 mm 0,0 UV-I 0 W/m² 4,6 °C 4,8 km/h (1 Bft)
27.11.2016 07:49 5,3 °C 5,3 °C 95 % 1016,6 hPa 0,0 mm 5,4 km/h (1 Bft) W 273 ° 0 min 0,000 mm 0,0 UV-I 0 W/m² 4,6 °C 9,7 km/h (2 Bft)
27.11.2016 07:50 5,3 °C 5,3 °C 95 % 1016,6 hPa 0,0 mm 2,6 km/h (1 Bft) W 273 ° 0 min 0,000 mm 0,0 UV-I 0 W/m² 4,6 °C 4,8 km/h (1 Bft)
27.11.2016 07:51 5,3 °C 5,3 °C 95 % 1016,6 hPa 0,0 mm 3,1 km/h (1 Bft) NW 307 ° 0 min 0,000 mm 0,0 UV-I 0 W/m² 4,6 °C 8,0 km/h (2 Bft)
27.11.2016 07:52 5,3 °C 5,3 °C 95 % 1016,5 hPa 0,0 mm 4,0 km/h (1 Bft) W-NW 289 ° 0 min 0,000 mm 0,0 UV-I 0 W/m² 4,6 °C 6,4 km/h (2 Bft)
27.11.2016 07:53 5,3 °C 5,3 °C 95 % 1016,5 hPa 0,0 mm 1,2 km/h (1 Bft) W-NW 289 ° 0 min 0,000 mm 0,0 UV-I 0 W/m² 4,6 °C 3,2 km/h (1 Bft)
27.11.2016 07:54 5,3 °C 5,3 °C 95 % 1016,5 hPa 0,0 mm 2,0 km/h (1 Bft) W-NW 289 ° 0 min 0,000 mm 0,0 UV-I 0 W/m² 4,6 °C 3,2 km/h (1 Bft)
27.11.2016 07:55 5,3 °C 5,3 °C 95 % 1016,5 hPa 0,0 mm 0,7 km/h (0 Bft) W-NW 289 ° 0 min 0,000 mm 0,0 UV-I 0 W/m² 4,6 °C 1,6 km/h (1 Bft)
27.11.2016 07:56 5,3 °C 5,3 °C 95 % 1016,5 hPa 0,0 mm 3,7 km/h (1 Bft) W 268 ° 0 min 0,000 mm 0,0 UV-I 0 W/m² 4,6 °C 4,8 km/h (1 Bft)
27.11.2016 07:57 5,3 °C 5,3 °C 95 % 1016,6 hPa 0,0 mm 1,8 km/h (1 Bft) W 268 ° 0 min 0,000 mm 0,0 UV-I 0 W/m² 4,6 °C 3,2 km/h (1 Bft)
27.11.2016 07:58 5,3 °C 5,3 °C 95 % 1016,7 hPa 0,0 mm 1,7 km/h (1 Bft) W 268 ° 0 min 0,000 mm 0,0 UV-I 0 W/m² 4,6 °C 3,2 km/h (1 Bft)
27.11.2016 07:59 5,3 °C 5,3 °C 95 % 1016,7 hPa 0,0 mm 4,1 km/h (1 Bft) W-SW 253 ° 0 min 0,000 mm 0,0 UV-I 0 W/m² 4,6 °C 4,8 km/h (1 Bft)
27.11.2016 08:00 5,3 °C 5,3 °C 95 % 1016,7 hPa 0,0 mm 1,1 km/h (1 Bft) W 260 ° 0 min 0,000 mm 0,0 UV-I 0 W/m² 4,6 °C 3,2 km/h (1 Bft)
27.11.2016 08:01 5,3 °C 5,3 °C 95 % 1016,7 hPa 0,0 mm 0,8 km/h (0 Bft) W 260 ° 0 min 0,000 mm 0,0 UV-I 0 W/m² 4,6 °C 1,6 km/h (1 Bft)
27.11.2016 08:02 5,3 °C 5,3 °C 95 % 1016,7 hPa 0,0 mm 2,0 km/h (1 Bft) W 260 ° 0 min 0,000 mm 0,0 UV-I 0 W/m² 4,6 °C 3,2 km/h (1 Bft)
27.11.2016 08:03 5,3 °C 5,3 °C 95 % 1016,7 hPa 0,0 mm 1,9 km/h (1 Bft) W 260 ° 0 min 0,000 mm 0,0 UV-I 0 W/m² 4,6 °C 3,2 km/h (1 Bft)
27.11.2016 08:04 5,3 °C 5,3 °C 95 % 1016,6 hPa 0,0 mm 2,4 km/h (1 Bft) W 274 ° 0 min 0,000 mm 0,0 UV-I 0 W/m² 4,6 °C 3,2 km/h (1 Bft)
27.11.2016 08:05 5,3 °C 5,3 °C 95 % 1016,6 hPa 0,0 mm 2,3 km/h (1 Bft) W 274 ° 0 min 0,000 mm 0,0 UV-I 0 W/m² 4,6 °C 4,8 km/h (1 Bft)
27.11.2016 08:06 5,3 °C 5,3 °C 95 % 1016,6 hPa 0,0 mm 2,3 km/h (1 Bft) W 274 ° 0 min 0,000 mm 0,0 UV-I 0 W/m² 4,6 °C 3,2 km/h (1 Bft)
27.11.2016 08:07 5,3 °C 5,3 °C 95 % 1016,6 hPa 0,0 mm 1,9 km/h (1 Bft) W 274 ° 0 min 0,000 mm 0,0 UV-I 0 W/m² 4,6 °C 3,2 km/h (1 Bft)
27.11.2016 08:08 5,3 °C 5,3 °C 95 % 1016,6 hPa 0,0 mm 3,1 km/h (1 Bft) W 274 ° 0 min 0,000 mm 0,0 UV-I 0 W/m² 4,6 °C 4,8 km/h (1 Bft)
27.11.2016 08:09 5,3 °C 5,3 °C 95 % 1016,6 hPa 0,0 mm 4,1 km/h (1 Bft) W 269 ° 0 min 0,000 mm 0,0 UV-I 0 W/m² 4,6 °C 6,4 km/h (2 Bft)
27.11.2016 08:10 5,3 °C 5,3 °C 95 % 1016,6 hPa 0,0 mm 5,0 km/h (1 Bft) W 260 ° 0 min 0,000 mm 0,0 UV-I 0 W/m² 4,6 °C 8,0 km/h (2 Bft)
27.11.2016 08:11 5,3 °C 5,3 °C 95 % 1016,6 hPa 0,0 mm 4,5 km/h (1 Bft) W 260 ° 0 min 0,000 mm 0,0 UV-I 5 W/m² 4,6 °C 6,4 km/h (2 Bft)
27.11.2016 08:12 5,3 °C 5,3 °C 95 % 1016,6 hPa 0,0 mm 2,9 km/h (1 Bft) W-NW 290 ° 0 min 0,000 mm 0,0 UV-I 5 W/m² 4,6 °C 4,8 km/h (1 Bft)
27.11.2016 08:13 5,3 °C 5,3 °C 95 % 1016,7 hPa 0,0 mm 1,9 km/h (1 Bft) W-NW 290 ° 0 min 0,000 mm 0,0 UV-I 5 W/m² 4,6 °C 3,2 km/h (1 Bft)
27.11.2016 08:14 5,3 °C 5,3 °C 95 % 1016,7 hPa 0,0 mm 2,2 km/h (1 Bft) W-NW 290 ° 0 min 0,000 mm 0,0 UV-I 5 W/m² 4,6 °C 3,2 km/h (1 Bft)
27.11.2016 08:15 5,3 °C 5,3 °C 95 % 1016,7 hPa 0,0 mm 1,0 km/h (0 Bft) W-NW 290 ° 0 min 0,000 mm 0,0 UV-I 5 W/m² 4,6 °C 1,6 km/h (1 Bft)
27.11.2016 08:16 5,3 °C 5,3 °C 95 % 1016,7 hPa 0,0 mm 2,9 km/h (1 Bft) W-NW 290 ° 0 min 0,000 mm 0,0 UV-I 7 W/m² 4,6 °C 4,8 km/h (1 Bft)
27.11.2016 08:17 5,3 °C 5,3 °C 95 % 1016,7 hPa 0,0 mm 2,4 km/h (1 Bft) W-NW 295 ° 0 min 0,000 mm 0,0 UV-I 5 W/m² 4,6 °C 4,8 km/h (1 Bft)
27.11.2016 08:18 5,3 °C 5,3 °C 95 % 1016,8 hPa 0,0 mm 2,1 km/h (1 Bft) W 262 ° 0 min 0,000 mm 0,0 UV-I 7 W/m² 4,6 °C 4,8 km/h (1 Bft)
27.11.2016 08:19 5,3 °C 5,3 °C 95 % 1016,8 hPa 0,0 mm 2,6 km/h (1 Bft) W 270 ° 0 min 0,000 mm 0,0 UV-I 5 W/m² 4,6 °C 4,8 km/h (1 Bft)
27.11.2016 08:20 5,3 °C 5,3 °C 95 % 1016,8 hPa 0,0 mm 2,2 km/h (1 Bft) W 270 ° 0 min 0,000 mm 0,0 UV-I 7 W/m² 4,6 °C 3,2 km/h (1 Bft)
27.11.2016 08:21 5,3 °C 5,3 °C 95 % 1016,8 hPa 0,0 mm 2,0 km/h (1 Bft) W 270 ° 0 min 0,000 mm 0,0 UV-I 7 W/m² 4,6 °C 3,2 km/h (1 Bft)
27.11.2016 08:22 5,3 °C 5,3 °C 95 % 1016,7 hPa 0,0 mm 1,6 km/h (1 Bft) W 270 ° 0 min 0,000 mm 0,0 UV-I 7 W/m² 4,6 °C 3,2 km/h (1 Bft)
27.11.2016 08:23 5,3 °C 5,3 °C 95 % 1016,7 hPa 0,0 mm 1,9 km/h (1 Bft) W 270 ° 0 min 0,000 mm 0,0 UV-I 9 W/m² 4,6 °C 3,2 km/h (1 Bft)
27.11.2016 08:24 5,3 °C 5,3 °C 95 % 1016,8 hPa 0,0 mm 2,8 km/h (1 Bft) W 270 ° 0 min 0,000 mm 0,0 UV-I 9 W/m² 4,6 °C 4,8 km/h (1 Bft)
27.11.2016 08:25 5,3 °C 5,3 °C 95 % 1016,7 hPa 0,0 mm 2,4 km/h (1 Bft) W 270 ° 0 min 0,000 mm 0,0 UV-I 9 W/m² 4,6 °C 3,2 km/h (1 Bft)
27.11.2016 08:26 5,3 °C 5,3 °C 95 % 1016,7 hPa 0,0 mm 3,4 km/h (1 Bft) W-SW 255 ° 0 min 0,000 mm 0,0 UV-I 9 W/m² 4,6 °C 4,8 km/h (1 Bft)
27.11.2016 08:27 5,3 °C 5,3 °C 95 % 1016,8 hPa 0,0 mm 4,2 km/h (1 Bft) W 261 ° 0 min 0,000 mm 0,0 UV-I 9 W/m² 4,6 °C 6,4 km/h (2 Bft)
27.11.2016 08:28 5,3 °C 5,3 °C 95 % 1016,8 hPa 0,0 mm 3,1 km/h (1 Bft) W 266 ° 0 min 0,000 mm 0,0 UV-I 9 W/m² 4,6 °C 4,8 km/h (1 Bft)
27.11.2016 08:29 5,3 °C 5,3 °C 95 % 1016,8 hPa 0,0 mm 2,7 km/h (1 Bft) W-SW 242 ° 0 min 0,000 mm 0,0 UV-I 12 W/m² 4,6 °C 4,8 km/h (1 Bft)
27.11.2016 08:30 5,3 °C 5,3 °C 95 % 1016,8 hPa 0,0 mm 4,6 km/h (1 Bft) W 267 ° 0 min 0,000 mm 0,0 UV-I 12 W/m² 4,6 °C 8,0 km/h (2 Bft)
27.11.2016 08:31 5,3 °C 5,3 °C 95 % 1016,8 hPa 0,0 mm 4,7 km/h (1 Bft) W-SW 244 ° 0 min 0,000 mm 0,0 UV-I 11 W/m² 4,6 °C 6,4 km/h (2 Bft)
27.11.2016 08:32 5,3 °C 5,3 °C 95 % 1016,8 hPa 0,0 mm 2,5 km/h (1 Bft) W-SW 244 ° 0 min 0,000 mm 0,0 UV-I 9 W/m² 4,6 °C 3,2 km/h (1 Bft)
27.11.2016 08:33 5,3 °C 5,3 °C 95 % 1016,8 hPa 0,0 mm 2,7 km/h (1 Bft) W-SW 250 ° 0 min 0,000 mm 0,0 UV-I 9 W/m² 4,6 °C 3,2 km/h (1 Bft)
27.11.2016 08:34 5,3 °C 5,3 °C 95 % 1016,8 hPa 0,0 mm 4,6 km/h (1 Bft) W-SW 258 ° 0 min 0,000 mm 0,0 UV-I 9 W/m² 4,6 °C 6,4 km/h (2 Bft)
27.11.2016 08:35 5,3 °C 5,3 °C 95 % 1016,8 hPa 0,0 mm 4,0 km/h (1 Bft) W 273 ° 0 min 0,000 mm 0,0 UV-I 12 W/m² 4,6 °C 6,4 km/h (2 Bft)
27.11.2016 08:36 5,3 °C 5,3 °C 95 % 1016,8 hPa 0,0 mm 6,1 km/h (2 Bft) W-SW 257 ° 0 min 0,000 mm 0,0 UV-I 12 W/m² 4,6 °C 9,7 km/h (2 Bft)
27.11.2016 08:37 5,3 °C 5,3 °C 95 % 1016,8 hPa 0,0 mm 5,5 km/h (1 Bft) W 259 ° 0 min 0,000 mm 0,0 UV-I 12 W/m² 4,6 °C 6,4 km/h (2 Bft)
27.11.2016 08:38 5,3 °C 5,3 °C 95 % 1016,8 hPa 0,0 mm 4,5 km/h (1 Bft) W-SW 240 ° 0 min 0,000 mm 0,0 UV-I 12 W/m² 4,6 °C 4,8 km/h (1 Bft)
27.11.2016 08:39 5,3 °C 5,3 °C 95 % 1016,7 hPa 0,0 mm 2,5 km/h (1 Bft) W-SW 237 ° 0 min 0,000 mm 0,0 UV-I 12 W/m² 4,6 °C 4,8 km/h (1 Bft)
27.11.2016 08:40 5,3 °C 5,3 °C 95 % 1016,7 hPa 0,0 mm 5,8 km/h (2 Bft) W-SW 258 ° 0 min 0,000 mm 0,0 UV-I 12 W/m² 4,6 °C 9,7 km/h (2 Bft)
27.11.2016 08:41 5,3 °C 5,3 °C 95 % 1016,7 hPa 0,0 mm 6,9 km/h (2 Bft) W-SW 239 ° 0 min 0,000 mm 0,0 UV-I 12 W/m² 4,6 °C 11,3 km/h (2 Bft)
27.11.2016 08:42 5,4 °C 5,4 °C 95 % 1016,7 hPa 0,0 mm 3,9 km/h (1 Bft) W-NW 300 ° 0 min 0,000 mm 0,0 UV-I 11 W/m² 4,7 °C 9,7 km/h (2 Bft)
27.11.2016 08:43 5,3 °C 5,4 °C 95 % 1016,7 hPa 0,0 mm 3,8 km/h (1 Bft) SW 230 ° 0 min 0,000 mm 0,0 UV-I 12 W/m² 4,6 °C 6,4 km/h (2 Bft)
27.11.2016 08:44 5,3 °C 5,3 °C 95 % 1016,7 hPa 0,0 mm 2,7 km/h (1 Bft) SW 230 ° 0 min 0,000 mm 0,0 UV-I 12 W/m² 4,6 °C 4,8 km/h (1 Bft)
27.11.2016 08:45 5,3 °C 5,3 °C 95 % 1016,8 hPa 0,0 mm 2,4 km/h (1 Bft) SW 230 ° 0 min 0,000 mm 0,0 UV-I 12 W/m² 4,6 °C 3,2 km/h (1 Bft)
27.11.2016 08:46 5,3 °C 5,3 °C 95 % 1016,7 hPa 0,0 mm 2,9 km/h (1 Bft) W-SW 250 ° 0 min 0,000 mm 0,0 UV-I 14 W/m² 4,6 °C 6,4 km/h (2 Bft)
27.11.2016 08:47 5,3 °C 5,3 °C 95 % 1016,8 hPa 0,0 mm 5,2 km/h (1 Bft) W-SW 250 ° 0 min 0,000 mm 0,0 UV-I 14 W/m² 4,6 °C 6,4 km/h (2 Bft)
27.11.2016 08:48 5,3 °C 5,3 °C 95 % 1016,8 hPa 0,0 mm 5,7 km/h (1 Bft) SW 228 ° 0 min 0,000 mm 0,0 UV-I 12 W/m² 4,6 °C 9,7 km/h (2 Bft)
27.11.2016 08:49 5,3 °C 5,3 °C 95 % 1016,8 hPa 0,0 mm 2,5 km/h (1 Bft) SW 228 ° 0 min 0,000 mm 0,0 UV-I 12 W/m² 4,6 °C 3,2 km/h (1 Bft)
27.11.2016 08:50 5,4 °C 5,4 °C 95 % 1016,8 hPa 0,0 mm 2,3 km/h (1 Bft) SW 228 ° 0 min 0,000 mm 0,0 UV-I 12 W/m² 4,7 °C 3,2 km/h (1 Bft)
27.11.2016 08:51 5,3 °C 5,4 °C 95 % 1016,8 hPa 0,0 mm 4,2 km/h (1 Bft) S 189 ° 0 min 0,000 mm 0,0 UV-I 14 W/m² 4,6 °C 6,4 km/h (2 Bft)
27.11.2016 08:52 5,3 °C 5,3 °C 95 % 1016,7 hPa 0,0 mm 4,2 km/h (1 Bft) W-SW 241 ° 0 min 0,000 mm 0,0 UV-I 14 W/m² 4,6 °C 6,4 km/h (2 Bft)
27.11.2016 08:53 5,3 °C 5,4 °C 95 % 1016,7 hPa 0,0 mm 3,8 km/h (1 Bft) SW 225 ° 0 min 0,000 mm 0,0 UV-I 16 W/m² 4,6 °C 6,4 km/h (2 Bft)
27.11.2016 08:54 5,4 °C 5,4 °C 95 % 1016,7 hPa 0,0 mm 3,2 km/h (1 Bft) SW 225 ° 0 min 0,000 mm 0,0 UV-I 16 W/m² 4,7 °C 4,8 km/h (1 Bft)
27.11.2016 08:55 5,3 °C 5,4 °C 95 % 1016,7 hPa 0,0 mm 2,3 km/h (1 Bft) S-SW 203 ° 0 min 0,000 mm 0,0 UV-I 16 W/m² 4,6 °C 4,8 km/h (1 Bft)
27.11.2016 08:56 5,3 °C 5,4 °C 95 % 1016,7 hPa 0,0 mm 2,8 km/h (1 Bft) S-SW 201 ° 0 min 0,000 mm 0,0 UV-I 14 W/m² 4,6 °C 4,8 km/h (1 Bft)
27.11.2016 08:57 5,4 °C 5,4 °C 95 % 1016,7 hPa 0,0 mm 3,7 km/h (1 Bft) S-SW 202 ° 0 min 0,000 mm 0,0 UV-I 12 W/m² 4,7 °C 4,8 km/h (1 Bft)
27.11.2016 08:58 5,4 °C 5,4 °C 95 % 1016,7 hPa 0,0 mm 2,9 km/h (1 Bft) S 188 ° 0 min 0,000 mm 0,0 UV-I 14 W/m² 4,7 °C 4,8 km/h (1 Bft)
27.11.2016 08:59 5,4 °C 5,4 °C 95 % 1016,8 hPa 0,0 mm 3,7 km/h (1 Bft) S 188 ° 0 min 0,000 mm 0,0 UV-I 12 W/m² 4,7 °C 4,8 km/h (1 Bft)
27.11.2016 09:00 5,4 °C 5,4 °C 95 % 1016,8 hPa 0,0 mm 2,9 km/h (1 Bft) S 188 ° 0 min 0,000 mm 0,0 UV-I 11 W/m² 4,7 °C 4,8 km/h (1 Bft)
27.11.2016 09:01 5,4 °C 5,4 °C 95 % 1016,8 hPa 0,0 mm 2,3 km/h (1 Bft) S 188 ° 0 min 0,000 mm 0,0 UV-I 11 W/m² 4,7 °C 3,2 km/h (1 Bft)
27.11.2016 09:02 5,4 °C 5,4 °C 95 % 1016,7 hPa 0,0 mm 1,9 km/h (1 Bft) S 188 ° 0 min 0,000 mm 0,0 UV-I 11 W/m² 4,7 °C 3,2 km/h (1 Bft)
27.11.2016 09:03 5,4 °C 5,4 °C 95 % 1016,8 hPa 0,0 mm 1,4 km/h (1 Bft) S 188 ° 0 min 0,000 mm 0,0 UV-I 11 W/m² 4,7 °C 1,6 km/h (1 Bft)
27.11.2016 09:04 5,4 °C 5,4 °C 95 % 1016,8 hPa 0,0 mm 2,6 km/h (1 Bft) S 188 ° 0 min 0,000 mm 0,0 UV-I 11 W/m² 4,7 °C 3,2 km/h (1 Bft)
27.11.2016 09:05 5,4 °C 5,4 °C 95 % 1016,8 hPa 0,0 mm 3,1 km/h (1 Bft) S 188 ° 0 min 0,000 mm 0,0 UV-I 12 W/m² 4,7 °C 4,8 km/h (1 Bft)
27.11.2016 09:06 5,4 °C 5,4 °C 95 % 1016,7 hPa 0,0 mm 1,8 km/h (1 Bft) S 188 ° 0 min 0,000 mm 0,0 UV-I 11 W/m² 4,7 °C 3,2 km/h (1 Bft)
27.11.2016 09:07 5,4 °C 5,4 °C 95 % 1016,7 hPa 0,0 mm 1,7 km/h (1 Bft) S 188 ° 0 min 0,000 mm 0,0 UV-I 12 W/m² 4,7 °C 3,2 km/h (1 Bft)
27.11.2016 09:08 5,4 °C 5,4 °C 95 % 1016,7 hPa 0,0 mm 3,0 km/h (1 Bft) SW 232 ° 0 min 0,000 mm 0,0 UV-I 12 W/m² 4,7 °C 4,8 km/h (1 Bft)
27.11.2016 09:09 5,4 °C 5,4 °C 95 % 1016,7 hPa 0,0 mm 3,6 km/h (1 Bft) SW 232 ° 0 min 0,000 mm 0,0 UV-I 11 W/m² 4,7 °C 4,8 km/h (1 Bft)
27.11.2016 09:10 5,4 °C 5,4 °C 95 % 1016,7 hPa 0,0 mm 2,3 km/h (1 Bft) SW 234 ° 0 min 0,000 mm 0,0 UV-I 11 W/m² 4,7 °C 3,2 km/h (1 Bft)
27.11.2016 09:11 5,4 °C 5,4 °C 95 % 1016,7 hPa 0,0 mm 2,0 km/h (1 Bft) SW 234 ° 0 min 0,000 mm 0,0 UV-I 11 W/m² 4,7 °C 3,2 km/h (1 Bft)
27.11.2016 09:12 5,4 °C 5,4 °C 95 % 1016,7 hPa 0,0 mm 1,4 km/h (1 Bft) SW 234 ° 0 min 0,000 mm 0,0 UV-I 11 W/m² 4,7 °C 3,2 km/h (1 Bft)
27.11.2016 09:13 5,4 °C 5,4 °C 95 % 1016,7 hPa 0,0 mm 2,5 km/h (1 Bft) W-SW 248 ° 0 min 0,000 mm 0,0 UV-I 11 W/m² 4,7 °C 4,8 km/h (1 Bft)
27.11.2016 09:14 5,4 °C 5,4 °C 95 % 1016,7 hPa 0,0 mm 2,4 km/h (1 Bft) W-SW 248 ° 0 min 0,000 mm 0,0 UV-I 12 W/m² 4,7 °C 3,2 km/h (1 Bft)
27.11.2016 09:15 5,4 °C 5,4 °C 95 % 1016,7 hPa 0,0 mm 2,1 km/h (1 Bft) SW 233 ° 0 min 0,000 mm 0,0 UV-I 12 W/m² 4,7 °C 3,2 km/h (1 Bft)
27.11.2016 09:16 5,4 °C 5,4 °C 95 % 1016,6 hPa 0,0 mm 2,9 km/h (1 Bft) SW 233 ° 0 min 0,000 mm 0,0 UV-I 14 W/m² 4,7 °C 4,8 km/h (1 Bft)
27.11.2016 09:17 5,4 °C 5,4 °C 95 % 1016,6 hPa 0,0 mm 2,7 km/h (1 Bft) SW 233 ° 0 min 0,000 mm 0,0 UV-I 14 W/m² 4,7 °C 4,8 km/h (1 Bft)
27.11.2016 09:18 5,4 °C 5,4 °C 95 % 1016,7 hPa 0,0 mm 1,3 km/h (1 Bft) SW 233 ° 0 min 0,000 mm 0,0 UV-I 14 W/m² 4,7 °C 1,6 km/h (1 Bft)
27.11.2016 09:19 5,4 °C 5,4 °C 95 % 1016,7 hPa 0,0 mm 1,1 km/h (1 Bft) SW 233 ° 0 min 0,000 mm 0,0 UV-I 14 W/m² 4,7 °C 3,2 km/h (1 Bft)
27.11.2016 09:20 5,5 °C 5,5 °C 95 % 1016,7 hPa 0,0 mm 2,8 km/h (1 Bft) SW 233 ° 0 min 0,000 mm 0,0 UV-I 14 W/m² 4,8 °C 4,8 km/h (1 Bft)
27.11.2016 09:21 5,4 °C 5,5 °C 95 % 1016,7 hPa 0,0 mm 1,4 km/h (1 Bft) SW 233 ° 0 min 0,000 mm 0,0 UV-I 16 W/m² 4,7 °C 3,2 km/h (1 Bft)
27.11.2016 09:22 5,4 °C 5,4 °C 95 % 1016,7 hPa 0,0 mm 0,9 km/h (0 Bft) SW 233 ° 0 min 0,000 mm 0,0 UV-I 16 W/m² 4,7 °C 1,6 km/h (1 Bft)
27.11.2016 09:23 5,5 °C 5,5 °C 95 % 1016,7 hPa 0,0 mm 1,3 km/h (1 Bft) SW 233 ° 0 min 0,000 mm 0,0 UV-I 14 W/m² 4,8 °C 3,2 km/h (1 Bft)
27.11.2016 09:24 5,4 °C 5,5 °C 95 % 1016,7 hPa 0,0 mm 2,9 km/h (1 Bft) SW 224 ° 0 min 0,000 mm 0,0 UV-I 14 W/m² 4,7 °C 4,8 km/h (1 Bft)
27.11.2016 09:25 5,4 °C 5,4 °C 95 % 1016,7 hPa 0,0 mm 2,3 km/h (1 Bft) SW 224 ° 0 min 0,000 mm 0,0 UV-I 14 W/m² 4,7 °C 3,2 km/h (1 Bft)
27.11.2016 09:26 5,4 °C 5,4 °C 95 % 1016,7 hPa 0,0 mm 3,1 km/h (1 Bft) SW 224 ° 0 min 0,000 mm 0,0 UV-I 14 W/m² 4,7 °C 4,8 km/h (1 Bft)
27.11.2016 09:27 5,4 °C 5,5 °C 95 % 1016,7 hPa 0,0 mm 1,3 km/h (1 Bft) SW 224 ° 0 min 0,000 mm 0,0 UV-I 14 W/m² 4,7 °C 3,2 km/h (1 Bft)
27.11.2016 09:28 5,4 °C 5,5 °C 95 % 1016,7 hPa 0,0 mm 1,2 km/h (1 Bft) SW 224 ° 0 min 0,000 mm 0,0 UV-I 14 W/m² 4,7 °C 1,6 km/h (1 Bft)
27.11.2016 09:29 5,5 °C 5,5 °C 95 % 1016,7 hPa 0,0 mm 2,7 km/h (1 Bft) SW 224 ° 0 min 0,000 mm 0,0 UV-I 14 W/m² 4,8 °C 3,2 km/h (1 Bft)
27.11.2016 09:30 5,5 °C 5,5 °C 95 % 1016,8 hPa 0,0 mm 1,4 km/h (1 Bft) W-SW 250 ° 0 min 0,000 mm 0,0 UV-I 11 W/m² 4,8 °C 4,8 km/h (1 Bft)
27.11.2016 09:31 5,4 °C 5,5 °C 95 % 1016,8 hPa 0,0 mm 5,4 km/h (1 Bft) W 275 ° 0 min 0,000 mm 0,0 UV-I 9 W/m² 4,7 °C 6,4 km/h (2 Bft)
27.11.2016 09:32 5,5 °C 5,5 °C 95 % 1016,7 hPa 0,0 mm 5,2 km/h (1 Bft) W 265 ° 0 min 0,000 mm 0,0 UV-I 7 W/m² 4,8 °C 6,4 km/h (2 Bft)
27.11.2016 09:33 5,4 °C 5,5 °C 95 % 1016,8 hPa 0,0 mm 5,1 km/h (1 Bft) W 281 ° 0 min 0,000 mm 0,0 UV-I 9 W/m² 4,7 °C 6,4 km/h (2 Bft)
27.11.2016 09:34 5,4 °C 5,4 °C 95 % 1016,8 hPa 0,0 mm 5,5 km/h (1 Bft) W-NW 299 ° 0 min 0,000 mm 0,0 UV-I 9 W/m² 4,7 °C 8,0 km/h (2 Bft)
27.11.2016 09:35 5,5 °C 5,5 °C 95 % 1016,8 hPa 0,0 mm 5,7 km/h (1 Bft) NW 317 ° 0 min 0,000 mm 0,0 UV-I 11 W/m² 4,8 °C 6,4 km/h (2 Bft)
27.11.2016 09:36 5,4 °C 5,5 °C 95 % 1016,7 hPa 0,0 mm 4,2 km/h (1 Bft) N-NW 337 ° 0 min 0,000 mm 0,0 UV-I 11 W/m² 4,7 °C 6,4 km/h (2 Bft)
27.11.2016 09:37 5,4 °C 5,4 °C 95 % 1016,7 hPa 0,0 mm 3,8 km/h (1 Bft) NW 318 ° 0 min 0,000 mm 0,0 UV-I 11 W/m² 4,7 °C 6,4 km/h (2 Bft)
27.11.2016 09:38 5,4 °C 5,4 °C 95 % 1016,7 hPa 0,0 mm 4,6 km/h (1 Bft) N 5 ° 0 min 0,000 mm 0,0 UV-I 11 W/m² 4,7 °C 6,4 km/h (2 Bft)
27.11.2016 09:39 5,4 °C 5,4 °C 95 % 1016,7 hPa 0,0 mm 2,6 km/h (1 Bft) NO 38 ° 0 min 0,000 mm 0,0 UV-I 11 W/m² 4,7 °C 4,8 km/h (1 Bft)
27.11.2016 09:40 5,4 °C 5,4 °C 95 % 1016,8 hPa 0,0 mm 3,6 km/h (1 Bft) NO 37 ° 0 min 0,000 mm 0,0 UV-I 11 W/m² 4,7 °C 6,4 km/h (2 Bft)
27.11.2016 09:41 5,3 °C 5,4 °C 95 % 1016,9 hPa 0,0 mm 4,6 km/h (1 Bft) NO 36 ° 0 min 0,000 mm 0,0 UV-I 11 W/m² 4,6 °C 6,4 km/h (2 Bft)
27.11.2016 09:42 5,3 °C 5,3 °C 95 % 1016,9 hPa 0,0 mm 2,4 km/h (1 Bft) NO 36 ° 0 min 0,000 mm 0,0 UV-I 12 W/m² 4,6 °C 3,2 km/h (1 Bft)
27.11.2016 09:43 5,3 °C 5,3 °C 95 % 1016,9 hPa 0,0 mm 3,6 km/h (1 Bft) NO 39 ° 0 min 0,000 mm 0,0 UV-I 12 W/m² 4,6 °C 6,4 km/h (2 Bft)
27.11.2016 09:44 5,2 °C 5,3 °C 94 % 1016,9 hPa 0,0 mm 4,9 km/h (1 Bft) NO 38 ° 0 min 0,000 mm 0,0 UV-I 12 W/m² 4,3 °C 6,4 km/h (2 Bft)
27.11.2016 09:45 5,1 °C 5,2 °C 94 % 1016,9 hPa 0,0 mm 2,5 km/h (1 Bft) NO 38 ° 0 min 0,000 mm 0,0 UV-I 11 W/m² 4,2 °C 3,2 km/h (1 Bft)
27.11.2016 09:46 5,1 °C 5,2 °C 94 % 1016,8 hPa 0,0 mm 1,5 km/h (1 Bft) NO 38 ° 0 min 0,000 mm 0,0 UV-I 11 W/m² 4,2 °C 3,2 km/h (1 Bft)
27.11.2016 09:47 5,1 °C 5,1 °C 94 % 1016,8 hPa 0,0 mm 0,8 km/h (0 Bft) NO 38 ° 0 min 0,000 mm 0,0 UV-I 11 W/m² 4,2 °C 1,6 km/h (1 Bft)
27.11.2016 09:48 5,1 °C 5,1 °C 94 % 1016,8 hPa 0,0 mm 1,4 km/h (1 Bft) NO 38 ° 0 min 0,000 mm 0,0 UV-I 12 W/m² 4,2 °C 3,2 km/h (1 Bft)
27.11.2016 09:49 5,1 °C 5,1 °C 94 % 1016,9 hPa 0,0 mm 1,9 km/h (1 Bft) NO 38 ° 0 min 0,000 mm 0,0 UV-I 14 W/m² 4,2 °C 3,2 km/h (1 Bft)
27.11.2016 09:50 5,1 °C 5,1 °C 94 % 1016,8 hPa 0,0 mm 0,7 km/h (0 Bft) NO 38 ° 0 min 0,000 mm 0,0 UV-I 16 W/m² 4,2 °C 1,6 km/h (1 Bft)
27.11.2016 09:51 5,1 °C 5,1 °C 94 % 1016,9 hPa 0,0 mm 1,6 km/h (1 Bft) NO 38 ° 0 min 0,000 mm 0,0 UV-I 21 W/m² 4,2 °C 3,2 km/h (1 Bft)
27.11.2016 09:52 5,0 °C 5,1 °C 94 % 1016,8 hPa 0,0 mm 2,1 km/h (1 Bft) NO 39 ° 0 min 0,000 mm 0,0 UV-I 21 W/m² 4,1 °C 3,2 km/h (1 Bft)
27.11.2016 09:53 5,0 °C 5,0 °C 94 % 1016,8 hPa 0,0 mm 1,0 km/h (0 Bft) NO 39 ° 0 min 0,000 mm 0,0 UV-I 19 W/m² 4,1 °C 3,2 km/h (1 Bft)
27.11.2016 09:54 4,9 °C 5,0 °C 94 % 1016,8 hPa 0,0 mm 2,8 km/h (1 Bft) NO 53 ° 0 min 0,000 mm 0,0 UV-I 18 W/m² 4,0 °C 4,8 km/h (1 Bft)
27.11.2016 09:55 4,9 °C 4,9 °C 94 % 1016,8 hPa 0,0 mm 1,1 km/h (1 Bft) NO 53 ° 0 min 0,000 mm 0,0 UV-I 19 W/m² 4,0 °C 1,6 km/h (1 Bft)
27.11.2016 09:56 4,9 °C 4,9 °C 94 % 1016,8 hPa 0,0 mm 2,0 km/h (1 Bft) NO 53 ° 0 min 0,000 mm 0,0 UV-I 21 W/m² 4,0 °C 3,2 km/h (1 Bft)
27.11.2016 09:57 4,9 °C 4,9 °C 94 % 1016,8 hPa 0,0 mm 1,8 km/h (1 Bft) NO 53 ° 0 min 0,000 mm 0,0 UV-I 23 W/m² 4,0 °C 3,2 km/h (1 Bft)
27.11.2016 09:58 4,9 °C 4,9 °C 94 % 1016,8 hPa 0,0 mm 2,0 km/h (1 Bft) NO 53 ° 0 min 0,000 mm 0,0 UV-I 25 W/m² 4,0 °C 3,2 km/h (1 Bft)
27.11.2016 09:59 4,8 °C 4,9 °C 94 % 1016,8 hPa 0,0 mm 4,1 km/h (1 Bft) O-NO 58 ° 0 min 0,000 mm 0,0 UV-I 25 W/m² 3,9 °C 6,4 km/h (2 Bft)
27.11.2016 10:00 4,8 °C 4,8 °C 94 % 1016,8 hPa 0,0 mm 1,9 km/h (1 Bft) O-NO 58 ° 0 min 0,000 mm 0,0 UV-I 28 W/m² 3,9 °C 3,2 km/h (1 Bft)
27.11.2016 10:01 4,8 °C 4,8 °C 94 % 1016,8 hPa 0,0 mm 1,8 km/h (1 Bft) O-NO 58 ° 0 min 0,000 mm 0,0 UV-I 28 W/m² 3,9 °C 3,2 km/h (1 Bft)
27.11.2016 10:02 4,8 °C 4,8 °C 94 % 1016,8 hPa 0,0 mm 0,3 km/h (0 Bft) O-NO 58 ° 0 min 0,000 mm 0,0 UV-I 35 W/m² 3,9 °C 1,6 km/h (1 Bft)
27.11.2016 10:03 4,8 °C 4,8 °C 94 % 1016,8 hPa 0,0 mm 0,6 km/h (0 Bft) O-NO 58 ° 0 min 0,000 mm 0,0 UV-I 39 W/m² 3,9 °C 3,2 km/h (1 Bft)
27.11.2016 10:04 4,8 °C 4,8 °C 94 % 1016,9 hPa 0,0 mm 2,2 km/h (1 Bft) O-NO 58 ° 0 min 0,000 mm 0,0 UV-I 40 W/m² 3,9 °C 3,2 km/h (1 Bft)
27.11.2016 10:05 4,8 °C 4,8 °C 94 % 1016,9 hPa 0,0 mm 3,5 km/h (1 Bft) NO 36 ° 0 min 0,000 mm 0,0 UV-I 37 W/m² 3,9 °C 4,8 km/h (1 Bft)
27.11.2016 10:06 4,7 °C 4,8 °C 94 % 1017,0 hPa 0,0 mm 3,0 km/h (1 Bft) NO 36 ° 0 min 0,000 mm 0,0 UV-I 32 W/m² 3,8 °C 4,8 km/h (1 Bft)
27.11.2016 10:07 4,7 °C 4,7 °C 94 % 1017,1 hPa 0,0 mm 2,3 km/h (1 Bft) NO 36 ° 0 min 0,000 mm 0,0 UV-I 26 W/m² 3,8 °C 3,2 km/h (1 Bft)
27.11.2016 10:08 4,7 °C 4,7 °C 94 % 1017,0 hPa 0,0 mm 0,5 km/h (0 Bft) NO 36 ° 0 min 0,000 mm 0,0 UV-I 21 W/m² 3,8 °C 1,6 km/h (1 Bft)
27.11.2016 10:09 4,7 °C 4,8 °C 94 % 1017,0 hPa 0,0 mm 1,5 km/h (1 Bft) NO 36 ° 0 min 0,000 mm 0,0 UV-I 19 W/m² 3,8 °C 3,2 km/h (1 Bft)
27.11.2016 10:10 4,7 °C 4,7 °C 95 % 1017,0 hPa 0,0 mm 2,4 km/h (1 Bft) NO 36 ° 0 min 0,000 mm 0,0 UV-I 19 W/m² 4,0 °C 3,2 km/h (1 Bft)
27.11.2016 10:11 4,7 °C 4,7 °C 95 % 1017,1 hPa 0,0 mm 3,4 km/h (1 Bft) N-NO 28 ° 0 min 0,000 mm 0,0 UV-I 19 W/m² 4,0 °C 4,8 km/h (1 Bft)
27.11.2016 10:12 4,7 °C 4,7 °C 95 % 1017,1 hPa 0,0 mm 4,4 km/h (1 Bft) N-NO 28 ° 0 min 0,000 mm 0,0 UV-I 18 W/m² 4,0 °C 4,8 km/h (1 Bft)
27.11.2016 10:13 4,7 °C 4,7 °C 95 % 1017,0 hPa 0,0 mm 2,9 km/h (1 Bft) N-NO 28 ° 0 min 0,000 mm 0,0 UV-I 16 W/m² 4,0 °C 4,8 km/h (1 Bft)
27.11.2016 10:14 4,7 °C 4,7 °C 95 % 1017,0 hPa 0,0 mm 3,6 km/h (1 Bft) N-NO 27 ° 0 min 0,000 mm 0,0 UV-I 14 W/m² 4,0 °C 4,8 km/h (1 Bft)
27.11.2016 10:15 4,7 °C 4,7 °C 95 % 1017,0 hPa 0,0 mm 1,5 km/h (1 Bft) N-NO 27 ° 0 min 0,000 mm 0,0 UV-I 14 W/m² 4,0 °C 3,2 km/h (1 Bft)
27.11.2016 10:16 4,7 °C 4,7 °C 95 % 1017,1 hPa 0,0 mm 1,5 km/h (1 Bft) N-NO 27 ° 0 min 0,000 mm 0,0 UV-I 12 W/m² 4,0 °C 3,2 km/h (1 Bft)
27.11.2016 10:17 4,6 °C 4,7 °C 95 % 1017,1 hPa 0,0 mm 2,2 km/h (1 Bft) NO 41 ° 0 min 0,000 mm 0,0 UV-I 12 W/m² 3,9 °C 4,8 km/h (1 Bft)
27.11.2016 10:18 4,6 °C 4,6 °C 95 % 1017,1 hPa 0,0 mm 3,4 km/h (1 Bft) O-NO 73 ° 0 min 0,000 mm 0,0 UV-I 12 W/m² 3,9 °C 4,8 km/h (1 Bft)
27.11.2016 10:19 4,6 °C 4,6 °C 95 % 1017,0 hPa 0,0 mm 4,8 km/h (1 Bft) O-NO 73 ° 0 min 0,000 mm 0,0 UV-I 12 W/m² 3,9 °C 6,4 km/h (2 Bft)
27.11.2016 10:20 4,6 °C 4,6 °C 95 % 1017,0 hPa 0,0 mm 3,9 km/h (1 Bft) O-NO 66 ° 0 min 0,000 mm 0,0 UV-I 11 W/m² 3,9 °C 4,8 km/h (1 Bft)
27.11.2016 10:21 4,6 °C 4,6 °C 95 % 1017,0 hPa 0,0 mm 3,2 km/h (1 Bft) O-NO 66 ° 0 min 0,000 mm 0,0 UV-I 11 W/m² 3,9 °C 4,8 km/h (1 Bft)
27.11.2016 10:22 4,6 °C 4,6 °C 95 % 1017,0 hPa 0,0 mm 3,3 km/h (1 Bft) O-NO 66 ° 0 min 0,000 mm 0,0 UV-I 11 W/m² 3,9 °C 4,8 km/h (1 Bft)
27.11.2016 10:23 4,6 °C 4,6 °C 95 % 1017,0 hPa 0,0 mm 3,1 km/h (1 Bft) O-NO 66 ° 0 min 0,000 mm 0,0 UV-I 12 W/m² 3,9 °C 4,8 km/h (1 Bft)
27.11.2016 10:24 4,5 °C 4,6 °C 95 % 1017,0 hPa 0,0 mm 3,3 km/h (1 Bft) O-NO 66 ° 0 min 0,000 mm 0,0 UV-I 12 W/m² 3,8 °C 4,8 km/h (1 Bft)
27.11.2016 10:25 4,5 °C 4,5 °C 95 % 1017,0 hPa 0,0 mm 3,4 km/h (1 Bft) O-NO 67 ° 0 min 0,000 mm 0,0 UV-I 12 W/m² 3,8 °C 4,8 km/h (1 Bft)
27.11.2016 10:26 4,5 °C 4,5 °C 95 % 1017,0 hPa 0,0 mm 2,4 km/h (1 Bft) O-NO 66 ° 0 min 0,000 mm 0,0 UV-I 19 W/m² 3,8 °C 3,2 km/h (1 Bft)
27.11.2016 10:27 4,5 °C 4,5 °C 95 % 1016,9 hPa 0,0 mm 2,0 km/h (1 Bft) O-NO 67 ° 0 min 0,000 mm 0,0 UV-I 21 W/m² 3,8 °C 3,2 km/h (1 Bft)
27.11.2016 10:28 4,4 °C 4,5 °C 95 % 1017,0 hPa 0,0 mm 2,1 km/h (1 Bft) O-NO 66 ° 0 min 0,000 mm 0,0 UV-I 23 W/m² 3,7 °C 3,2 km/h (1 Bft)
27.11.2016 10:29 4,4 °C 4,5 °C 95 % 1017,0 hPa 0,0 mm 2,0 km/h (1 Bft) O-NO 66 ° 0 min 0,000 mm 0,0 UV-I 21 W/m² 3,7 °C 3,2 km/h (1 Bft)
27.11.2016 10:30 4,4 °C 4,5 °C 95 % 1017,0 hPa 0,0 mm 2,5 km/h (1 Bft) O-NO 67 ° 0 min 0,000 mm 0,0 UV-I 21 W/m² 3,7 °C 3,2 km/h (1 Bft)
27.11.2016 10:31 4,4 °C 4,5 °C 95 % 1017,0 hPa 0,0 mm 1,9 km/h (1 Bft) O-NO 66 ° 0 min 0,000 mm 0,0 UV-I 25 W/m² 3,7 °C 3,2 km/h (1 Bft)
27.11.2016 10:32 4,4 °C 4,4 °C 95 % 1017,0 hPa 0,0 mm 1,9 km/h (1 Bft) O-NO 66 ° 0 min 0,000 mm 0,0 UV-I 32 W/m² 3,7 °C 3,2 km/h (1 Bft)
27.11.2016 10:33 4,4 °C 4,4 °C 95 % 1017,0 hPa 0,0 mm 1,4 km/h (1 Bft) O-NO 66 ° 0 min 0,000 mm 0,0 UV-I 32 W/m² 3,7 °C 3,2 km/h (1 Bft)
27.11.2016 10:34 4,4 °C 4,4 °C 95 % 1017,0 hPa 0,0 mm 1,5 km/h (1 Bft) O-NO 66 ° 0 min 0,000 mm 0,0 UV-I 30 W/m² 3,7 °C 3,2 km/h (1 Bft)
27.11.2016 10:35 4,4 °C 4,4 °C 95 % 1017,0 hPa 0,0 mm 0,9 km/h (0 Bft) O-NO 66 ° 0 min 0,000 mm 0,0 UV-I 28 W/m² 3,7 °C 1,6 km/h (1 Bft)
27.11.2016 10:36 4,4 °C 4,4 °C 95 % 1017,0 hPa 0,0 mm 0,4 km/h (0 Bft) O-NO 66 ° 0 min 0,000 mm 0,0 UV-I 30 W/m² 3,7 °C 1,6 km/h (1 Bft)
27.11.2016 10:37 4,4 °C 4,4 °C 95 % 1017,0 hPa 0,0 mm 2,5 km/h (1 Bft) O-NO 66 ° 0 min 0,000 mm 0,0 UV-I 35 W/m² 3,7 °C 3,2 km/h (1 Bft)
27.11.2016 10:38 4,4 °C 4,4 °C 95 % 1017,0 hPa 0,2 mm 3,6 km/h (1 Bft) O-NO 66 ° 0 min 0,000 mm 0,0 UV-I 35 W/m² 3,7 °C 4,8 km/h (1 Bft)
27.11.2016 10:39 4,4 °C 4,4 °C 95 % 1017,0 hPa 0,0 mm 4,8 km/h (1 Bft) O-NO 62 ° 0 min 0,000 mm 0,0 UV-I 32 W/m² 3,7 °C 6,4 km/h (2 Bft)
27.11.2016 10:40 4,4 °C 4,4 °C 95 % 1017,0 hPa 0,0 mm 2,2 km/h (1 Bft) O-NO 62 ° 0 min 0,000 mm 0,0 UV-I 26 W/m² 3,7 °C 4,8 km/h (1 Bft)
27.11.2016 10:41 4,4 °C 4,4 °C 95 % 1017,0 hPa 0,0 mm 3,0 km/h (1 Bft) O-NO 67 ° 0 min 0,000 mm 0,0 UV-I 23 W/m² 3,7 °C 4,8 km/h (1 Bft)
27.11.2016 10:42 4,4 °C 4,4 °C 95 % 1017,0 hPa 0,0 mm 4,2 km/h (1 Bft) O-NO 67 ° 0 min 0,000 mm 0,0 UV-I 23 W/m² 3,7 °C 6,4 km/h (2 Bft)
27.11.2016 10:43 4,4 °C 4,4 °C 95 % 1017,0 hPa 0,0 mm 4,3 km/h (1 Bft) O-NO 67 ° 0 min 0,000 mm 0,0 UV-I 25 W/m² 3,7 °C 4,8 km/h (1 Bft)
27.11.2016 10:44 4,4 °C 4,4 °C 95 % 1016,9 hPa 0,0 mm 3,8 km/h (1 Bft) O 81 ° 0 min 0,000 mm 0,0 UV-I 33 W/m² 3,7 °C 6,4 km/h (2 Bft)
27.11.2016 10:45 4,4 °C 4,4 °C 95 % 1016,9 hPa 0,0 mm 2,6 km/h (1 Bft) O 81 ° 0 min 0,000 mm 0,0 UV-I 37 W/m² 3,7 °C 3,2 km/h (1 Bft)
27.11.2016 10:46 4,4 °C 4,4 °C 95 % 1016,9 hPa 0,0 mm 3,9 km/h (1 Bft) O 81 ° 0 min 0,000 mm 0,0 UV-I 33 W/m² 3,7 °C 4,8 km/h (1 Bft)
27.11.2016 10:47 4,4 °C 4,4 °C 95 % 1016,9 hPa 0,0 mm 3,2 km/h (1 Bft) O 81 ° 0 min 0,000 mm 0,0 UV-I 28 W/m² 3,7 °C 4,8 km/h (1 Bft)
27.11.2016 10:48 4,4 °C 4,4 °C 95 % 1016,8 hPa 0,0 mm 2,9 km/h (1 Bft) O 81 ° 0 min 0,000 mm 0,0 UV-I 26 W/m² 3,7 °C 4,8 km/h (1 Bft)
27.11.2016 10:49 4,4 °C 4,4 °C 95 % 1016,8 hPa 0,0 mm 1,3 km/h (1 Bft) O 81 ° 0 min 0,000 mm 0,0 UV-I 23 W/m² 3,7 °C 3,2 km/h (1 Bft)
27.11.2016 10:50 4,4 °C 4,4 °C 95 % 1016,9 hPa 0,0 mm 1,3 km/h (1 Bft) O 81 ° 0 min 0,000 mm 0,0 UV-I 23 W/m² 3,7 °C 3,2 km/h (1 Bft)
27.11.2016 10:51 4,4 °C 4,4 °C 95 % 1016,9 hPa 0,0 mm 0,7 km/h (0 Bft) O 81 ° 0 min 0,000 mm 0,0 UV-I 23 W/m² 3,7 °C 1,6 km/h (1 Bft)
27.11.2016 10:52 4,4 °C 4,4 °C 95 % 1016,8 hPa 0,0 mm 1,1 km/h (1 Bft) O 81 ° 0 min 0,000 mm 0,0 UV-I 23 W/m² 3,7 °C 1,6 km/h (1 Bft)
27.11.2016 10:53 4,4 °C 4,4 °C 96 % 1016,8 hPa 0,0 mm 0,3 km/h (0 Bft) O 81 ° 0 min 0,000 mm 0,0 UV-I 23 W/m² 3,8 °C 1,6 km/h (1 Bft)
27.11.2016 10:54 4,3 °C 4,4 °C 96 % 1016,7 hPa 0,0 mm 2,8 km/h (1 Bft) O 81 ° 0 min 0,000 mm 0,0 UV-I 23 W/m² 3,7 °C 4,8 km/h (1 Bft)
27.11.2016 10:55 4,4 °C 4,4 °C 96 % 1016,7 hPa 0,0 mm 3,3 km/h (1 Bft) O 80 ° 0 min 0,000 mm 0,0 UV-I 25 W/m² 3,8 °C 4,8 km/h (1 Bft)
27.11.2016 10:56 4,4 °C 4,4 °C 96 % 1016,8 hPa 0,0 mm 3,9 km/h (1 Bft) O 79 ° 0 min 0,000 mm 0,0 UV-I 26 W/m² 3,8 °C 4,8 km/h (1 Bft)
27.11.2016 10:57 4,4 °C 4,4 °C 96 % 1016,8 hPa 0,0 mm 3,4 km/h (1 Bft) O 79 ° 0 min 0,000 mm 0,0 UV-I 25 W/m² 3,8 °C 4,8 km/h (1 Bft)
27.11.2016 10:58 4,3 °C 4,4 °C 96 % 1016,8 hPa 0,0 mm 2,0 km/h (1 Bft) O 79 ° 0 min 0,000 mm 0,0 UV-I 25 W/m² 3,7 °C 3,2 km/h (1 Bft)
27.11.2016 10:59 4,3 °C 4,4 °C 95 % 1016,8 hPa 0,0 mm 2,5 km/h (1 Bft) NO 43 ° 0 min 0,000 mm 0,0 UV-I 23 W/m² 3,6 °C 4,8 km/h (1 Bft)
27.11.2016 11:00 4,3 °C 4,4 °C 96 % 1016,8 hPa 0,0 mm 3,4 km/h (1 Bft) NO 44 ° 0 min 0,000 mm 0,0 UV-I 25 W/m² 3,7 °C 4,8 km/h (1 Bft)
27.11.2016 11:01 4,3 °C 4,4 °C 96 % 1016,8 hPa 0,0 mm 2,2 km/h (1 Bft) NO 44 ° 0 min 0,000 mm 0,0 UV-I 25 W/m² 3,7 °C 3,2 km/h (1 Bft)
27.11.2016 11:02 4,3 °C 4,4 °C 95 % 1016,8 hPa 0,0 mm 1,9 km/h (1 Bft) NO 43 ° 0 min 0,000 mm 0,0 UV-I 25 W/m² 3,6 °C 3,2 km/h (1 Bft)
27.11.2016 11:03 4,3 °C 4,3 °C 95 % 1016,8 hPa 0,0 mm 2,2 km/h (1 Bft) NO 43 ° 0 min 0,000 mm 0,0 UV-I 23 W/m² 3,6 °C 3,2 km/h (1 Bft)
27.11.2016 11:04 4,4 °C 4,4 °C 95 % 1016,8 hPa 0,0 mm 1,7 km/h (1 Bft) NO 43 ° 0 min 0,000 mm 0,0 UV-I 21 W/m² 3,7 °C 3,2 km/h (1 Bft)
27.11.2016 11:05 4,3 °C 4,4 °C 95 % 1016,8 hPa 0,0 mm 1,6 km/h (1 Bft) NO 43 ° 0 min 0,000 mm 0,0 UV-I 21 W/m² 3,6 °C 3,2 km/h (1 Bft)
27.11.2016 11:06 4,3 °C 4,4 °C 96 % 1016,8 hPa 0,0 mm 1,9 km/h (1 Bft) NO 43 ° 0 min 0,000 mm 0,0 UV-I 23 W/m² 3,7 °C 3,2 km/h (1 Bft)
27.11.2016 11:07 4,4 °C 4,4 °C 96 % 1016,8 hPa 0,0 mm 1,4 km/h (1 Bft) NO 43 ° 0 min 0,000 mm 0,0 UV-I 21 W/m² 3,8 °C 3,2 km/h (1 Bft)
27.11.2016 11:08 4,3 °C 4,4 °C 96 % 1016,8 hPa 0,0 mm 2,7 km/h (1 Bft) NO 43 ° 0 min 0,000 mm 0,0 UV-I 21 W/m² 3,7 °C 4,8 km/h (1 Bft)
27.11.2016 11:09 4,3 °C 4,4 °C 96 % 1016,8 hPa 0,0 mm 2,9 km/h (1 Bft) NO 44 ° 0 min 0,000 mm 0,0 UV-I 21 W/m² 3,7 °C 4,8 km/h (1 Bft)
27.11.2016 11:10 4,3 °C 4,3 °C 96 % 1016,8 hPa 0,0 mm 3,9 km/h (1 Bft) NO 40 ° 0 min 0,000 mm 0,0 UV-I 21 W/m² 3,7 °C 6,4 km/h (2 Bft)
27.11.2016 11:11 4,3 °C 4,3 °C 96 % 1016,7 hPa 0,0 mm 4,6 km/h (1 Bft) NO 44 ° 0 min 0,000 mm 0,0 UV-I 21 W/m² 3,7 °C 6,4 km/h (2 Bft)
27.11.2016 11:12 4,3 °C 4,3 °C 96 % 1016,7 hPa 0,0 mm 3,4 km/h (1 Bft) NO 44 ° 0 min 0,000 mm 0,0 UV-I 19 W/m² 3,7 °C 4,8 km/h (1 Bft)
27.11.2016 11:13 4,3 °C 4,3 °C 96 % 1016,7 hPa 0,0 mm 3,9 km/h (1 Bft) NO 37 ° 0 min 0,000 mm 0,0 UV-I 19 W/m² 3,7 °C 6,4 km/h (2 Bft)
27.11.2016 11:14 4,3 °C 4,3 °C 96 % 1016,7 hPa 0,0 mm 1,8 km/h (1 Bft) NO 37 ° 0 min 0,000 mm 0,0 UV-I 19 W/m² 3,7 °C 3,2 km/h (1 Bft)
27.11.2016 11:15 4,3 °C 4,3 °C 96 % 1016,8 hPa 0,0 mm 2,4 km/h (1 Bft) NO 36 ° 0 min 0,000 mm 0,0 UV-I 16 W/m² 3,7 °C 4,8 km/h (1 Bft)
27.11.2016 11:16 4,3 °C 4,3 °C 96 % 1016,8 hPa 0,0 mm 2,9 km/h (1 Bft) NO 40 ° 0 min 0,000 mm 0,0 UV-I 16 W/m² 3,7 °C 4,8 km/h (1 Bft)
27.11.2016 11:17 4,3 °C 4,3 °C 96 % 1016,7 hPa 0,0 mm 4,3 km/h (1 Bft) NO 53 ° 0 min 0,000 mm 0,0 UV-I 16 W/m² 3,7 °C 6,4 km/h (2 Bft)
27.11.2016 11:18 4,3 °C 4,3 °C 96 % 1016,8 hPa 0,0 mm 2,4 km/h (1 Bft) NO 53 ° 0 min 0,000 mm 0,0 UV-I 16 W/m² 3,7 °C 4,8 km/h (1 Bft)
27.11.2016 11:19 4,3 °C 4,3 °C 96 % 1016,7 hPa 0,0 mm 2,1 km/h (1 Bft) NO 53 ° 0 min 0,000 mm 0,0 UV-I 18 W/m² 3,7 °C 3,2 km/h (1 Bft)
27.11.2016 11:20 4,3 °C 4,3 °C 96 % 1016,7 hPa 0,0 mm 2,0 km/h (1 Bft) NO 53 ° 0 min 0,000 mm 0,0 UV-I 18 W/m² 3,7 °C 3,2 km/h (1 Bft)
27.11.2016 11:21 4,3 °C 4,3 °C 96 % 1016,7 hPa 0,0 mm 1,8 km/h (1 Bft) NO 53 ° 0 min 0,000 mm 0,0 UV-I 16 W/m² 3,7 °C 3,2 km/h (1 Bft)
27.11.2016 11:22 4,3 °C 4,3 °C 96 % 1016,7 hPa 0,0 mm 2,3 km/h (1 Bft) NO 53 ° 0 min 0,000 mm 0,0 UV-I 14 W/m² 3,7 °C 3,2 km/h (1 Bft)
27.11.2016 11:23 4,3 °C 4,3 °C 96 % 1016,7 hPa 0,0 mm 2,3 km/h (1 Bft) NO 53 ° 0 min 0,000 mm 0,0 UV-I 12 W/m² 3,7 °C 3,2 km/h (1 Bft)
27.11.2016 11:24 4,3 °C 4,3 °C 96 % 1016,7 hPa 0,0 mm 3,3 km/h (1 Bft) NO 53 ° 0 min 0,000 mm 0,0 UV-I 12 W/m² 3,7 °C 4,8 km/h (1 Bft)
27.11.2016 11:25 4,3 °C 4,3 °C 96 % 1016,7 hPa 0,0 mm 3,2 km/h (1 Bft) NO 53 ° 0 min 0,000 mm 0,0 UV-I 12 W/m² 3,7 °C 4,8 km/h (1 Bft)
27.11.2016 11:26 4,3 °C 4,3 °C 96 % 1016,7 hPa 0,0 mm 3,1 km/h (1 Bft) NO 53 ° 0 min 0,000 mm 0,0 UV-I 12 W/m² 3,7 °C 4,8 km/h (1 Bft)
27.11.2016 11:27 4,3 °C 4,3 °C 96 % 1016,6 hPa 0,0 mm 1,9 km/h (1 Bft) NO 53 ° 0 min 0,000 mm 0,0 UV-I 14 W/m² 3,7 °C 3,2 km/h (1 Bft)
27.11.2016 11:28 4,3 °C 4,3 °C 96 % 1016,7 hPa 0,0 mm 2,7 km/h (1 Bft) NO 53 ° 0 min 0,000 mm 0,0 UV-I 14 W/m² 3,7 °C 4,8 km/h (1 Bft)
27.11.2016 11:29 4,3 °C 4,3 °C 96 % 1016,7 hPa 0,0 mm 2,0 km/h (1 Bft) NO 53 ° 0 min 0,000 mm 0,0 UV-I 16 W/m² 3,7 °C 3,2 km/h (1 Bft)
27.11.2016 11:30 4,3 °C 4,3 °C 96 % 1016,7 hPa 0,0 mm 0,5 km/h (0 Bft) NO 53 ° 0 min 0,000 mm 0,0 UV-I 18 W/m² 3,7 °C 1,6 km/h (1 Bft)
27.11.2016 11:31 4,3 °C 4,3 °C 96 % 1016,6 hPa 0,0 mm 0,3 km/h (0 Bft) NO 53 ° 0 min 0,000 mm 0,0 UV-I 19 W/m² 3,7 °C 1,6 km/h (1 Bft)
27.11.2016 11:32 4,3 °C 4,3 °C 96 % 1016,7 hPa 0,0 mm 2,1 km/h (1 Bft) NO 53 ° 0 min 0,000 mm 0,0 UV-I 21 W/m² 3,7 °C 3,2 km/h (1 Bft)
27.11.2016 11:33 4,2 °C 4,3 °C 96 % 1016,6 hPa 0,0 mm 3,0 km/h (1 Bft) NO 53 ° 0 min 0,000 mm 0,0 UV-I 19 W/m² 3,6 °C 3,2 km/h (1 Bft)
27.11.2016 11:34 4,3 °C 4,3 °C 96 % 1016,6 hPa 0,0 mm 1,1 km/h (1 Bft) NO 53 ° 0 min 0,000 mm 0,0 UV-I 19 W/m² 3,7 °C 1,6 km/h (1 Bft)
27.11.2016 11:35 4,3 °C 4,3 °C 96 % 1016,6 hPa 0,0 mm 1,7 km/h (1 Bft) NO 53 ° 0 min 0,000 mm 0,0 UV-I 18 W/m² 3,7 °C 3,2 km/h (1 Bft)
27.11.2016 11:36 4,3 °C 4,3 °C 96 % 1016,6 hPa 0,0 mm 1,9 km/h (1 Bft) NO 53 ° 0 min 0,000 mm 0,0 UV-I 19 W/m² 3,7 °C 3,2 km/h (1 Bft)
27.11.2016 11:37 4,2 °C 4,3 °C 96 % 1016,6 hPa 0,0 mm 2,2 km/h (1 Bft) NO 53 ° 0 min 0,000 mm 0,0 UV-I 21 W/m² 3,6 °C 3,2 km/h (1 Bft)
27.11.2016 11:38 4,3 °C 4,3 °C 96 % 1016,6 hPa 0,0 mm 3,2 km/h (1 Bft) NO 53 ° 0 min 0,000 mm 0,0 UV-I 21 W/m² 3,7 °C 4,8 km/h (1 Bft)
27.11.2016 11:39 4,2 °C 4,3 °C 96 % 1016,6 hPa 0,0 mm 3,2 km/h (1 Bft) NO 53 ° 0 min 0,000 mm 0,0 UV-I 19 W/m² 3,6 °C 4,8 km/h (1 Bft)
27.11.2016 11:40 4,3 °C 4,3 °C 96 % 1016,6 hPa 0,0 mm 2,2 km/h (1 Bft) NO 53 ° 0 min 0,000 mm 0,0 UV-I 16 W/m² 3,7 °C 3,2 km/h (1 Bft)
27.11.2016 11:41 4,3 °C 4,3 °C 96 % 1016,6 hPa 0,0 mm 1,7 km/h (1 Bft) NO 53 ° 0 min 0,000 mm 0,0 UV-I 14 W/m² 3,7 °C 3,2 km/h (1 Bft)
27.11.2016 11:42 4,2 °C 4,3 °C 96 % 1016,7 hPa 0,0 mm 3,6 km/h (1 Bft) N-NO 22 ° 0 min 0,000 mm 0,0 UV-I 16 W/m² 3,6 °C 4,8 km/h (1 Bft)
27.11.2016 11:43 4,2 °C 4,3 °C 96 % 1016,6 hPa 0,0 mm 3,8 km/h (1 Bft) N-NO 19 ° 0 min 0,000 mm 0,0 UV-I 16 W/m² 3,6 °C 4,8 km/h (1 Bft)
27.11.2016 11:44 4,2 °C 4,3 °C 96 % 1016,6 hPa 0,0 mm 3,6 km/h (1 Bft) N 5 ° 0 min 0,000 mm 0,0 UV-I 18 W/m² 3,6 °C 4,8 km/h (1 Bft)
27.11.2016 11:45 4,2 °C 4,2 °C 96 % 1016,7 hPa 0,0 mm 1,6 km/h (1 Bft) N 5 ° 0 min 0,000 mm 0,0 UV-I 18 W/m² 3,6 °C 3,2 km/h (1 Bft)
27.11.2016 11:46 4,3 °C 4,3 °C 96 % 1016,7 hPa 0,0 mm 0,9 km/h (0 Bft) N 5 ° 0 min 0,000 mm 0,0 UV-I 19 W/m² 3,7 °C 1,6 km/h (1 Bft)
27.11.2016 11:47 4,2 °C 4,3 °C 96 % 1016,6 hPa 0,0 mm 0,0 km/h (0 Bft) N 5 ° 0 min 0,000 mm 0,0 UV-I 19 W/m² 3,6 °C 0,0 km/h (0 Bft)
27.11.2016 11:48 4,2 °C 4,2 °C 96 % 1016,6 hPa 0,0 mm 0,0 km/h (0 Bft) N 5 ° 0 min 0,000 mm 0,0 UV-I 18 W/m² 3,6 °C 0,0 km/h (0 Bft)
27.11.2016 11:49 4,3 °C 4,3 °C 96 % 1016,6 hPa 0,0 mm 1,8 km/h (1 Bft) N 5 ° 0 min 0,000 mm 0,0 UV-I 19 W/m² 3,7 °C 3,2 km/h (1 Bft)
27.11.2016 11:50 4,2 °C 4,3 °C 96 % 1016,6 hPa 0,0 mm 2,5 km/h (1 Bft) N-NO 26 ° 0 min 0,000 mm 0,0 UV-I 19 W/m² 3,6 °C 3,2 km/h (1 Bft)
27.11.2016 11:51 4,2 °C 4,2 °C 96 % 1016,6 hPa 0,0 mm 2,0 km/h (1 Bft) N-NO 26 ° 0 min 0,000 mm 0,0 UV-I 18 W/m² 3,6 °C 3,2 km/h (1 Bft)
27.11.2016 11:52 4,2 °C 4,2 °C 96 % 1016,6 hPa 0,0 mm 1,1 km/h (1 Bft) N-NO 26 ° 0 min 0,000 mm 0,0 UV-I 14 W/m² 3,6 °C 1,6 km/h (1 Bft)
27.11.2016 11:53 4,2 °C 4,2 °C 96 % 1016,5 hPa 0,0 mm 1,4 km/h (1 Bft) N-NO 26 ° 0 min 0,000 mm 0,0 UV-I 14 W/m² 3,6 °C 3,2 km/h (1 Bft)
27.11.2016 11:54 4,2 °C 4,2 °C 96 % 1016,6 hPa 0,0 mm 3,3 km/h (1 Bft) N-NO 32 ° 0 min 0,000 mm 0,0 UV-I 14 W/m² 3,6 °C 4,8 km/h (1 Bft)
27.11.2016 11:55 4,2 °C 4,2 °C 96 % 1016,6 hPa 0,0 mm 3,1 km/h (1 Bft) N-NO 32 ° 0 min 0,000 mm 0,0 UV-I 16 W/m² 3,6 °C 4,8 km/h (1 Bft)
27.11.2016 11:56 4,2 °C 4,2 °C 96 % 1016,6 hPa 0,0 mm 2,0 km/h (1 Bft) N-NO 32 ° 0 min 0,000 mm 0,0 UV-I 18 W/m² 3,6 °C 3,2 km/h (1 Bft)
27.11.2016 11:57 4,2 °C 4,2 °C 96 % 1016,6 hPa 0,0 mm 0,7 km/h (0 Bft) N-NO 32 ° 0 min 0,000 mm 0,0 UV-I 16 W/m² 3,6 °C 1,6 km/h (1 Bft)
27.11.2016 11:58 4,2 °C 4,2 °C 96 % 1016,6 hPa 0,0 mm 0,3 km/h (0 Bft) N-NO 32 ° 0 min 0,000 mm 0,0 UV-I 16 W/m² 3,6 °C 1,6 km/h (1 Bft)
27.11.2016 11:59 4,2 °C 4,2 °C 96 % 1016,6 hPa 0,0 mm 0,9 km/h (0 Bft) N-NO 32 ° 0 min 0,000 mm 0,0 UV-I 16 W/m² 3,6 °C 3,2 km/h (1 Bft)
27.11.2016 12:00 4,2 °C 4,2 °C 96 % 1016,6 hPa 0,0 mm 1,3 km/h (1 Bft) N-NO 32 ° 0 min 0,000 mm 0,0 UV-I 16 W/m² 3,6 °C 1,6 km/h (1 Bft)
27.11.2016 12:01 4,2 °C 4,2 °C 96 % 1016,6 hPa 0,0 mm 2,1 km/h (1 Bft) N-NO 32 ° 0 min 0,000 mm 0,0 UV-I 18 W/m² 3,6 °C 3,2 km/h (1 Bft)
27.11.2016 12:02 4,2 °C 4,2 °C 96 % 1016,6 hPa 0,0 mm 1,8 km/h (1 Bft) N-NO 32 ° 0 min 0,000 mm 0,0 UV-I 18 W/m² 3,6 °C 3,2 km/h (1 Bft)
27.11.2016 12:03 4,2 °C 4,2 °C 96 % 1016,6 hPa 0,0 mm 2,0 km/h (1 Bft) N-NO 32 ° 0 min 0,000 mm 0,0 UV-I 19 W/m² 3,6 °C 3,2 km/h (1 Bft)
27.11.2016 12:04 4,2 °C 4,2 °C 96 % 1016,6 hPa 0,0 mm 2,2 km/h (1 Bft) N-NO 32 ° 0 min 0,000 mm 0,0 UV-I 18 W/m² 3,6 °C 3,2 km/h (1 Bft)
27.11.2016 12:05 4,2 °C 4,2 °C 96 % 1016,6 hPa 0,0 mm 4,1 km/h (1 Bft) N-NO 17 ° 0 min 0,000 mm 0,0 UV-I 18 W/m² 3,6 °C 4,8 km/h (1 Bft)
27.11.2016 12:06 4,2 °C 4,2 °C 96 % 1016,6 hPa 0,0 mm 2,3 km/h (1 Bft) N-NO 17 ° 0 min 0,000 mm 0,0 UV-I 19 W/m² 3,6 °C 4,8 km/h (1 Bft)
27.11.2016 12:07 4,2 °C 4,2 °C 96 % 1016,6 hPa 0,0 mm 3,6 km/h (1 Bft) N 5 ° 0 min 0,000 mm 0,0 UV-I 19 W/m² 3,6 °C 4,8 km/h (1 Bft)
27.11.2016 12:08 4,2 °C 4,2 °C 96 % 1016,6 hPa 0,0 mm 2,5 km/h (1 Bft) N 5 ° 0 min 0,000 mm 0,0 UV-I 18 W/m² 3,6 °C 4,8 km/h (1 Bft)
27.11.2016 12:09 4,2 °C 4,2 °C 96 % 1016,6 hPa 0,0 mm 1,7 km/h (1 Bft) N 5 ° 0 min 0,000 mm 0,0 UV-I 18 W/m² 3,6 °C 3,2 km/h (1 Bft)
27.11.2016 12:10 4,2 °C 4,2 °C 96 % 1016,6 hPa 0,0 mm 2,4 km/h (1 Bft) N 5 ° 0 min 0,000 mm 0,0 UV-I 18 W/m² 3,6 °C 3,2 km/h (1 Bft)
27.11.2016 12:11 4,2 °C 4,2 °C 96 % 1016,6 hPa 0,0 mm 2,6 km/h (1 Bft) N 5 ° 0 min 0,000 mm 0,0 UV-I 19 W/m² 3,6 °C 3,2 km/h (1 Bft)
27.11.2016 12:12 4,2 °C 4,2 °C 96 % 1016,6 hPa 0,0 mm 1,5 km/h (1 Bft) N 5 ° 0 min 0,000 mm 0,0 UV-I 21 W/m² 3,6 °C 3,2 km/h (1 Bft)
27.11.2016 12:13 4,1 °C 4,2 °C 96 % 1016,6 hPa 0,0 mm 2,7 km/h (1 Bft) N 5 ° 0 min 0,000 mm 0,0 UV-I 23 W/m² 3,5 °C 4,8 km/h (1 Bft)
27.11.2016 12:14 4,2 °C 4,2 °C 96 % 1016,6 hPa 0,0 mm 2,6 km/h (1 Bft) N 5 ° 0 min 0,000 mm 0,0 UV-I 25 W/m² 3,6 °C 3,2 km/h (1 Bft)
27.11.2016 12:15 4,2 °C 4,2 °C 96 % 1016,6 hPa 0,0 mm 1,2 km/h (1 Bft) N 5 ° 0 min 0,000 mm 0,0 UV-I 26 W/m² 3,6 °C 3,2 km/h (1 Bft)
27.11.2016 12:16 4,2 °C 4,2 °C 96 % 1016,5 hPa 0,0 mm 1,3 km/h (1 Bft) N 5 ° 0 min 0,000 mm 0,0 UV-I 28 W/m² 3,6 °C 1,6 km/h (1 Bft)
27.11.2016 12:17 4,2 °C 4,2 °C 96 % 1016,5 hPa 0,0 mm 1,5 km/h (1 Bft) N 5 ° 0 min 0,000 mm 0,0 UV-I 28 W/m² 3,6 °C 3,2 km/h (1 Bft)
27.11.2016 12:18 4,2 °C 4,2 °C 96 % 1016,6 hPa 0,0 mm 3,3 km/h (1 Bft) N 5 ° 0 min 0,000 mm 0,0 UV-I 25 W/m² 3,6 °C 4,8 km/h (1 Bft)
27.11.2016 12:19 4,2 °C 4,2 °C 96 % 1016,6 hPa 0,0 mm 3,8 km/h (1 Bft) N 5 ° 0 min 0,000 mm 0,0 UV-I 23 W/m² 3,6 °C 4,8 km/h (1 Bft)
27.11.2016 12:20 4,2 °C 4,2 °C 96 % 1016,6 hPa 0,0 mm 1,7 km/h (1 Bft) N 5 ° 0 min 0,000 mm 0,0 UV-I 21 W/m² 3,6 °C 3,2 km/h (1 Bft)
27.11.2016 12:21 4,2 °C 4,2 °C 96 % 1016,6 hPa 0,0 mm 2,9 km/h (1 Bft) N 5 ° 0 min 0,000 mm 0,0 UV-I 21 W/m² 3,6 °C 3,2 km/h (1 Bft)
27.11.2016 12:22 4,2 °C 4,2 °C 96 % 1016,6 hPa 0,0 mm 1,7 km/h (1 Bft) N 5 ° 0 min 0,000 mm 0,0 UV-I 19 W/m² 3,6 °C 3,2 km/h (1 Bft)
27.11.2016 12:23 4,2 °C 4,2 °C 96 % 1016,6 hPa 0,0 mm 1,5 km/h (1 Bft) N 5 ° 0 min 0,000 mm 0,0 UV-I 18 W/m² 3,6 °C 3,2 km/h (1 Bft)
27.11.2016 12:24 4,2 °C 4,2 °C 96 % 1016,6 hPa 0,0 mm 2,5 km/h (1 Bft) N-NO 24 ° 0 min 0,000 mm 0,0 UV-I 18 W/m² 3,6 °C 3,2 km/h (1 Bft)
27.11.2016 12:25 4,2 °C 4,2 °C 96 % 1016,6 hPa 0,0 mm 1,4 km/h (1 Bft) N-NO 24 ° 0 min 0,000 mm 0,0 UV-I 19 W/m² 3,6 °C 1,6 km/h (1 Bft)
27.11.2016 12:26 4,2 °C 4,2 °C 96 % 1016,6 hPa 0,0 mm 1,6 km/h (1 Bft) N 360 ° 0 min 0,000 mm 0,0 UV-I 21 W/m² 3,6 °C 3,2 km/h (1 Bft)
27.11.2016 12:27 4,2 °C 4,2 °C 96 % 1016,6 hPa 0,0 mm 2,0 km/h (1 Bft) N 360 ° 0 min 0,000 mm 0,0 UV-I 23 W/m² 3,6 °C 3,2 km/h (1 Bft)
27.11.2016 12:28 4,2 °C 4,2 °C 96 % 1016,5 hPa 0,0 mm 3,0 km/h (1 Bft) N 360 ° 0 min 0,000 mm 0,0 UV-I 21 W/m² 3,6 °C 4,8 km/h (1 Bft)
27.11.2016 12:29 4,2 °C 4,2 °C 96 % 1016,5 hPa 0,0 mm 2,1 km/h (1 Bft) N 360 ° 0 min 0,000 mm 0,0 UV-I 21 W/m² 3,6 °C 3,2 km/h (1 Bft)
27.11.2016 12:30 4,2 °C 4,2 °C 96 % 1016,5 hPa 0,0 mm 3,2 km/h (1 Bft) N 360 ° 0 min 0,000 mm 0,0 UV-I 21 W/m² 3,6 °C 3,2 km/h (1 Bft)
27.11.2016 12:31 4,2 °C 4,2 °C 96 % 1016,4 hPa 0,0 mm 1,4 km/h (1 Bft) N 360 ° 0 min 0,000 mm 0,0 UV-I 19 W/m² 3,6 °C 1,6 km/h (1 Bft)
27.11.2016 12:32 4,2 °C 4,2 °C 96 % 1016,4 hPa 0,0 mm 1,2 km/h (1 Bft) N 360 ° 0 min 0,000 mm 0,0 UV-I 18 W/m² 3,6 °C 3,2 km/h (1 Bft)
27.11.2016 12:33 4,2 °C 4,2 °C 96 % 1016,4 hPa 0,0 mm 0,5 km/h (0 Bft) N 360 ° 0 min 0,000 mm 0,0 UV-I 18 W/m² 3,6 °C 1,6 km/h (1 Bft)
27.11.2016 12:34 4,2 °C 4,2 °C 96 % 1016,4 hPa 0,0 mm 1,1 km/h (1 Bft) N 360 ° 0 min 0,000 mm 0,0 UV-I 18 W/m² 3,6 °C 1,6 km/h (1 Bft)
27.11.2016 12:35 4,2 °C 4,2 °C 96 % 1016,4 hPa 0,0 mm 0,4 km/h (0 Bft) N 360 ° 0 min 0,000 mm 0,0 UV-I 16 W/m² 3,6 °C 1,6 km/h (1 Bft)
27.11.2016 12:36 4,2 °C 4,2 °C 96 % 1016,4 hPa 0,0 mm 1,6 km/h (1 Bft) N 360 ° 0 min 0,000 mm 0,0 UV-I 14 W/m² 3,6 °C 3,2 km/h (1 Bft)
27.11.2016 12:37 4,2 °C 4,2 °C 96 % 1016,4 hPa 0,0 mm 3,1 km/h (1 Bft) N 360 ° 0 min 0,000 mm 0,0 UV-I 14 W/m² 3,6 °C 4,8 km/h (1 Bft)
27.11.2016 12:38 4,2 °C 4,2 °C 96 % 1016,4 hPa 0,0 mm 3,4 km/h (1 Bft) NO 44 ° 0 min 0,000 mm 0,0 UV-I 14 W/m² 3,6 °C 6,4 km/h (2 Bft)
27.11.2016 12:39 4,2 °C 4,2 °C 96 % 1016,3 hPa 0,0 mm 2,5 km/h (1 Bft) NO 44 ° 0 min 0,000 mm 0,0 UV-I 14 W/m² 3,6 °C 4,8 km/h (1 Bft)
27.11.2016 12:40 4,1 °C 4,2 °C 96 % 1016,3 hPa 0,0 mm 2,1 km/h (1 Bft) NO 44 ° 0 min 0,000 mm 0,0 UV-I 14 W/m² 3,5 °C 3,2 km/h (1 Bft)
27.11.2016 12:41 4,2 °C 4,2 °C 96 % 1016,3 hPa 0,0 mm 2,0 km/h (1 Bft) NO 44 ° 0 min 0,000 mm 0,0 UV-I 11 W/m² 3,6 °C 3,2 km/h (1 Bft)
27.11.2016 12:42 4,1 °C 4,2 °C 96 % 1016,3 hPa 0,0 mm 1,8 km/h (1 Bft) NO 44 ° 0 min 0,000 mm 0,0 UV-I 11 W/m² 3,5 °C 3,2 km/h (1 Bft)
27.11.2016 12:43 4,1 °C 4,1 °C 96 % 1016,3 hPa 0,0 mm 1,7 km/h (1 Bft) NO 44 ° 0 min 0,000 mm 0,0 UV-I 11 W/m² 3,5 °C 3,2 km/h (1 Bft)
27.11.2016 12:44 4,1 °C 4,2 °C 96 % 1016,3 hPa 0,0 mm 0,7 km/h (0 Bft) NO 44 ° 0 min 0,000 mm 0,0 UV-I 11 W/m² 3,5 °C 1,6 km/h (1 Bft)
27.11.2016 12:45 4,1 °C 4,2 °C 96 % 1016,3 hPa 0,0 mm 1,9 km/h (1 Bft) NO 44 ° 0 min 0,000 mm 0,0 UV-I 12 W/m² 3,5 °C 4,8 km/h (1 Bft)
27.11.2016 12:46 4,1 °C 4,1 °C 96 % 1016,3 hPa 0,0 mm 3,9 km/h (1 Bft) NO 44 ° 0 min 0,000 mm 0,0 UV-I 12 W/m² 3,5 °C 4,8 km/h (1 Bft)
27.11.2016 12:47 4,1 °C 4,1 °C 96 % 1016,3 hPa 0,0 mm 2,3 km/h (1 Bft) NO 44 ° 0 min 0,000 mm 0,0 UV-I 12 W/m² 3,5 °C 4,8 km/h (1 Bft)
27.11.2016 12:48 4,1 °C 4,1 °C 96 % 1016,3 hPa 0,0 mm 1,8 km/h (1 Bft) NO 44 ° 0 min 0,000 mm 0,0 UV-I 11 W/m² 3,5 °C 3,2 km/h (1 Bft)
27.11.2016 12:49 4,1 °C 4,1 °C 96 % 1016,3 hPa 0,0 mm 1,9 km/h (1 Bft) NO 44 ° 0 min 0,000 mm 0,0 UV-I 12 W/m² 3,5 °C 3,2 km/h (1 Bft)
27.11.2016 12:50 4,1 °C 4,1 °C 96 % 1016,3 hPa 0,0 mm 2,9 km/h (1 Bft) NO 44 ° 0 min 0,000 mm 0,0 UV-I 12 W/m² 3,5 °C 3,2 km/h (1 Bft)
27.11.2016 12:51 4,1 °C 4,1 °C 96 % 1016,3 hPa 0,0 mm 2,1 km/h (1 Bft) NO 44 ° 0 min 0,000 mm 0,0 UV-I 14 W/m² 3,5 °C 3,2 km/h (1 Bft)
27.11.2016 12:52 4,1 °C 4,1 °C 96 % 1016,3 hPa 0,0 mm 3,4 km/h (1 Bft) N-NO 17 ° 0 min 0,000 mm 0,0 UV-I 16 W/m² 3,5 °C 4,8 km/h (1 Bft)
27.11.2016 12:53 4,1 °C 4,1 °C 96 % 1016,3 hPa 0,0 mm 2,3 km/h (1 Bft) N-NO 27 ° 0 min 0,000 mm 0,0 UV-I 14 W/m² 3,5 °C 3,2 km/h (1 Bft)
27.11.2016 12:54 4,1 °C 4,1 °C 96 % 1016,3 hPa 0,0 mm 3,1 km/h (1 Bft) N-NO 27 ° 0 min 0,000 mm 0,0 UV-I 14 W/m² 3,5 °C 4,8 km/h (1 Bft)
27.11.2016 12:55 4,1 °C 4,1 °C 96 % 1016,3 hPa 0,0 mm 2,3 km/h (1 Bft) N-NO 27 ° 0 min 0,000 mm 0,0 UV-I 16 W/m² 3,5 °C 3,2 km/h (1 Bft)
27.11.2016 12:56 4,1 °C 4,1 °C 96 % 1016,3 hPa 0,0 mm 2,4 km/h (1 Bft) N-NO 27 ° 0 min 0,000 mm 0,0 UV-I 18 W/m² 3,5 °C 3,2 km/h (1 Bft)
27.11.2016 12:57 4,1 °C 4,1 °C 96 % 1016,3 hPa 0,0 mm 1,9 km/h (1 Bft) N-NO 27 ° 0 min 0,000 mm 0,0 UV-I 19 W/m² 3,5 °C 3,2 km/h (1 Bft)
27.11.2016 12:58 4,1 °C 4,1 °C 96 % 1016,3 hPa 0,0 mm 3,6 km/h (1 Bft) N-NO 27 ° 0 min 0,000 mm 0,0 UV-I 18 W/m² 3,5 °C 4,8 km/h (1 Bft)
27.11.2016 12:59 4,1 °C 4,1 °C 96 % 1016,3 hPa 0,0 mm 3,3 km/h (1 Bft) N-NO 27 ° 0 min 0,000 mm 0,0 UV-I 18 W/m² 3,5 °C 4,8 km/h (1 Bft)
27.11.2016 13:00 4,0 °C 4,1 °C 96 % 1016,3 hPa 0,0 mm 2,3 km/h (1 Bft) N-NO 27 ° 0 min 0,000 mm 0,0 UV-I 19 W/m² 3,4 °C 4,8 km/h (1 Bft)
27.11.2016 13:01 4,1 °C 4,1 °C 96 % 1016,3 hPa 0,0 mm 1,8 km/h (1 Bft) N-NO 27 ° 0 min 0,000 mm 0,0 UV-I 21 W/m² 3,5 °C 3,2 km/h (1 Bft)
27.11.2016 13:02 4,1 °C 4,1 °C 96 % 1016,3 hPa 0,0 mm 2,3 km/h (1 Bft) N-NO 25 ° 0 min 0,000 mm 0,0 UV-I 19 W/m² 3,5 °C 3,2 km/h (1 Bft)
27.11.2016 13:03 4,1 °C 4,1 °C 96 % 1016,2 hPa 0,0 mm 1,4 km/h (1 Bft) N-NO 25 ° 0 min 0,000 mm 0,0 UV-I 19 W/m² 3,5 °C 3,2 km/h (1 Bft)
27.11.2016 13:04 4,1 °C 4,1 °C 96 % 1016,2 hPa 0,0 mm 1,9 km/h (1 Bft) N-NO 25 ° 0 min 0,000 mm 0,0 UV-I 21 W/m² 3,5 °C 3,2 km/h (1 Bft)
27.11.2016 13:05 4,1 °C 4,1 °C 96 % 1016,2 hPa 0,0 mm 0,0 km/h (0 Bft) N-NO 25 ° 0 min 0,000 mm 0,0 UV-I 23 W/m² 3,5 °C 0,0 km/h (0 Bft)
27.11.2016 13:06 4,1 °C 4,1 °C 96 % 1016,2 hPa 0,0 mm 0,7 km/h (0 Bft) N-NO 25 ° 0 min 0,000 mm 0,0 UV-I 25 W/m² 3,5 °C 1,6 km/h (1 Bft)
27.11.2016 13:07 4,1 °C 4,1 °C 96 % 1016,2 hPa 0,0 mm 1,3 km/h (1 Bft) N-NO 25 ° 0 min 0,000 mm 0,0 UV-I 25 W/m² 3,5 °C 3,2 km/h (1 Bft)
27.11.2016 13:08 4,1 °C 4,1 °C 96 % 1016,1 hPa 0,0 mm 2,3 km/h (1 Bft) N-NO 25 ° 0 min 0,000 mm 0,0 UV-I 28 W/m² 3,5 °C 3,2 km/h (1 Bft)
27.11.2016 13:09 4,1 °C 4,1 °C 96 % 1016,1 hPa 0,0 mm 2,0 km/h (1 Bft) N-NO 25 ° 0 min 0,000 mm 0,0 UV-I 28 W/m² 3,5 °C 3,2 km/h (1 Bft)
27.11.2016 13:10 4,1 °C 4,1 °C 96 % 1016,1 hPa 0,0 mm 2,1 km/h (1 Bft) N-NO 25 ° 0 min 0,000 mm 0,0 UV-I 30 W/m² 3,5 °C 3,2 km/h (1 Bft)
27.11.2016 13:11 4,1 °C 4,1 °C 96 % 1016,1 hPa 0,0 mm 1,1 km/h (1 Bft) N-NO 25 ° 0 min 0,000 mm 0,0 UV-I 30 W/m² 3,5 °C 3,2 km/h (1 Bft)
27.11.2016 13:12 4,1 °C 4,1 °C 96 % 1016,0 hPa 0,0 mm 1,7 km/h (1 Bft) N-NO 25 ° 0 min 0,000 mm 0,0 UV-I 28 W/m² 3,5 °C 3,2 km/h (1 Bft)
27.11.2016 13:13 4,1 °C 4,1 °C 96 % 1016,0 hPa 0,0 mm 1,3 km/h (1 Bft) N-NO 25 ° 0 min 0,000 mm 0,0 UV-I 26 W/m² 3,5 °C 3,2 km/h (1 Bft)
27.11.2016 13:14 4,1 °C 4,1 °C 96 % 1016,1 hPa 0,0 mm 2,0 km/h (1 Bft) N-NO 25 ° 0 min 0,000 mm 0,0 UV-I 28 W/m² 3,5 °C 3,2 km/h (1 Bft)
27.11.2016 13:15 4,1 °C 4,1 °C 96 % 1016,1 hPa 0,0 mm 1,4 km/h (1 Bft) N-NO 25 ° 0 min 0,000 mm 0,0 UV-I 28 W/m² 3,5 °C 3,2 km/h (1 Bft)
27.11.2016 13:16 4,1 °C 4,1 °C 96 % 1016,1 hPa 0,0 mm 2,5 km/h (1 Bft) N-NO 25 ° 0 min 0,000 mm 0,0 UV-I 26 W/m² 3,5 °C 4,8 km/h (1 Bft)
27.11.2016 13:17 4,1 °C 4,1 °C 96 % 1016,1 hPa 0,0 mm 2,9 km/h (1 Bft) N-NO 26 ° 0 min 0,000 mm 0,0 UV-I 25 W/m² 3,5 °C 4,8 km/h (1 Bft)
27.11.2016 13:18 4,1 °C 4,1 °C 96 % 1016,0 hPa 0,0 mm 2,2 km/h (1 Bft) N-NO 26 ° 0 min 0,000 mm 0,0 UV-I 25 W/m² 3,5 °C 3,2 km/h (1 Bft)
27.11.2016 13:19 4,1 °C 4,1 °C 96 % 1016,0 hPa 0,0 mm 1,9 km/h (1 Bft) N-NO 26 ° 0 min 0,000 mm 0,0 UV-I 25 W/m² 3,5 °C 3,2 km/h (1 Bft)
27.11.2016 13:20 4,1 °C 4,1 °C 96 % 1016,0 hPa 0,0 mm 1,5 km/h (1 Bft) N-NO 26 ° 0 min 0,000 mm 0,0 UV-I 26 W/m² 3,5 °C 3,2 km/h (1 Bft)
27.11.2016 13:21 4,1 °C 4,1 °C 96 % 1016,0 hPa 0,0 mm 1,3 km/h (1 Bft) N-NO 26 ° 0 min 0,000 mm 0,0 UV-I 25 W/m² 3,5 °C 1,6 km/h (1 Bft)
27.11.2016 13:22 4,1 °C 4,1 °C 96 % 1016,0 hPa 0,0 mm 2,8 km/h (1 Bft) N-NO 26 ° 0 min 0,000 mm 0,0 UV-I 21 W/m² 3,5 °C 3,2 km/h (1 Bft)
27.11.2016 13:23 4,1 °C 4,1 °C 96 % 1015,9 hPa 0,0 mm 3,3 km/h (1 Bft) N-NO 26 ° 0 min 0,000 mm 0,0 UV-I 19 W/m² 3,5 °C 4,8 km/h (1 Bft)
27.11.2016 13:24 4,1 °C 4,1 °C 96 % 1015,9 hPa 0,0 mm 2,2 km/h (1 Bft) N-NO 26 ° 0 min 0,000 mm 0,0 UV-I 19 W/m² 3,5 °C 3,2 km/h (1 Bft)
27.11.2016 13:25 4,1 °C 4,1 °C 96 % 1015,9 hPa 0,0 mm 0,5 km/h (0 Bft) N-NO 26 ° 0 min 0,000 mm 0,0 UV-I 16 W/m² 3,5 °C 1,6 km/h (1 Bft)
27.11.2016 13:26 4,1 °C 4,1 °C 96 % 1015,9 hPa 0,0 mm 0,0 km/h (0 Bft) N-NO 26 ° 0 min 0,000 mm 0,0 UV-I 16 W/m² 3,5 °C 0,0 km/h (0 Bft)
27.11.2016 13:27 4,1 °C 4,1 °C 96 % 1015,9 hPa 0,0 mm 0,9 km/h (0 Bft) N-NO 26 ° 0 min 0,000 mm 0,0 UV-I 18 W/m² 3,5 °C 1,6 km/h (1 Bft)
27.11.2016 13:28 4,1 °C 4,1 °C 96 % 1015,9 hPa 0,0 mm 2,0 km/h (1 Bft) N-NO 26 ° 0 min 0,000 mm 0,0 UV-I 18 W/m² 3,5 °C 3,2 km/h (1 Bft)
27.11.2016 13:29 4,1 °C 4,1 °C 96 % 1015,9 hPa 0,0 mm 1,5 km/h (1 Bft) N-NO 26 ° 0 min 0,000 mm 0,0 UV-I 16 W/m² 3,5 °C 1,6 km/h (1 Bft)
27.11.2016 13:30 4,1 °C 4,1 °C 96 % 1015,8 hPa 0,0 mm 2,4 km/h (1 Bft) N-NW 331 ° 0 min 0,000 mm 0,0 UV-I 16 W/m² 3,5 °C 3,2 km/h (1 Bft)
27.11.2016 13:31 4,1 °C 4,1 °C 96 % 1015,8 hPa 0,0 mm 1,4 km/h (1 Bft) N-NW 331 ° 0 min 0,000 mm 0,0 UV-I 14 W/m² 3,5 °C 1,6 km/h (1 Bft)
27.11.2016 13:32 4,1 °C 4,1 °C 96 % 1015,9 hPa 0,0 mm 1,1 km/h (1 Bft) N-NW 331 ° 0 min 0,000 mm 0,0 UV-I 14 W/m² 3,5 °C 3,2 km/h (1 Bft)
27.11.2016 13:33 4,1 °C 4,1 °C 96 % 1015,8 hPa 0,0 mm 1,5 km/h (1 Bft) N-NW 331 ° 0 min 0,000 mm 0,0 UV-I 16 W/m² 3,5 °C 1,6 km/h (1 Bft)
27.11.2016 13:34 4,1 °C 4,1 °C 96 % 1015,8 hPa 0,0 mm 0,8 km/h (0 Bft) N-NW 331 ° 0 min 0,000 mm 0,0 UV-I 16 W/m² 3,5 °C 1,6 km/h (1 Bft)
27.11.2016 13:35 4,1 °C 4,1 °C 96 % 1015,9 hPa 0,0 mm 1,3 km/h (1 Bft) N-NW 331 ° 0 min 0,000 mm 0,0 UV-I 16 W/m² 3,5 °C 1,6 km/h (1 Bft)
27.11.2016 13:36 4,1 °C 4,1 °C 96 % 1015,9 hPa 0,0 mm 2,0 km/h (1 Bft) N-NW 336 ° 0 min 0,000 mm 0,0 UV-I 14 W/m² 3,5 °C 3,2 km/h (1 Bft)
27.11.2016 13:37 4,1 °C 4,1 °C 96 % 1015,8 hPa 0,0 mm 2,7 km/h (1 Bft) N-NW 336 ° 0 min 0,000 mm 0,0 UV-I 12 W/m² 3,5 °C 3,2 km/h (1 Bft)
27.11.2016 13:38 4,1 °C 4,1 °C 96 % 1015,9 hPa 0,0 mm 2,1 km/h (1 Bft) N-NW 336 ° 0 min 0,000 mm 0,0 UV-I 11 W/m² 3,5 °C 3,2 km/h (1 Bft)
27.11.2016 13:39 4,1 °C 4,1 °C 96 % 1015,9 hPa 0,2 mm 2,2 km/h (1 Bft) N-NW 336 ° 0 min 0,000 mm 0,0 UV-I 11 W/m² 3,5 °C 3,2 km/h (1 Bft)
27.11.2016 13:40 4,1 °C 4,1 °C 96 % 1015,9 hPa 0,0 mm 2,1 km/h (1 Bft) N-NW 336 ° 0 min 0,000 mm 0,0 UV-I 12 W/m² 3,5 °C 3,2 km/h (1 Bft)
27.11.2016 13:41 4,1 °C 4,1 °C 96 % 1015,9 hPa 0,0 mm 2,9 km/h (1 Bft) N-NW 346 ° 0 min 0,000 mm 0,0 UV-I 14 W/m² 3,5 °C 4,8 km/h (1 Bft)
27.11.2016 13:42 4,1 °C 4,1 °C 96 % 1015,9 hPa 0,0 mm 2,9 km/h (1 Bft) N-NW 340 ° 0 min 0,000 mm 0,0 UV-I 14 W/m² 3,5 °C 4,8 km/h (1 Bft)
27.11.2016 13:43 4,1 °C 4,1 °C 96 % 1015,9 hPa 0,0 mm 4,4 km/h (1 Bft) N-NW 337 ° 0 min 0,000 mm 0,0 UV-I 14 W/m² 3,5 °C 8,0 km/h (2 Bft)
27.11.2016 13:44 4,1 °C 4,1 °C 96 % 1015,9 hPa 0,0 mm 4,8 km/h (1 Bft) N 350 ° 0 min 0,000 mm 0,0 UV-I 14 W/m² 3,5 °C 6,4 km/h (2 Bft)
27.11.2016 13:45 4,1 °C 4,1 °C 96 % 1015,8 hPa 0,0 mm 3,4 km/h (1 Bft) N-NW 347 ° 0 min 0,000 mm 0,0 UV-I 16 W/m² 3,5 °C 4,8 km/h (1 Bft)
27.11.2016 13:46 4,1 °C 4,1 °C 96 % 1015,8 hPa 0,0 mm 3,4 km/h (1 Bft) N-NW 341 ° 0 min 0,000 mm 0,0 UV-I 18 W/m² 3,5 °C 6,4 km/h (2 Bft)
27.11.2016 13:47 4,1 °C 4,1 °C 96 % 1015,8 hPa 0,0 mm 3,2 km/h (1 Bft) N-NW 341 ° 0 min 0,000 mm 0,0 UV-I 19 W/m² 3,5 °C 4,8 km/h (1 Bft)
27.11.2016 13:48 4,1 °C 4,1 °C 96 % 1015,8 hPa 0,0 mm 1,5 km/h (1 Bft) N-NW 341 ° 0 min 0,000 mm 0,0 UV-I 21 W/m² 3,5 °C 3,2 km/h (1 Bft)
27.11.2016 13:49 4,0 °C 4,1 °C 96 % 1015,8 hPa 0,0 mm 2,2 km/h (1 Bft) N-NW 341 ° 0 min 0,000 mm 0,0 UV-I 21 W/m² 3,4 °C 3,2 km/h (1 Bft)
27.11.2016 13:50 4,0 °C 4,1 °C 96 % 1015,7 hPa 0,0 mm 1,5 km/h (1 Bft) N-NW 341 ° 0 min 0,000 mm 0,0 UV-I 18 W/m² 3,4 °C 3,2 km/h (1 Bft)
27.11.2016 13:51 4,0 °C 4,0 °C 96 % 1015,7 hPa 0,0 mm 2,5 km/h (1 Bft) N-NW 341 ° 0 min 0,000 mm 0,0 UV-I 19 W/m² 3,4 °C 3,2 km/h (1 Bft)
27.11.2016 13:52 4,0 °C 4,0 °C 96 % 1015,7 hPa 0,0 mm 3,5 km/h (1 Bft) N-NW 332 ° 0 min 0,000 mm 0,0 UV-I 21 W/m² 3,4 °C 4,8 km/h (1 Bft)
27.11.2016 13:53 4,0 °C 4,1 °C 96 % 1015,8 hPa 0,0 mm 3,2 km/h (1 Bft) N 355 ° 0 min 0,000 mm 0,0 UV-I 21 W/m² 3,4 °C 4,8 km/h (1 Bft)
27.11.2016 13:54 4,0 °C 4,0 °C 96 % 1015,7 hPa 0,0 mm 4,3 km/h (1 Bft) N-NW 344 ° 0 min 0,000 mm 0,0 UV-I 21 W/m² 3,4 °C 4,8 km/h (1 Bft)
27.11.2016 13:55 4,0 °C 4,0 °C 96 % 1015,8 hPa 0,0 mm 4,0 km/h (1 Bft) N-NW 342 ° 0 min 0,000 mm 0,0 UV-I 18 W/m² 3,4 °C 4,8 km/h (1 Bft)
27.11.2016 13:56 4,0 °C 4,0 °C 96 % 1015,7 hPa 0,0 mm 3,6 km/h (1 Bft) N-NW 335 ° 0 min 0,000 mm 0,0 UV-I 14 W/m² 3,4 °C 4,8 km/h (1 Bft)
27.11.2016 13:57 4,0 °C 4,0 °C 96 % 1015,8 hPa 0,0 mm 3,6 km/h (1 Bft) N 349 ° 0 min 0,000 mm 0,0 UV-I 12 W/m² 3,4 °C 4,8 km/h (1 Bft)
27.11.2016 13:58 3,9 °C 4,0 °C 96 % 1015,7 hPa 0,0 mm 2,3 km/h (1 Bft) N-NW 333 ° 0 min 0,000 mm 0,0 UV-I 12 W/m² 3,3 °C 3,2 km/h (1 Bft)
27.11.2016 13:59 3,9 °C 3,9 °C 96 % 1015,7 hPa 0,0 mm 4,0 km/h (1 Bft) N-NW 345 ° 0 min 0,000 mm 0,0 UV-I 12 W/m² 3,3 °C 4,8 km/h (1 Bft)
27.11.2016 14:00 3,9 °C 4,0 °C 96 % 1015,7 hPa 0,0 mm 3,2 km/h (1 Bft) N 355 ° 0 min 0,000 mm 0,0 UV-I 12 W/m² 3,3 °C 4,8 km/h (1 Bft)
27.11.2016 14:01 3,9 °C 3,9 °C 96 % 1015,7 hPa 0,0 mm 3,6 km/h (1 Bft) N-NW 340 ° 0 min 0,000 mm 0,0 UV-I 11 W/m² 3,3 °C 4,8 km/h (1 Bft)
27.11.2016 14:02 3,9 °C 3,9 °C 96 % 1015,6 hPa 0,0 mm 2,7 km/h (1 Bft) N 5 ° 0 min 0,000 mm 0,0 UV-I 11 W/m² 3,3 °C 4,8 km/h (1 Bft)
27.11.2016 14:03 3,9 °C 3,9 °C 96 % 1015,6 hPa 0,0 mm 2,2 km/h (1 Bft) N-NW 343 ° 0 min 0,000 mm 0,0 UV-I 14 W/m² 3,3 °C 4,8 km/h (1 Bft)
27.11.2016 14:04 3,9 °C 3,9 °C 96 % 1015,6 hPa 0,0 mm 2,9 km/h (1 Bft) N 5 ° 0 min 0,000 mm 0,0 UV-I 14 W/m² 3,3 °C 4,8 km/h (1 Bft)
27.11.2016 14:05 3,9 °C 3,9 °C 96 % 1015,6 hPa 0,0 mm 0,9 km/h (0 Bft) N 5 ° 0 min 0,000 mm 0,0 UV-I 16 W/m² 3,3 °C 3,2 km/h (1 Bft)
27.11.2016 14:06 3,9 °C 3,9 °C 96 % 1015,6 hPa 0,0 mm 0,5 km/h (0 Bft) N 5 ° 0 min 0,000 mm 0,0 UV-I 18 W/m² 3,3 °C 1,6 km/h (1 Bft)
27.11.2016 14:07 3,9 °C 3,9 °C 96 % 1015,5 hPa 0,0 mm 2,1 km/h (1 Bft) N 5 ° 0 min 0,000 mm 0,0 UV-I 18 W/m² 3,3 °C 3,2 km/h (1 Bft)
27.11.2016 14:08 3,9 °C 3,9 °C 96 % 1015,6 hPa 0,0 mm 2,8 km/h (1 Bft) N-NW 336 ° 0 min 0,000 mm 0,0 UV-I 18 W/m² 3,3 °C 4,8 km/h (1 Bft)
27.11.2016 14:09 3,9 °C 3,9 °C 96 % 1015,6 hPa 0,0 mm 2,4 km/h (1 Bft) N-NW 338 ° 0 min 0,000 mm 0,0 UV-I 19 W/m² 3,3 °C 3,2 km/h (1 Bft)
27.11.2016 14:10 3,9 °C 3,9 °C 96 % 1015,5 hPa 0,0 mm 2,1 km/h (1 Bft) N-NW 338 ° 0 min 0,000 mm 0,0 UV-I 19 W/m² 3,3 °C 3,2 km/h (1 Bft)
27.11.2016 14:11 3,9 °C 3,9 °C 96 % 1015,5 hPa 0,0 mm 2,2 km/h (1 Bft) N-NW 338 ° 0 min 0,000 mm 0,0 UV-I 19 W/m² 3,3 °C 3,2 km/h (1 Bft)
27.11.2016 14:12 3,9 °C 3,9 °C 96 % 1015,5 hPa 0,0 mm 1,3 km/h (1 Bft) N-NW 338 ° 0 min 0,000 mm 0,0 UV-I 19 W/m² 3,3 °C 3,2 km/h (1 Bft)
27.11.2016 14:13 3,8 °C 3,9 °C 96 % 1015,5 hPa 0,0 mm 0,9 km/h (0 Bft) N-NW 338 ° 0 min 0,000 mm 0,0 UV-I 19 W/m² 3,2 °C 1,6 km/h (1 Bft)
27.11.2016 14:14 3,8 °C 3,9 °C 96 % 1015,5 hPa 0,0 mm 1,3 km/h (1 Bft) N-NW 338 ° 0 min 0,000 mm 0,0 UV-I 21 W/m² 3,2 °C 3,2 km/h (1 Bft)
27.11.2016 14:15 3,8 °C 3,8 °C 96 % 1015,5 hPa 0,0 mm 3,2 km/h (1 Bft) NW 323 ° 0 min 0,000 mm 0,0 UV-I 21 W/m² 3,2 °C 4,8 km/h (1 Bft)
27.11.2016 14:16 3,8 °C 3,8 °C 96 % 1015,5 hPa 0,0 mm 1,7 km/h (1 Bft) NW 323 ° 0 min 0,000 mm 0,0 UV-I 21 W/m² 3,2 °C 3,2 km/h (1 Bft)
27.11.2016 14:17 3,8 °C 3,8 °C 96 % 1015,5 hPa 0,0 mm 2,0 km/h (1 Bft) NW 323 ° 0 min 0,000 mm 0,0 UV-I 23 W/m² 3,2 °C 3,2 km/h (1 Bft)
27.11.2016 14:18 3,8 °C 3,8 °C 96 % 1015,5 hPa 0,0 mm 2,5 km/h (1 Bft) NW 323 ° 0 min 0,000 mm 0,0 UV-I 21 W/m² 3,2 °C 3,2 km/h (1 Bft)
27.11.2016 14:19 3,8 °C 3,8 °C 96 % 1015,5 hPa 0,0 mm 4,0 km/h (1 Bft) N 351 ° 0 min 0,000 mm 0,0 UV-I 18 W/m² 3,2 °C 6,4 km/h (2 Bft)
27.11.2016 14:20 3,8 °C 3,8 °C 96 % 1015,5 hPa 0,0 mm 4,6 km/h (1 Bft) NW 306 ° 0 min 0,000 mm 0,0 UV-I 16 W/m² 3,2 °C 6,4 km/h (2 Bft)
27.11.2016 14:21 3,8 °C 3,8 °C 96 % 1015,5 hPa 0,0 mm 3,9 km/h (1 Bft) N-NW 333 ° 0 min 0,000 mm 0,0 UV-I 18 W/m² 3,2 °C 6,4 km/h (2 Bft)
27.11.2016 14:22 3,8 °C 3,8 °C 96 % 1015,5 hPa 0,0 mm 2,1 km/h (1 Bft) NW 321 ° 0 min 0,000 mm 0,0 UV-I 18 W/m² 3,2 °C 3,2 km/h (1 Bft)
27.11.2016 14:23 3,8 °C 3,8 °C 96 % 1015,5 hPa 0,0 mm 3,0 km/h (1 Bft) NW 321 ° 0 min 0,000 mm 0,0 UV-I 18 W/m² 3,2 °C 4,8 km/h (1 Bft)
27.11.2016 14:24 3,8 °C 3,8 °C 96 % 1015,6 hPa 0,0 mm 0,8 km/h (0 Bft) NW 321 ° 0 min 0,000 mm 0,0 UV-I 19 W/m² 3,2 °C 1,6 km/h (1 Bft)
27.11.2016 14:25 3,8 °C 3,8 °C 96 % 1015,6 hPa 0,0 mm 1,4 km/h (1 Bft) NW 321 ° 0 min 0,000 mm 0,0 UV-I 19 W/m² 3,2 °C 1,6 km/h (1 Bft)
27.11.2016 14:26 3,8 °C 3,8 °C 96 % 1015,6 hPa 0,0 mm 2,5 km/h (1 Bft) NW 321 ° 0 min 0,000 mm 0,0 UV-I 19 W/m² 3,2 °C 4,8 km/h (1 Bft)
27.11.2016 14:27 3,8 °C 3,8 °C 96 % 1015,6 hPa 0,0 mm 2,3 km/h (1 Bft) N-NW 335 ° 0 min 0,000 mm 0,0 UV-I 16 W/m² 3,2 °C 3,2 km/h (1 Bft)
27.11.2016 14:28 3,8 °C 3,8 °C 96 % 1015,6 hPa 0,0 mm 1,8 km/h (1 Bft) N-NW 331 ° 0 min 0,000 mm 0,0 UV-I 16 W/m² 3,2 °C 3,2 km/h (1 Bft)
27.11.2016 14:29 3,8 °C 3,8 °C 96 % 1015,6 hPa 0,0 mm 1,4 km/h (1 Bft) N-NW 331 ° 0 min 0,000 mm 0,0 UV-I 18 W/m² 3,2 °C 3,2 km/h (1 Bft)
27.11.2016 14:30 3,8 °C 3,8 °C 96 % 1015,6 hPa 0,0 mm 3,3 km/h (1 Bft) N 11 ° 0 min 0,000 mm 0,0 UV-I 19 W/m² 3,2 °C 4,8 km/h (1 Bft)
27.11.2016 14:31 3,8 °C 3,8 °C 96 % 1015,5 hPa 0,0 mm 2,4 km/h (1 Bft) N 11 ° 0 min 0,000 mm 0,0 UV-I 16 W/m² 3,2 °C 3,2 km/h (1 Bft)
27.11.2016 14:32 3,8 °C 3,8 °C 96 % 1015,5 hPa 0,0 mm 3,1 km/h (1 Bft) N 10 ° 0 min 0,000 mm 0,0 UV-I 18 W/m² 3,2 °C 4,8 km/h (1 Bft)
27.11.2016 14:33 3,8 °C 3,8 °C 96 % 1015,5 hPa 0,0 mm 2,7 km/h (1 Bft) N 10 ° 0 min 0,000 mm 0,0 UV-I 16 W/m² 3,2 °C 3,2 km/h (1 Bft)
27.11.2016 14:34 3,8 °C 3,8 °C 96 % 1015,5 hPa 0,0 mm 2,5 km/h (1 Bft) N 10 ° 0 min 0,000 mm 0,0 UV-I 14 W/m² 3,2 °C 3,2 km/h (1 Bft)
27.11.2016 14:35 3,8 °C 3,8 °C 96 % 1015,5 hPa 0,0 mm 2,4 km/h (1 Bft) N-NW 342 ° 0 min 0,000 mm 0,0 UV-I 12 W/m² 3,2 °C 4,8 km/h (1 Bft)
27.11.2016 14:36 3,7 °C 3,8 °C 96 % 1015,5 hPa 0,0 mm 4,2 km/h (1 Bft) N 360 ° 0 min 0,000 mm 0,0 UV-I 14 W/m² 3,1 °C 6,4 km/h (2 Bft)
27.11.2016 14:37 3,7 °C 3,8 °C 96 % 1015,5 hPa 0,0 mm 4,2 km/h (1 Bft) N-NO 12 ° 0 min 0,000 mm 0,0 UV-I 16 W/m² 3,1 °C 4,8 km/h (1 Bft)
27.11.2016 14:38 3,7 °C 3,8 °C 96 % 1015,5 hPa 0,0 mm 2,5 km/h (1 Bft) N-NW 327 ° 0 min 0,000 mm 0,0 UV-I 18 W/m² 3,1 °C 4,8 km/h (1 Bft)
27.11.2016 14:39 3,8 °C 3,8 °C 96 % 1015,5 hPa 0,0 mm 5,8 km/h (2 Bft) NW 317 ° 0 min 0,000 mm 0,0 UV-I 19 W/m² 3,2 °C 8,0 km/h (2 Bft)
27.11.2016 14:40 3,7 °C 3,8 °C 96 % 1015,5 hPa 0,0 mm 3,6 km/h (1 Bft) W-NW 300 ° 0 min 0,000 mm 0,0 UV-I 21 W/m² 3,1 °C 6,4 km/h (2 Bft)
27.11.2016 14:41 3,7 °C 3,7 °C 96 % 1015,5 hPa 0,0 mm 2,9 km/h (1 Bft) NW 318 ° 0 min 0,000 mm 0,0 UV-I 23 W/m² 3,1 °C 4,8 km/h (1 Bft)
27.11.2016 14:42 3,7 °C 3,7 °C 96 % 1015,5 hPa 0,0 mm 3,9 km/h (1 Bft) N 360 ° 0 min 0,000 mm 0,0 UV-I 21 W/m² 3,1 °C 4,8 km/h (1 Bft)
27.11.2016 14:43 3,7 °C 3,7 °C 96 % 1015,5 hPa 0,0 mm 4,0 km/h (1 Bft) N 355 ° 0 min 0,000 mm 0,0 UV-I 21 W/m² 3,1 °C 4,8 km/h (1 Bft)
27.11.2016 14:44 3,7 °C 3,7 °C 96 % 1015,5 hPa 0,2 mm 4,0 km/h (1 Bft) N 5 ° 0 min 0,000 mm 0,0 UV-I 23 W/m² 3,1 °C 4,8 km/h (1 Bft)
27.11.2016 14:45 3,7 °C 3,7 °C 96 % 1015,5 hPa 0,0 mm 4,6 km/h (1 Bft) N 355 ° 0 min 0,000 mm 0,0 UV-I 23 W/m² 3,1 °C 4,8 km/h (1 Bft)
27.11.2016 14:46 3,7 °C 3,7 °C 96 % 1015,5 hPa 0,0 mm 4,0 km/h (1 Bft) N-NW 329 ° 0 min 0,000 mm 0,0 UV-I 21 W/m² 3,1 °C 4,8 km/h (1 Bft)
27.11.2016 14:47 3,7 °C 3,7 °C 96 % 1015,5 hPa 0,0 mm 3,7 km/h (1 Bft) N-NW 327 ° 0 min 0,000 mm 0,0 UV-I 19 W/m² 3,1 °C 6,4 km/h (2 Bft)
27.11.2016 14:48 3,7 °C 3,7 °C 96 % 1015,5 hPa 0,0 mm 3,2 km/h (1 Bft) NW 321 ° 0 min 0,000 mm 0,0 UV-I 18 W/m² 3,1 °C 6,4 km/h (2 Bft)
27.11.2016 14:49 3,7 °C 3,7 °C 96 % 1015,5 hPa 0,0 mm 3,8 km/h (1 Bft) N-NW 332 ° 0 min 0,000 mm 0,0 UV-I 16 W/m² 3,1 °C 4,8 km/h (1 Bft)
27.11.2016 14:50 3,6 °C 3,7 °C 96 % 1015,5 hPa 0,0 mm 3,6 km/h (1 Bft) N-NW 342 ° 0 min 0,000 mm 0,0 UV-I 14 W/m² 3,0 °C 4,8 km/h (1 Bft)
27.11.2016 14:51 3,7 °C 3,7 °C 96 % 1015,6 hPa 0,0 mm 3,4 km/h (1 Bft) NW 324 ° 0 min 0,000 mm 0,0 UV-I 14 W/m² 3,1 °C 4,8 km/h (1 Bft)
27.11.2016 14:52 3,7 °C 3,7 °C 96 % 1015,6 hPa 0,0 mm 4,4 km/h (1 Bft) N-NW 331 ° 0 min 0,000 mm 0,0 UV-I 12 W/m² 3,1 °C 6,4 km/h (2 Bft)
27.11.2016 14:53 3,7 °C 3,7 °C 96 % 1015,6 hPa 0,0 mm 5,0 km/h (1 Bft) N-NW 338 ° 0 min 0,000 mm 0,0 UV-I 12 W/m² 3,1 °C 6,4 km/h (2 Bft)
27.11.2016 14:54 3,7 °C 3,7 °C 96 % 1015,7 hPa 0,0 mm 3,3 km/h (1 Bft) N 5 ° 0 min 0,000 mm 0,0 UV-I 12 W/m² 3,1 °C 4,8 km/h (1 Bft)
27.11.2016 14:55 3,7 °C 3,7 °C 96 % 1015,7 hPa 0,0 mm 3,2 km/h (1 Bft) NW 309 ° 0 min 0,000 mm 0,0 UV-I 11 W/m² 3,1 °C 4,8 km/h (1 Bft)
27.11.2016 14:56 3,6 °C 3,7 °C 96 % 1015,7 hPa 0,0 mm 2,3 km/h (1 Bft) N-NW 346 ° 0 min 0,000 mm 0,0 UV-I 9 W/m² 3,0 °C 3,2 km/h (1 Bft)
27.11.2016 14:57 3,6 °C 3,7 °C 96 % 1015,8 hPa 0,0 mm 2,7 km/h (1 Bft) N 9 ° 0 min 0,000 mm 0,0 UV-I 7 W/m² 3,0 °C 4,8 km/h (1 Bft)
27.11.2016 14:58 3,6 °C 3,6 °C 96 % 1015,8 hPa 0,0 mm 3,9 km/h (1 Bft) N-NO 25 ° 0 min 0,000 mm 0,0 UV-I 7 W/m² 3,0 °C 4,8 km/h (1 Bft)
27.11.2016 14:59 3,6 °C 3,6 °C 96 % 1015,8 hPa 0,0 mm 3,2 km/h (1 Bft) N-NW 348 ° 0 min 0,000 mm 0,0 UV-I 7 W/m² 3,0 °C 4,8 km/h (1 Bft)
27.11.2016 15:00 3,6 °C 3,6 °C 96 % 1015,8 hPa 0,0 mm 3,0 km/h (1 Bft) N-NW 348 ° 0 min 0,000 mm 0,0 UV-I 7 W/m² 3,0 °C 4,8 km/h (1 Bft)
27.11.2016 15:01 3,6 °C 3,6 °C 96 % 1015,8 hPa 0,0 mm 2,3 km/h (1 Bft) O-NO 59 ° 0 min 0,000 mm 0,0 UV-I 7 W/m² 3,0 °C 4,8 km/h (1 Bft)
27.11.2016 15:02 3,6 °C 3,6 °C 96 % 1015,9 hPa 0,0 mm 1,4 km/h (1 Bft) O-NO 59 ° 0 min 0,000 mm 0,0 UV-I 7 W/m² 3,0 °C 4,8 km/h (1 Bft)
27.11.2016 15:03 3,6 °C 3,6 °C 96 % 1015,8 hPa 0,0 mm 1,8 km/h (1 Bft) O-NO 59 ° 0 min 0,000 mm 0,0 UV-I 7 W/m² 3,0 °C 3,2 km/h (1 Bft)
27.11.2016 15:04 3,6 °C 3,6 °C 96 % 1015,8 hPa 0,0 mm 2,7 km/h (1 Bft) NO 56 ° 0 min 0,000 mm 0,0 UV-I 7 W/m² 3,0 °C 4,8 km/h (1 Bft)
27.11.2016 15:05 3,6 °C 3,6 °C 96 % 1015,8 hPa 0,0 mm 6,1 km/h (2 Bft) N-NO 24 ° 0 min 0,000 mm 0,0 UV-I 7 W/m² 3,0 °C 8,0 km/h (2 Bft)
27.11.2016 15:06 3,5 °C 3,6 °C 96 % 1015,8 hPa 0,0 mm 5,2 km/h (1 Bft) N 5 ° 0 min 0,000 mm 0,0 UV-I 7 W/m² 2,9 °C 6,4 km/h (2 Bft)
27.11.2016 15:07 3,5 °C 3,5 °C 96 % 1015,8 hPa 0,0 mm 3,3 km/h (1 Bft) N 5 ° 0 min 0,000 mm 0,0 UV-I 7 W/m² 2,9 °C 6,4 km/h (2 Bft)
27.11.2016 15:08 3,5 °C 3,5 °C 96 % 1015,8 hPa 0,0 mm 2,7 km/h (1 Bft) N 5 ° 0 min 0,000 mm 0,0 UV-I 7 W/m² 2,9 °C 4,8 km/h (1 Bft)
27.11.2016 15:09 3,5 °C 3,5 °C 96 % 1015,8 hPa 0,0 mm 1,5 km/h (1 Bft) N 5 ° 0 min 0,000 mm 0,0 UV-I 7 W/m² 2,9 °C 3,2 km/h (1 Bft)
27.11.2016 15:10 3,5 °C 3,5 °C 95 % 1015,9 hPa 0,0 mm 0,6 km/h (0 Bft) N 5 ° 0 min 0,000 mm 0,0 UV-I 7 W/m² 2,8 °C 1,6 km/h (1 Bft)
27.11.2016 15:11 3,4 °C 3,5 °C 96 % 1015,9 hPa 0,0 mm 2,1 km/h (1 Bft) NO 49 ° 0 min 0,000 mm 0,0 UV-I 7 W/m² 2,8 °C 4,8 km/h (1 Bft)
27.11.2016 15:12 3,4 °C 3,5 °C 96 % 1015,8 hPa 0,0 mm 1,7 km/h (1 Bft) NO 49 ° 0 min 0,000 mm 0,0 UV-I 7 W/m² 2,8 °C 3,2 km/h (1 Bft)
27.11.2016 15:13 3,4 °C 3,5 °C 96 % 1015,9 hPa 0,0 mm 1,8 km/h (1 Bft) NO 49 ° 0 min 0,000 mm 0,0 UV-I 9 W/m² 2,8 °C 3,2 km/h (1 Bft)
27.11.2016 15:14 3,5 °C 3,5 °C 96 % 1015,9 hPa 0,0 mm 0,9 km/h (0 Bft) NO 49 ° 0 min 0,000 mm 0,0 UV-I 7 W/m² 2,9 °C 3,2 km/h (1 Bft)
27.11.2016 15:15 3,4 °C 3,5 °C 96 % 1015,9 hPa 0,0 mm 3,2 km/h (1 Bft) N-NO 22 ° 0 min 0,000 mm 0,0 UV-I 7 W/m² 2,8 °C 4,8 km/h (1 Bft)
27.11.2016 15:16 3,4 °C 3,4 °C 96 % 1015,9 hPa 0,0 mm 3,0 km/h (1 Bft) N-NO 22 ° 0 min 0,000 mm 0,0 UV-I 7 W/m² 2,8 °C 3,2 km/h (1 Bft)
27.11.2016 15:17 3,4 °C 3,4 °C 95 % 1015,9 hPa 0,0 mm 2,2 km/h (1 Bft) N-NO 22 ° 0 min 0,000 mm 0,0 UV-I 7 W/m² 2,7 °C 3,2 km/h (1 Bft)
27.11.2016 15:18 3,4 °C 3,4 °C 95 % 1015,9 hPa 0,0 mm 2,8 km/h (1 Bft) N 355 ° 0 min 0,000 mm 0,0 UV-I 7 W/m² 2,7 °C 4,8 km/h (1 Bft)
27.11.2016 15:19 3,4 °C 3,4 °C 95 % 1015,9 hPa 0,0 mm 1,7 km/h (1 Bft) N 355 ° 0 min 0,000 mm 0,0 UV-I 7 W/m² 2,7 °C 3,2 km/h (1 Bft)
27.11.2016 15:20 3,4 °C 3,4 °C 96 % 1015,9 hPa 0,0 mm 0,7 km/h (0 Bft) N 355 ° 0 min 0,000 mm 0,0 UV-I 7 W/m² 2,8 °C 1,6 km/h (1 Bft)
27.11.2016 15:21 3,4 °C 3,4 °C 96 % 1015,9 hPa 0,0 mm 1,4 km/h (1 Bft) N 355 ° 0 min 0,000 mm 0,0 UV-I 7 W/m² 2,8 °C 3,2 km/h (1 Bft)
27.11.2016 15:22 3,4 °C 3,4 °C 96 % 1015,9 hPa 0,0 mm 2,2 km/h (1 Bft) NW 320 ° 0 min 0,000 mm 0,0 UV-I 7 W/m² 2,8 °C 3,2 km/h (1 Bft)
27.11.2016 15:23 3,4 °C 3,4 °C 95 % 1015,9 hPa 0,0 mm 3,4 km/h (1 Bft) NW 322 ° 0 min 0,000 mm 0,0 UV-I 7 W/m² 2,7 °C 4,8 km/h (1 Bft)
27.11.2016 15:24 3,3 °C 3,4 °C 95 % 1015,9 hPa 0,0 mm 3,2 km/h (1 Bft) NW 322 ° 0 min 0,000 mm 0,0 UV-I 7 W/m² 2,6 °C 4,8 km/h (1 Bft)
27.11.2016 15:25 3,3 °C 3,4 °C 95 % 1015,9 hPa 0,0 mm 1,9 km/h (1 Bft) NW 322 ° 0 min 0,000 mm 0,0 UV-I 5 W/m² 2,6 °C 3,2 km/h (1 Bft)
27.11.2016 15:26 3,4 °C 3,4 °C 96 % 1015,9 hPa 0,0 mm 1,5 km/h (1 Bft) NW 322 ° 0 min 0,000 mm 0,0 UV-I 5 W/m² 2,8 °C 3,2 km/h (1 Bft)
27.11.2016 15:27 3,3 °C 3,4 °C 96 % 1015,9 hPa 0,0 mm 2,7 km/h (1 Bft) NW 322 ° 0 min 0,000 mm 0,0 UV-I 5 W/m² 2,7 °C 3,2 km/h (1 Bft)
27.11.2016 15:28 3,4 °C 3,4 °C 96 % 1015,9 hPa 0,0 mm 1,2 km/h (1 Bft) NW 322 ° 0 min 0,000 mm 0,0 UV-I 5 W/m² 2,8 °C 3,2 km/h (1 Bft)
27.11.2016 15:29 3,3 °C 3,4 °C 96 % 1015,9 hPa 0,0 mm 2,0 km/h (1 Bft) NW 322 ° 0 min 0,000 mm 0,0 UV-I 5 W/m² 2,7 °C 3,2 km/h (1 Bft)
27.11.2016 15:30 3,3 °C 3,3 °C 96 % 1015,9 hPa 0,0 mm 1,9 km/h (1 Bft) NW 322 ° 0 min 0,000 mm 0,0 UV-I 5 W/m² 2,7 °C 3,2 km/h (1 Bft)
27.11.2016 15:31 3,3 °C 3,3 °C 96 % 1016,0 hPa 0,0 mm 1,1 km/h (1 Bft) NW 322 ° 0 min 0,000 mm 0,0 UV-I 5 W/m² 2,7 °C 1,6 km/h (1 Bft)
27.11.2016 15:32 3,3 °C 3,3 °C 96 % 1016,0 hPa 0,0 mm 1,9 km/h (1 Bft) NW 322 ° 0 min 0,000 mm 0,0 UV-I 5 W/m² 2,7 °C 3,2 km/h (1 Bft)
27.11.2016 15:33 3,3 °C 3,3 °C 96 % 1015,9 hPa 0,0 mm 0,9 km/h (0 Bft) NW 322 ° 0 min 0,000 mm 0,0 UV-I 5 W/m² 2,7 °C 1,6 km/h (1 Bft)
27.11.2016 15:34 3,3 °C 3,3 °C 96 % 1016,0 hPa 0,0 mm 1,1 km/h (1 Bft) NW 322 ° 0 min 0,000 mm 0,0 UV-I 5 W/m² 2,7 °C 3,2 km/h (1 Bft)
27.11.2016 15:35 3,3 °C 3,3 °C 96 % 1015,9 hPa 0,0 mm 0,7 km/h (0 Bft) NW 322 ° 0 min 0,000 mm 0,0 UV-I 5 W/m² 2,7 °C 1,6 km/h (1 Bft)
27.11.2016 15:36 3,3 °C 3,3 °C 96 % 1015,9 hPa 0,0 mm 1,4 km/h (1 Bft) NW 322 ° 0 min 0,000 mm 0,0 UV-I 5 W/m² 2,7 °C 1,6 km/h (1 Bft)
27.11.2016 15:37 3,3 °C 3,3 °C 96 % 1016,0 hPa 0,0 mm 2,7 km/h (1 Bft) N-NW 346 ° 0 min 0,000 mm 0,0 UV-I 5 W/m² 2,7 °C 4,8 km/h (1 Bft)
27.11.2016 15:38 3,3 °C 3,3 °C 96 % 1016,0 hPa 0,0 mm 3,4 km/h (1 Bft) N-NO 26 ° 0 min 0,000 mm 0,0 UV-I 5 W/m² 2,7 °C 4,8 km/h (1 Bft)
27.11.2016 15:39 3,3 °C 3,3 °C 96 % 1016,0 hPa 0,0 mm 4,3 km/h (1 Bft) NO 40 ° 0 min 0,000 mm 0,0 UV-I 5 W/m² 2,7 °C 6,4 km/h (2 Bft)
27.11.2016 15:40 3,3 °C 3,3 °C 96 % 1016,0 hPa 0,0 mm 1,9 km/h (1 Bft) NO 40 ° 0 min 0,000 mm 0,0 UV-I 5 W/m² 2,7 °C 4,8 km/h (1 Bft)
27.11.2016 15:41 3,3 °C 3,3 °C 96 % 1015,9 hPa 0,0 mm 0,7 km/h (0 Bft) NO 40 ° 0 min 0,000 mm 0,0 UV-I 5 W/m² 2,7 °C 1,6 km/h (1 Bft)
27.11.2016 15:42 3,3 °C 3,3 °C 96 % 1016,0 hPa 0,0 mm 0,3 km/h (0 Bft) NO 40 ° 0 min 0,000 mm 0,0 UV-I 0 W/m² 2,7 °C 1,6 km/h (1 Bft)
27.11.2016 15:43 3,3 °C 3,3 °C 96 % 1015,9 hPa 0,2 mm 2,0 km/h (1 Bft) NO 40 ° 0 min 0,000 mm 0,0 UV-I 0 W/m² 2,7 °C 3,2 km/h (1 Bft)
27.11.2016 15:44 3,3 °C 3,3 °C 96 % 1016,0 hPa 0,0 mm 1,6 km/h (1 Bft) NO 40 ° 0 min 0,000 mm 0,0 UV-I 0 W/m² 2,7 °C 3,2 km/h (1 Bft)
27.11.2016 15:45 3,3 °C 3,3 °C 96 % 1016,0 hPa 0,0 mm 2,4 km/h (1 Bft) NO 40 ° 0 min 0,000 mm 0,0 UV-I 0 W/m² 2,7 °C 3,2 km/h (1 Bft)
27.11.2016 15:46 3,3 °C 3,3 °C 96 % 1016,0 hPa 0,0 mm 2,0 km/h (1 Bft) NO 35 ° 0 min 0,000 mm 0,0 UV-I 0 W/m² 2,7 °C 3,2 km/h (1 Bft)
27.11.2016 15:47 3,3 °C 3,3 °C 96 % 1016,0 hPa 0,0 mm 2,1 km/h (1 Bft) NO 35 ° 0 min 0,000 mm 0,0 UV-I 0 W/m² 2,7 °C 3,2 km/h (1 Bft)
27.11.2016 15:48 3,3 °C 3,3 °C 96 % 1015,9 hPa 0,0 mm 4,0 km/h (1 Bft) N-NW 342 ° 0 min 0,000 mm 0,0 UV-I 0 W/m² 2,7 °C 4,8 km/h (1 Bft)
27.11.2016 15:49 3,3 °C 3,3 °C 96 % 1016,0 hPa 0,0 mm 3,4 km/h (1 Bft) N-NW 342 ° 0 min 0,000 mm 0,0 UV-I 0 W/m² 2,7 °C 4,8 km/h (1 Bft)
27.11.2016 15:50 3,3 °C 3,3 °C 96 % 1016,0 hPa 0,0 mm 3,7 km/h (1 Bft) NW 313 ° 0 min 0,000 mm 0,0 UV-I 0 W/m² 2,7 °C 4,8 km/h (1 Bft)
27.11.2016 15:51 3,3 °C 3,3 °C 96 % 1015,9 hPa 0,0 mm 1,4 km/h (1 Bft) NW 313 ° 0 min 0,000 mm 0,0 UV-I 0 W/m² 2,7 °C 1,6 km/h (1 Bft)
27.11.2016 15:52 3,3 °C 3,3 °C 96 % 1016,0 hPa 0,0 mm 0,9 km/h (0 Bft) NW 313 ° 0 min 0,000 mm 0,0 UV-I 0 W/m² 2,7 °C 4,8 km/h (1 Bft)
27.11.2016 15:53 3,3 °C 3,3 °C 96 % 1016,0 hPa 0,0 mm 3,2 km/h (1 Bft) NW 313 ° 0 min 0,000 mm 0,0 UV-I 0 W/m² 2,7 °C 4,8 km/h (1 Bft)
27.11.2016 15:54 3,3 °C 3,3 °C 96 % 1016,0 hPa 0,0 mm 2,2 km/h (1 Bft) NW 313 ° 0 min 0,000 mm 0,0 UV-I 0 W/m² 2,7 °C 3,2 km/h (1 Bft)
27.11.2016 15:55 3,3 °C 3,3 °C 96 % 1016,0 hPa 0,0 mm 1,5 km/h (1 Bft) NW 313 ° 0 min 0,000 mm 0,0 UV-I 0 W/m² 2,7 °C 3,2 km/h (1 Bft)
27.11.2016 15:56 3,3 °C 3,3 °C 96 % 1016,0 hPa 0,0 mm 1,9 km/h (1 Bft) NW 313 ° 0 min 0,000 mm 0,0 UV-I 0 W/m² 2,7 °C 3,2 km/h (1 Bft)
27.11.2016 15:57 3,3 °C 3,3 °C 96 % 1016,0 hPa 0,0 mm 1,3 km/h (1 Bft) NW 313 ° 0 min 0,000 mm 0,0 UV-I 0 W/m² 2,7 °C 3,2 km/h (1 Bft)
27.11.2016 15:58 3,3 °C 3,3 °C 96 % 1015,9 hPa 0,0 mm 1,3 km/h (1 Bft) NW 313 ° 0 min 0,000 mm 0,0 UV-I 0 W/m² 2,7 °C 1,6 km/h (1 Bft)
27.11.2016 15:59 3,3 °C 3,3 °C 96 % 1016,0 hPa 0,0 mm 1,3 km/h (1 Bft) NW 313 ° 0 min 0,000 mm 0,0 UV-I 0 W/m² 2,7 °C 1,6 km/h (1 Bft)
27.11.2016 16:00 3,3 °C 3,3 °C 96 % 1015,9 hPa 0,0 mm 0,6 km/h (0 Bft) NW 313 ° 0 min 0,000 mm 0,0 UV-I 0 W/m² 2,7 °C 1,6 km/h (1 Bft)
27.11.2016 16:01 3,3 °C 3,3 °C 96 % 1015,9 hPa 0,0 mm 0,8 km/h (0 Bft) NW 313 ° 0 min 0,000 mm 0,0 UV-I 0 W/m² 2,7 °C 1,6 km/h (1 Bft)
27.11.2016 16:02 3,2 °C 3,3 °C 96 % 1015,9 hPa 0,0 mm 1,7 km/h (1 Bft) NW 313 ° 0 min 0,000 mm 0,0 UV-I 0 W/m² 2,6 °C 3,2 km/h (1 Bft)
27.11.2016 16:03 3,3 °C 3,3 °C 96 % 1015,9 hPa 0,0 mm 1,6 km/h (1 Bft) NW 313 ° 0 min 0,000 mm 0,0 UV-I 0 W/m² 2,7 °C 3,2 km/h (1 Bft)
27.11.2016 16:04 3,3 °C 3,3 °C 96 % 1015,9 hPa 0,0 mm 1,5 km/h (1 Bft) NW 313 ° 0 min 0,000 mm 0,0 UV-I 0 W/m² 2,7 °C 3,2 km/h (1 Bft)
27.11.2016 16:05 3,3 °C 3,3 °C 96 % 1015,9 hPa 0,0 mm 0,3 km/h (0 Bft) NW 313 ° 0 min 0,000 mm 0,0 UV-I 0 W/m² 2,7 °C 1,6 km/h (1 Bft)
27.11.2016 16:06 3,2 °C 3,3 °C 96 % 1015,9 hPa 0,0 mm 0,0 km/h (0 Bft) NW 313 ° 0 min 0,000 mm 0,0 UV-I 0 W/m² 2,6 °C 0,0 km/h (0 Bft)
27.11.2016 16:07 3,2 °C 3,3 °C 96 % 1015,9 hPa 0,0 mm 0,0 km/h (0 Bft) NW 313 ° 0 min 0,000 mm 0,0 UV-I 0 W/m² 2,6 °C 0,0 km/h (0 Bft)
27.11.2016 16:08 3,2 °C 3,2 °C 96 % 1015,9 hPa 0,0 mm 0,0 km/h (0 Bft) NW 313 ° 0 min 0,000 mm 0,0 UV-I 0 W/m² 2,6 °C 0,0 km/h (0 Bft)
27.11.2016 16:09 3,2 °C 3,3 °C 96 % 1015,9 hPa 0,0 mm 0,0 km/h (0 Bft) NW 313 ° 0 min 0,000 mm 0,0 UV-I 0 W/m² 2,6 °C 0,0 km/h (0 Bft)
27.11.2016 16:10 3,2 °C 3,2 °C 96 % 1015,9 hPa 0,0 mm 0,7 km/h (0 Bft) NW 313 ° 0 min 0,000 mm 0,0 UV-I 0 W/m² 2,6 °C 1,6 km/h (1 Bft)
27.11.2016 16:11 3,2 °C 3,2 °C 96 % 1015,9 hPa 0,0 mm 0,0 km/h (0 Bft) NW 313 ° 0 min 0,000 mm 0,0 UV-I 0 W/m² 2,6 °C 0,0 km/h (0 Bft)
27.11.2016 16:12 3,2 °C 3,2 °C 96 % 1015,9 hPa 0,0 mm 0,0 km/h (0 Bft) NW 313 ° 0 min 0,000 mm 0,0 UV-I 0 W/m² 2,6 °C 0,0 km/h (0 Bft)
27.11.2016 16:13 3,2 °C 3,2 °C 96 % 1016,0 hPa 0,0 mm 0,6 km/h (0 Bft) NW 313 ° 0 min 0,000 mm 0,0 UV-I 0 W/m² 2,6 °C 1,6 km/h (1 Bft)
27.11.2016 16:14 3,2 °C 3,2 °C 96 % 1016,0 hPa 0,0 mm 0,0 km/h (0 Bft) NW 313 ° 0 min 0,000 mm 0,0 UV-I 0 W/m² 2,6 °C 0,0 km/h (0 Bft)
27.11.2016 16:15 3,2 °C 3,2 °C 96 % 1016,0 hPa 0,0 mm 1,3 km/h (1 Bft) NW 313 ° 0 min 0,000 mm 0,0 UV-I 0 W/m² 2,6 °C 1,6 km/h (1 Bft)
27.11.2016 16:16 3,2 °C 3,2 °C 96 % 1016,0 hPa 0,0 mm 1,1 km/h (1 Bft) NW 313 ° 0 min 0,000 mm 0,0 UV-I 0 W/m² 2,6 °C 1,6 km/h (1 Bft)
27.11.2016 16:17 3,2 °C 3,2 °C 96 % 1016,0 hPa 0,0 mm 0,1 km/h (0 Bft) NW 313 ° 0 min 0,000 mm 0,0 UV-I 0 W/m² 2,6 °C 1,6 km/h (1 Bft)
27.11.2016 16:18 3,2 °C 3,2 °C 96 % 1016,0 hPa 0,0 mm 0,0 km/h (0 Bft) NW 313 ° 0 min 0,000 mm 0,0 UV-I 0 W/m² 2,6 °C 0,0 km/h (0 Bft)
27.11.2016 16:19 3,2 °C 3,2 °C 96 % 1016,1 hPa 0,0 mm 0,2 km/h (0 Bft) NW 313 ° 0 min 0,000 mm 0,0 UV-I 0 W/m² 2,6 °C 1,6 km/h (1 Bft)
27.11.2016 16:20 3,2 °C 3,2 °C 96 % 1016,1 hPa 0,0 mm 0,8 km/h (0 Bft) NW 313 ° 0 min 0,000 mm 0,0 UV-I 0 W/m² 2,6 °C 1,6 km/h (1 Bft)
27.11.2016 16:21 3,2 °C 3,2 °C 96 % 1016,0 hPa 0,0 mm 0,1 km/h (0 Bft) NW 313 ° 0 min 0,000 mm 0,0 UV-I 0 W/m² 2,6 °C 1,6 km/h (1 Bft)
27.11.2016 16:22 3,2 °C 3,2 °C 96 % 1016,0 hPa 0,0 mm 0,4 km/h (0 Bft) NW 313 ° 0 min 0,000 mm 0,0 UV-I 0 W/m² 2,6 °C 1,6 km/h (1 Bft)
27.11.2016 16:23 3,2 °C 3,2 °C 96 % 1016,0 hPa 0,0 mm 0,0 km/h (0 Bft) NW 313 ° 0 min 0,000 mm 0,0 UV-I 0 W/m² 2,6 °C 0,0 km/h (0 Bft)
27.11.2016 16:24 3,2 °C 3,2 °C 96 % 1016,1 hPa 0,0 mm 0,0 km/h (0 Bft) NW 313 ° 0 min 0,000 mm 0,0 UV-I 0 W/m² 2,6 °C 0,0 km/h (0 Bft)
27.11.2016 16:25 3,2 °C 3,2 °C 96 % 1016,0 hPa 0,0 mm 0,3 km/h (0 Bft) NW 313 ° 0 min 0,000 mm 0,0 UV-I 0 W/m² 2,6 °C 1,6 km/h (1 Bft)
27.11.2016 16:26 3,2 °C 3,2 °C 96 % 1016,1 hPa 0,0 mm 1,5 km/h (1 Bft) NW 313 ° 0 min 0,000 mm 0,0 UV-I 0 W/m² 2,6 °C 3,2 km/h (1 Bft)
27.11.2016 16:27 3,2 °C 3,2 °C 96 % 1016,1 hPa 0,0 mm 1,3 km/h (1 Bft) NW 313 ° 0 min 0,000 mm 0,0 UV-I 0 W/m² 2,6 °C 3,2 km/h (1 Bft)
27.11.2016 16:28 3,2 °C 3,2 °C 96 % 1016,0 hPa 0,0 mm 1,5 km/h (1 Bft) NW 313 ° 0 min 0,000 mm 0,0 UV-I 0 W/m² 2,6 °C 1,6 km/h (1 Bft)
27.11.2016 16:29 3,1 °C 3,2 °C 96 % 1016,0 hPa 0,0 mm 1,7 km/h (1 Bft) NW 313 ° 0 min 0,000 mm 0,0 UV-I 0 W/m² 2,5 °C 3,2 km/h (1 Bft)
27.11.2016 16:30 3,2 °C 3,2 °C 96 % 1016,1 hPa 0,0 mm 1,3 km/h (1 Bft) NW 313 ° 0 min 0,000 mm 0,0 UV-I 0 W/m² 2,6 °C 1,6 km/h (1 Bft)
27.11.2016 16:31 3,1 °C 3,2 °C 96 % 1016,1 hPa 0,0 mm 1,5 km/h (1 Bft) NW 313 ° 0 min 0,000 mm 0,0 UV-I 0 W/m² 2,5 °C 3,2 km/h (1 Bft)
27.11.2016 16:32 3,2 °C 3,2 °C 96 % 1016,0 hPa 0,0 mm 1,1 km/h (1 Bft) NW 312 ° 0 min 0,000 mm 0,0 UV-I 0 W/m² 2,6 °C 3,2 km/h (1 Bft)
27.11.2016 16:33 3,2 °C 3,2 °C 96 % 1016,0 hPa 0,0 mm 2,2 km/h (1 Bft) NW 312 ° 0 min 0,000 mm 0,0 UV-I 0 W/m² 2,6 °C 3,2 km/h (1 Bft)
27.11.2016 16:34 3,1 °C 3,2 °C 96 % 1016,1 hPa 0,0 mm 0,7 km/h (0 Bft) NW 312 ° 0 min 0,000 mm 0,0 UV-I 0 W/m² 2,5 °C 1,6 km/h (1 Bft)
27.11.2016 16:35 3,2 °C 3,2 °C 96 % 1016,1 hPa 0,0 mm 1,7 km/h (1 Bft) NW 312 ° 0 min 0,000 mm 0,0 UV-I 0 W/m² 2,6 °C 3,2 km/h (1 Bft)
27.11.2016 16:36 3,1 °C 3,2 °C 96 % 1016,1 hPa 0,0 mm 0,9 km/h (0 Bft) NW 312 ° 0 min 0,000 mm 0,0 UV-I 0 W/m² 2,5 °C 1,6 km/h (1 Bft)
27.11.2016 16:37 3,1 °C 3,2 °C 96 % 1016,0 hPa 0,0 mm 0,0 km/h (0 Bft) NW 312 ° 0 min 0,000 mm 0,0 UV-I 0 W/m² 2,5 °C 0,0 km/h (0 Bft)
27.11.2016 16:38 3,1 °C 3,2 °C 96 % 1016,1 hPa 0,0 mm 0,0 km/h (0 Bft) NW 312 ° 0 min 0,000 mm 0,0 UV-I 0 W/m² 2,5 °C 0,0 km/h (0 Bft)
27.11.2016 16:39 3,1 °C 3,1 °C 96 % 1016,1 hPa 0,0 mm 0,0 km/h (0 Bft) NW 312 ° 0 min 0,000 mm 0,0 UV-I 0 W/m² 2,5 °C 0,0 km/h (0 Bft)
27.11.2016 16:40 3,1 °C 3,2 °C 96 % 1016,1 hPa 0,0 mm 0,0 km/h (0 Bft) NW 312 ° 0 min 0,000 mm 0,0 UV-I 0 W/m² 2,5 °C 0,0 km/h (0 Bft)
27.11.2016 16:41 3,1 °C 3,1 °C 96 % 1016,1 hPa 0,0 mm 0,7 km/h (0 Bft) NW 312 ° 0 min 0,000 mm 0,0 UV-I 0 W/m² 2,5 °C 1,6 km/h (1 Bft)
27.11.2016 16:42 3,1 °C 3,1 °C 96 % 1016,1 hPa 0,0 mm 0,3 km/h (0 Bft) NW 312 ° 0 min 0,000 mm 0,0 UV-I 0 W/m² 2,5 °C 1,6 km/h (1 Bft)
27.11.2016 16:43 3,1 °C 3,1 °C 96 % 1016,1 hPa 0,0 mm 0,3 km/h (0 Bft) NW 312 ° 0 min 0,000 mm 0,0 UV-I 0 W/m² 2,5 °C 1,6 km/h (1 Bft)
27.11.2016 16:44 3,1 °C 3,1 °C 96 % 1016,0 hPa 0,0 mm 0,7 km/h (0 Bft) NW 312 ° 0 min 0,000 mm 0,0 UV-I 0 W/m² 2,5 °C 1,6 km/h (1 Bft)
27.11.2016 16:45 3,1 °C 3,1 °C 96 % 1016,1 hPa 0,0 mm 0,1 km/h (0 Bft) NW 312 ° 0 min 0,000 mm 0,0 UV-I 0 W/m² 2,5 °C 1,6 km/h (1 Bft)
27.11.2016 16:46 3,1 °C 3,1 °C 96 % 1016,1 hPa 0,0 mm 0,3 km/h (0 Bft) NW 312 ° 0 min 0,000 mm 0,0 UV-I 0 W/m² 2,5 °C 1,6 km/h (1 Bft)
27.11.2016 16:47 3,1 °C 3,1 °C 96 % 1016,1 hPa 0,0 mm 0,0 km/h (0 Bft) NW 312 ° 0 min 0,000 mm 0,0 UV-I 0 W/m² 2,5 °C 0,0 km/h (0 Bft)
27.11.2016 16:48 3,1 °C 3,1 °C 96 % 1016,1 hPa 0,0 mm 0,3 km/h (0 Bft) NW 312 ° 0 min 0,000 mm 0,0 UV-I 0 W/m² 2,5 °C 1,6 km/h (1 Bft)
27.11.2016 16:49 3,1 °C 3,1 °C 96 % 1016,1 hPa 0,0 mm 0,4 km/h (0 Bft) NW 312 ° 0 min 0,000 mm 0,0 UV-I 0 W/m² 2,5 °C 1,6 km/h (1 Bft)
27.11.2016 16:50 3,1 °C 3,1 °C 96 % 1016,1 hPa 0,0 mm 0,1 km/h (0 Bft) NW 312 ° 0 min 0,000 mm 0,0 UV-I 0 W/m² 2,5 °C 1,6 km/h (1 Bft)
27.11.2016 16:51 3,1 °C 3,1 °C 96 % 1016,1 hPa 0,0 mm 0,0 km/h (0 Bft) NW 312 ° 0 min 0,000 mm 0,0 UV-I 0 W/m² 2,5 °C 0,0 km/h (0 Bft)
27.11.2016 16:52 3,1 °C 3,1 °C 96 % 1016,1 hPa 0,0 mm 0,6 km/h (0 Bft) NW 312 ° 0 min 0,000 mm 0,0 UV-I 0 W/m² 2,5 °C 1,6 km/h (1 Bft)
27.11.2016 16:53 3,1 °C 3,1 °C 96 % 1016,1 hPa 0,0 mm 1,8 km/h (1 Bft) NW 312 ° 0 min 0,000 mm 0,0 UV-I 0 W/m² 2,5 °C 3,2 km/h (1 Bft)
27.11.2016 16:54 3,1 °C 3,1 °C 96 % 1016,2 hPa 0,0 mm 0,9 km/h (0 Bft) NW 312 ° 0 min 0,000 mm 0,0 UV-I 0 W/m² 2,5 °C 1,6 km/h (1 Bft)
27.11.2016 16:55 3,1 °C 3,1 °C 96 % 1016,1 hPa 0,0 mm 0,0 km/h (0 Bft) NW 312 ° 0 min 0,000 mm 0,0 UV-I 0 W/m² 2,5 °C 0,0 km/h (0 Bft)
27.11.2016 16:56 3,1 °C 3,1 °C 96 % 1016,2 hPa 0,0 mm 0,5 km/h (0 Bft) NW 312 ° 0 min 0,000 mm 0,0 UV-I 0 W/m² 2,5 °C 1,6 km/h (1 Bft)
27.11.2016 16:57 3,1 °C 3,1 °C 96 % 1016,1 hPa 0,0 mm 0,1 km/h (0 Bft) NW 312 ° 0 min 0,000 mm 0,0 UV-I 0 W/m² 2,5 °C 1,6 km/h (1 Bft)
27.11.2016 16:58 3,1 °C 3,1 °C 96 % 1016,1 hPa 0,0 mm 0,1 km/h (0 Bft) NW 312 ° 0 min 0,000 mm 0,0 UV-I 0 W/m² 2,5 °C 1,6 km/h (1 Bft)
27.11.2016 16:59 3,1 °C 3,1 °C 96 % 1016,1 hPa 0,0 mm 0,0 km/h (0 Bft) NW 312 ° 0 min 0,000 mm 0,0 UV-I 0 W/m² 2,5 °C 0,0 km/h (0 Bft)
27.11.2016 17:00 3,1 °C 3,1 °C 96 % 1016,2 hPa 0,0 mm 0,0 km/h (0 Bft) NW 312 ° 0 min 0,000 mm 0,0 UV-I 0 W/m² 2,5 °C 0,0 km/h (0 Bft)
27.11.2016 17:01 3,1 °C 3,1 °C 96 % 1016,2 hPa 0,0 mm 0,0 km/h (0 Bft) NW 312 ° 0 min 0,000 mm 0,0 UV-I 0 W/m² 2,5 °C 0,0 km/h (0 Bft)
27.11.2016 17:02 3,1 °C 3,1 °C 96 % 1016,2 hPa 0,0 mm 0,0 km/h (0 Bft) NW 312 ° 0 min 0,000 mm 0,0 UV-I 0 W/m² 2,5 °C 0,0 km/h (0 Bft)
27.11.2016 17:03 3,1 °C 3,1 °C 96 % 1016,2 hPa 0,0 mm 0,0 km/h (0 Bft) NW 312 ° 0 min 0,000 mm 0,0 UV-I 0 W/m² 2,5 °C 0,0 km/h (0 Bft)
27.11.2016 17:04 3,1 °C 3,1 °C 96 % 1016,2 hPa 0,0 mm 0,0 km/h (0 Bft) NW 312 ° 0 min 0,000 mm 0,0 UV-I 0 W/m² 2,5 °C 0,0 km/h (0 Bft)
27.11.2016 17:05 3,1 °C 3,1 °C 96 % 1016,2 hPa 0,0 mm 0,0 km/h (0 Bft) NW 312 ° 0 min 0,000 mm 0,0 UV-I 0 W/m² 2,5 °C 0,0 km/h (0 Bft)
27.11.2016 17:06 3,1 °C 3,1 °C 96 % 1016,2 hPa 0,0 mm 0,0 km/h (0 Bft) NW 312 ° 0 min 0,000 mm 0,0 UV-I 0 W/m² 2,5 °C 0,0 km/h (0 Bft)
27.11.2016 17:07 3,1 °C 3,1 °C 96 % 1016,3 hPa 0,0 mm 0,0 km/h (0 Bft) NW 312 ° 0 min 0,000 mm 0,0 UV-I 0 W/m² 2,5 °C 0,0 km/h (0 Bft)
27.11.2016 17:08 3,1 °C 3,1 °C 96 % 1016,3 hPa 0,2 mm 0,0 km/h (0 Bft) NW 312 ° 0 min 0,000 mm 0,0 UV-I 0 W/m² 2,5 °C 0,0 km/h (0 Bft)
27.11.2016 17:09 3,1 °C 3,1 °C 96 % 1016,3 hPa 0,0 mm 0,0 km/h (0 Bft) NW 312 ° 0 min 0,000 mm 0,0 UV-I 0 W/m² 2,5 °C 0,0 km/h (0 Bft)
27.11.2016 17:10 3,1 °C 3,1 °C 96 % 1016,3 hPa 0,0 mm 0,0 km/h (0 Bft) NW 312 ° 0 min 0,000 mm 0,0 UV-I 0 W/m² 2,5 °C 0,0 km/h (0 Bft)
27.11.2016 17:11 3,1 °C 3,1 °C 96 % 1016,4 hPa 0,0 mm 0,0 km/h (0 Bft) NW 312 ° 0 min 0,000 mm 0,0 UV-I 0 W/m² 2,5 °C 0,0 km/h (0 Bft)
27.11.2016 17:12 3,1 °C 3,1 °C 96 % 1016,3 hPa 0,0 mm 0,0 km/h (0 Bft) NW 312 ° 0 min 0,000 mm 0,0 UV-I 0 W/m² 2,5 °C 0,0 km/h (0 Bft)
27.11.2016 17:13 3,1 °C 3,1 °C 96 % 1016,4 hPa 0,0 mm 0,0 km/h (0 Bft) NW 312 ° 0 min 0,000 mm 0,0 UV-I 0 W/m² 2,5 °C 0,0 km/h (0 Bft)
27.11.2016 17:14 3,1 °C 3,1 °C 96 % 1016,4 hPa 0,0 mm 0,0 km/h (0 Bft) NW 312 ° 0 min 0,000 mm 0,0 UV-I 0 W/m² 2,5 °C 0,0 km/h (0 Bft)
27.11.2016 17:15 3,1 °C 3,1 °C 96 % 1016,3 hPa 0,0 mm 0,0 km/h (0 Bft) NW 312 ° 0 min 0,000 mm 0,0 UV-I 0 W/m² 2,5 °C 0,0 km/h (0 Bft)
27.11.2016 17:16 3,1 °C 3,1 °C 96 % 1016,3 hPa 0,0 mm 0,1 km/h (0 Bft) NW 312 ° 0 min 0,000 mm 0,0 UV-I 0 W/m² 2,5 °C 1,6 km/h (1 Bft)
27.11.2016 17:17 3,1 °C 3,1 °C 96 % 1016,3 hPa 0,0 mm 0,2 km/h (0 Bft) NW 312 ° 0 min 0,000 mm 0,0 UV-I 0 W/m² 2,5 °C 1,6 km/h (1 Bft)
27.11.2016 17:18 3,1 °C 3,1 °C 96 % 1016,4 hPa 0,0 mm 0,0 km/h (0 Bft) NW 312 ° 0 min 0,000 mm 0,0 UV-I 0 W/m² 2,5 °C 0,0 km/h (0 Bft)
27.11.2016 17:19 3,1 °C 3,1 °C 96 % 1016,4 hPa 0,0 mm 0,0 km/h (0 Bft) NW 312 ° 0 min 0,000 mm 0,0 UV-I 0 W/m² 2,5 °C 0,0 km/h (0 Bft)
27.11.2016 17:20 3,1 °C 3,1 °C 96 % 1016,4 hPa 0,0 mm 0,0 km/h (0 Bft) NW 312 ° 0 min 0,000 mm 0,0 UV-I 0 W/m² 2,5 °C 0,0 km/h (0 Bft)
27.11.2016 17:21 3,1 °C 3,1 °C 96 % 1016,4 hPa 0,0 mm 0,0 km/h (0 Bft) NW 312 ° 0 min 0,000 mm 0,0 UV-I 0 W/m² 2,5 °C 0,0 km/h (0 Bft)
27.11.2016 17:22 3,1 °C 3,1 °C 96 % 1016,4 hPa 0,0 mm 0,0 km/h (0 Bft) NW 312 ° 0 min 0,000 mm 0,0 UV-I 0 W/m² 2,5 °C 0,0 km/h (0 Bft)
27.11.2016 17:23 3,1 °C 3,1 °C 96 % 1016,4 hPa 0,0 mm 0,0 km/h (0 Bft) NW 312 ° 0 min 0,000 mm 0,0 UV-I 0 W/m² 2,5 °C 0,0 km/h (0 Bft)
27.11.2016 17:24 3,1 °C 3,1 °C 96 % 1016,4 hPa 0,0 mm 0,0 km/h (0 Bft) NW 312 ° 0 min 0,000 mm 0,0 UV-I 0 W/m² 2,5 °C 0,0 km/h (0 Bft)
27.11.2016 17:25 3,0 °C 3,1 °C 96 % 1016,4 hPa 0,0 mm 0,0 km/h (0 Bft) NW 312 ° 0 min 0,000 mm 0,0 UV-I 0 W/m² 2,4 °C 0,0 km/h (0 Bft)
27.11.2016 17:26 3,1 °C 3,1 °C 96 % 1016,4 hPa 0,0 mm 0,0 km/h (0 Bft) NW 312 ° 0 min 0,000 mm 0,0 UV-I 0 W/m² 2,5 °C 0,0 km/h (0 Bft)
27.11.2016 17:27 3,1 °C 3,1 °C 96 % 1016,4 hPa 0,0 mm 0,0 km/h (0 Bft) NW 312 ° 0 min 0,000 mm 0,0 UV-I 0 W/m² 2,5 °C 0,0 km/h (0 Bft)
27.11.2016 17:28 3,1 °C 3,1 °C 96 % 1016,4 hPa 0,0 mm 0,0 km/h (0 Bft) NW 312 ° 0 min 0,000 mm 0,0 UV-I 0 W/m² 2,5 °C 0,0 km/h (0 Bft)
27.11.2016 17:29 3,1 °C 3,1 °C 96 % 1016,4 hPa 0,0 mm 0,0 km/h (0 Bft) NW 312 ° 0 min 0,000 mm 0,0 UV-I 0 W/m² 2,5 °C 0,0 km/h (0 Bft)
27.11.2016 17:30 3,1 °C 3,1 °C 96 % 1016,4 hPa 0,0 mm 0,0 km/h (0 Bft) NW 312 ° 0 min 0,000 mm 0,0 UV-I 0 W/m² 2,5 °C 0,0 km/h (0 Bft)
27.11.2016 17:31 3,1 °C 3,1 °C 96 % 1016,5 hPa 0,0 mm 0,0 km/h (0 Bft) NW 312 ° 0 min 0,000 mm 0,0 UV-I 0 W/m² 2,5 °C 0,0 km/h (0 Bft)
27.11.2016 17:32 3,1 °C 3,1 °C 96 % 1016,5 hPa 0,0 mm 0,3 km/h (0 Bft) NW 312 ° 0 min 0,000 mm 0,0 UV-I 0 W/m² 2,5 °C 1,6 km/h (1 Bft)
27.11.2016 17:33 3,1 °C 3,1 °C 96 % 1016,5 hPa 0,0 mm 0,5 km/h (0 Bft) NW 312 ° 0 min 0,000 mm 0,0 UV-I 0 W/m² 2,5 °C 1,6 km/h (1 Bft)
27.11.2016 17:34 3,1 °C 3,1 °C 96 % 1016,4 hPa 0,0 mm 0,4 km/h (0 Bft) NW 312 ° 0 min 0,000 mm 0,0 UV-I 0 W/m² 2,5 °C 1,6 km/h (1 Bft)
27.11.2016 17:35 3,1 °C 3,1 °C 96 % 1016,5 hPa 0,0 mm 0,7 km/h (0 Bft) NW 312 ° 0 min 0,000 mm 0,0 UV-I 0 W/m² 2,5 °C 1,6 km/h (1 Bft)
27.11.2016 17:36 3,1 °C 3,1 °C 96 % 1016,5 hPa 0,0 mm 1,4 km/h (1 Bft) NW 312 ° 0 min 0,000 mm 0,0 UV-I 0 W/m² 2,5 °C 1,6 km/h (1 Bft)
27.11.2016 17:37 3,1 °C 3,1 °C 96 % 1016,5 hPa 0,0 mm 1,5 km/h (1 Bft) NW 312 ° 0 min 0,000 mm 0,0 UV-I 0 W/m² 2,5 °C 3,2 km/h (1 Bft)
27.11.2016 17:38 3,1 °C 3,1 °C 96 % 1016,6 hPa 0,0 mm 0,9 km/h (0 Bft) NW 312 ° 0 min 0,000 mm 0,0 UV-I 0 W/m² 2,5 °C 1,6 km/h (1 Bft)
27.11.2016 17:39 3,1 °C 3,1 °C 96 % 1016,5 hPa 0,0 mm 0,0 km/h (0 Bft) NW 312 ° 0 min 0,000 mm 0,0 UV-I 0 W/m² 2,5 °C 0,0 km/h (0 Bft)
27.11.2016 17:40 3,1 °C 3,1 °C 96 % 1016,5 hPa 0,0 mm 1,1 km/h (1 Bft) NW 312 ° 0 min 0,000 mm 0,0 UV-I 0 W/m² 2,5 °C 1,6 km/h (1 Bft)
27.11.2016 17:41 3,1 °C 3,1 °C 96 % 1016,6 hPa 0,0 mm 1,0 km/h (0 Bft) NW 312 ° 0 min 0,000 mm 0,0 UV-I 0 W/m² 2,5 °C 1,6 km/h (1 Bft)
27.11.2016 17:42 3,1 °C 3,1 °C 96 % 1016,6 hPa 0,0 mm 1,0 km/h (0 Bft) NW 312 ° 0 min 0,000 mm 0,0 UV-I 0 W/m² 2,5 °C 1,6 km/h (1 Bft)
27.11.2016 17:43 3,1 °C 3,1 °C 96 % 1016,6 hPa 0,0 mm 1,9 km/h (1 Bft) NW 312 ° 0 min 0,000 mm 0,0 UV-I 0 W/m² 2,5 °C 3,2 km/h (1 Bft)
27.11.2016 17:44 3,1 °C 3,1 °C 96 % 1016,7 hPa 0,0 mm 2,8 km/h (1 Bft) NO 43 ° 0 min 0,000 mm 0,0 UV-I 0 W/m² 2,5 °C 4,8 km/h (1 Bft)
27.11.2016 17:45 3,1 °C 3,1 °C 96 % 1016,6 hPa 0,2 mm 0,3 km/h (0 Bft) NO 43 ° 0 min 0,000 mm 0,0 UV-I 0 W/m² 2,5 °C 1,6 km/h (1 Bft)
27.11.2016 17:46 3,1 °C 3,1 °C 96 % 1016,6 hPa 0,0 mm 1,1 km/h (1 Bft) NO 43 ° 0 min 0,000 mm 0,0 UV-I 0 W/m² 2,5 °C 1,6 km/h (1 Bft)
27.11.2016 17:47 3,1 °C 3,1 °C 96 % 1016,7 hPa 0,0 mm 3,0 km/h (1 Bft) N-NO 14 ° 0 min 0,000 mm 0,0 UV-I 0 W/m² 2,5 °C 6,4 km/h (2 Bft)
27.11.2016 17:48 3,1 °C 3,1 °C 96 % 1016,7 hPa 0,0 mm 3,9 km/h (1 Bft) NO 47 ° 0 min 0,000 mm 0,0 UV-I 0 W/m² 2,5 °C 4,8 km/h (1 Bft)
27.11.2016 17:49 3,1 °C 3,1 °C 96 % 1016,7 hPa 0,0 mm 1,7 km/h (1 Bft) NO 47 ° 0 min 0,000 mm 0,0 UV-I 0 W/m² 2,5 °C 3,2 km/h (1 Bft)
27.11.2016 17:50 3,1 °C 3,1 °C 96 % 1016,8 hPa 0,0 mm 1,7 km/h (1 Bft) NO 47 ° 0 min 0,000 mm 0,0 UV-I 0 W/m² 2,5 °C 3,2 km/h (1 Bft)
27.11.2016 17:51 3,1 °C 3,1 °C 96 % 1016,7 hPa 0,0 mm 1,9 km/h (1 Bft) NO 47 ° 0 min 0,000 mm 0,0 UV-I 0 W/m² 2,5 °C 3,2 km/h (1 Bft)
27.11.2016 17:52 3,1 °C 3,1 °C 96 % 1016,8 hPa 0,0 mm 2,2 km/h (1 Bft) NO 47 ° 0 min 0,000 mm 0,0 UV-I 0 W/m² 2,5 °C 3,2 km/h (1 Bft)
27.11.2016 17:53 3,0 °C 3,1 °C 96 % 1016,8 hPa 0,0 mm 2,1 km/h (1 Bft) NO 47 ° 0 min 0,000 mm 0,0 UV-I 0 W/m² 2,4 °C 3,2 km/h (1 Bft)
27.11.2016 17:54 3,1 °C 3,1 °C 96 % 1016,8 hPa 0,0 mm 1,8 km/h (1 Bft) NO 47 ° 0 min 0,000 mm 0,0 UV-I 0 W/m² 2,5 °C 3,2 km/h (1 Bft)
27.11.2016 17:55 3,0 °C 3,1 °C 96 % 1016,8 hPa 0,0 mm 0,9 km/h (0 Bft) NO 47 ° 0 min 0,000 mm 0,0 UV-I 0 W/m² 2,4 °C 1,6 km/h (1 Bft)
27.11.2016 17:56 3,0 °C 3,1 °C 96 % 1016,8 hPa 0,0 mm 2,1 km/h (1 Bft) NO 47 ° 0 min 0,000 mm 0,0 UV-I 0 W/m² 2,4 °C 3,2 km/h (1 Bft)
27.11.2016 17:57 3,0 °C 3,0 °C 96 % 1016,8 hPa 0,0 mm 1,3 km/h (1 Bft) NO 46 ° 0 min 0,000 mm 0,0 UV-I 0 W/m² 2,4 °C 3,2 km/h (1 Bft)
27.11.2016 17:58 3,1 °C 3,1 °C 96 % 1016,8 hPa 0,0 mm 1,6 km/h (1 Bft) NO 46 ° 0 min 0,000 mm 0,0 UV-I 0 W/m² 2,5 °C 3,2 km/h (1 Bft)
27.11.2016 17:59 3,0 °C 3,1 °C 96 % 1016,8 hPa 0,0 mm 1,3 km/h (1 Bft) NO 46 ° 0 min 0,000 mm 0,0 UV-I 0 W/m² 2,4 °C 3,2 km/h (1 Bft)
27.11.2016 18:00 3,0 °C 3,0 °C 96 % 1016,8 hPa 0,0 mm 0,3 km/h (0 Bft) NO 46 ° 0 min 0,000 mm 0,0 UV-I 0 W/m² 2,4 °C 1,6 km/h (1 Bft)
27.11.2016 18:01 3,0 °C 3,0 °C 96 % 1016,8 hPa 0,0 mm 1,1 km/h (1 Bft) NO 46 ° 0 min 0,000 mm 0,0 UV-I 0 W/m² 2,4 °C 1,6 km/h (1 Bft)
27.11.2016 18:02 3,0 °C 3,0 °C 96 % 1016,8 hPa 0,0 mm 0,6 km/h (0 Bft) NO 46 ° 0 min 0,000 mm 0,0 UV-I 0 W/m² 2,4 °C 1,6 km/h (1 Bft)
27.11.2016 18:03 3,0 °C 3,0 °C 96 % 1016,8 hPa 0,0 mm 1,3 km/h (1 Bft) NO 46 ° 0 min 0,000 mm 0,0 UV-I 0 W/m² 2,4 °C 1,6 km/h (1 Bft)
27.11.2016 18:04 3,0 °C 3,0 °C 96 % 1016,8 hPa 0,0 mm 0,7 km/h (0 Bft) NO 46 ° 0 min 0,000 mm 0,0 UV-I 0 W/m² 2,4 °C 1,6 km/h (1 Bft)
27.11.2016 18:05 3,0 °C 3,0 °C 96 % 1016,8 hPa 0,0 mm 0,0 km/h (0 Bft) NO 46 ° 0 min 0,000 mm 0,0 UV-I 0 W/m² 2,4 °C 0,0 km/h (0 Bft)
27.11.2016 18:06 2,9 °C 3,0 °C 96 % 1016,8 hPa 0,0 mm 0,0 km/h (0 Bft) NO 46 ° 0 min 0,000 mm 0,0 UV-I 0 W/m² 2,3 °C 0,0 km/h (0 Bft)
27.11.2016 18:07 3,0 °C 3,0 °C 96 % 1016,8 hPa 0,0 mm 0,1 km/h (0 Bft) NO 46 ° 0 min 0,000 mm 0,0 UV-I 0 W/m² 2,4 °C 1,6 km/h (1 Bft)
27.11.2016 18:08 3,0 °C 3,0 °C 96 % 1016,8 hPa 0,0 mm 0,7 km/h (0 Bft) NO 46 ° 0 min 0,000 mm 0,0 UV-I 0 W/m² 2,4 °C 1,6 km/h (1 Bft)
27.11.2016 18:09 3,0 °C 3,0 °C 96 % 1016,8 hPa 0,0 mm 1,3 km/h (1 Bft) NO 46 ° 0 min 0,000 mm 0,0 UV-I 0 W/m² 2,4 °C 3,2 km/h (1 Bft)
27.11.2016 18:10 2,9 °C 3,0 °C 96 % 1016,8 hPa 0,0 mm 1,8 km/h (1 Bft) NO 46 ° 0 min 0,000 mm 0,0 UV-I 0 W/m² 2,3 °C 3,2 km/h (1 Bft)
27.11.2016 18:11 2,9 °C 3,0 °C 96 % 1016,8 hPa 0,0 mm 1,5 km/h (1 Bft) NO 46 ° 0 min 0,000 mm 0,0 UV-I 0 W/m² 2,3 °C 1,6 km/h (1 Bft)
27.11.2016 18:12 3,0 °C 3,0 °C 96 % 1016,8 hPa 0,0 mm 0,9 km/h (0 Bft) NO 46 ° 0 min 0,000 mm 0,0 UV-I 0 W/m² 2,4 °C 1,6 km/h (1 Bft)
27.11.2016 18:13 2,9 °C 3,0 °C 96 % 1016,9 hPa 0,0 mm 1,4 km/h (1 Bft) NO 46 ° 0 min 0,000 mm 0,0 UV-I 0 W/m² 2,3 °C 3,2 km/h (1 Bft)
27.11.2016 18:14 2,9 °C 3,0 °C 96 % 1017,0 hPa 0,0 mm 1,7 km/h (1 Bft) NO 46 ° 0 min 0,000 mm 0,0 UV-I 0 W/m² 2,3 °C 3,2 km/h (1 Bft)
27.11.2016 18:15 2,9 °C 2,9 °C 96 % 1016,9 hPa 0,0 mm 0,7 km/h (0 Bft) NO 46 ° 0 min 0,000 mm 0,0 UV-I 0 W/m² 2,3 °C 1,6 km/h (1 Bft)
27.11.2016 18:16 2,9 °C 2,9 °C 96 % 1016,9 hPa 0,0 mm 0,6 km/h (0 Bft) NO 46 ° 0 min 0,000 mm 0,0 UV-I 0 W/m² 2,3 °C 1,6 km/h (1 Bft)
27.11.2016 18:17 2,9 °C 2,9 °C 96 % 1016,9 hPa 0,0 mm 0,1 km/h (0 Bft) NO 46 ° 0 min 0,000 mm 0,0 UV-I 0 W/m² 2,3 °C 1,6 km/h (1 Bft)
27.11.2016 18:18 2,9 °C 2,9 °C 96 % 1017,0 hPa 0,0 mm 0,0 km/h (0 Bft) NO 46 ° 0 min 0,000 mm 0,0 UV-I 0 W/m² 2,3 °C 0,0 km/h (0 Bft)
27.11.2016 18:19 2,9 °C 2,9 °C 96 % 1016,9 hPa 0,0 mm 0,0 km/h (0 Bft) NO 46 ° 0 min 0,000 mm 0,0 UV-I 0 W/m² 2,3 °C 0,0 km/h (0 Bft)
27.11.2016 18:20 2,9 °C 2,9 °C 96 % 1017,0 hPa 0,0 mm 0,6 km/h (0 Bft) NO 46 ° 0 min 0,000 mm 0,0 UV-I 0 W/m² 2,3 °C 1,6 km/h (1 Bft)
27.11.2016 18:21 2,9 °C 2,9 °C 96 % 1017,0 hPa 0,0 mm 1,1 km/h (1 Bft) NO 46 ° 0 min 0,000 mm 0,0 UV-I 0 W/m² 2,3 °C 1,6 km/h (1 Bft)
27.11.2016 18:22 2,9 °C 2,9 °C 96 % 1017,0 hPa 0,0 mm 1,7 km/h (1 Bft) NO 46 ° 0 min 0,000 mm 0,0 UV-I 0 W/m² 2,3 °C 3,2 km/h (1 Bft)
27.11.2016 18:23 2,9 °C 2,9 °C 96 % 1017,0 hPa 0,0 mm 1,4 km/h (1 Bft) NO 47 ° 0 min 0,000 mm 0,0 UV-I 0 W/m² 2,3 °C 1,6 km/h (1 Bft)
27.11.2016 18:24 2,9 °C 2,9 °C 96 % 1017,0 hPa 0,0 mm 0,1 km/h (0 Bft) NO 46 ° 0 min 0,000 mm 0,0 UV-I 0 W/m² 2,3 °C 1,6 km/h (1 Bft)
27.11.2016 18:25 2,9 °C 2,9 °C 96 % 1017,0 hPa 0,0 mm 0,0 km/h (0 Bft) NO 47 ° 0 min 0,000 mm 0,0 UV-I 0 W/m² 2,3 °C 0,0 km/h (0 Bft)
27.11.2016 18:26 2,9 °C 2,9 °C 96 % 1017,0 hPa 0,0 mm 0,0 km/h (0 Bft) NO 47 ° 0 min 0,000 mm 0,0 UV-I 0 W/m² 2,3 °C 0,0 km/h (0 Bft)
27.11.2016 18:27 2,9 °C 2,9 °C 96 % 1017,0 hPa 0,0 mm 0,0 km/h (0 Bft) NO 47 ° 0 min 0,000 mm 0,0 UV-I 0 W/m² 2,3 °C 0,0 km/h (0 Bft)
27.11.2016 18:28 2,9 °C 2,9 °C 96 % 1017,0 hPa 0,0 mm 0,0 km/h (0 Bft) NO 46 ° 0 min 0,000 mm 0,0 UV-I 0 W/m² 2,3 °C 0,0 km/h (0 Bft)
27.11.2016 18:29 2,9 °C 2,9 °C 96 % 1017,0 hPa 0,0 mm 0,0 km/h (0 Bft) NO 47 ° 0 min 0,000 mm 0,0 UV-I 0 W/m² 2,3 °C 0,0 km/h (0 Bft)
27.11.2016 18:30 2,9 °C 2,9 °C 96 % 1017,1 hPa 0,0 mm 0,0 km/h (0 Bft) NO 47 ° 0 min 0,000 mm 0,0 UV-I 0 W/m² 2,3 °C 0,0 km/h (0 Bft)
27.11.2016 18:31 2,9 °C 2,9 °C 96 % 1017,0 hPa 0,0 mm 0,0 km/h (0 Bft) NO 47 ° 0 min 0,000 mm 0,0 UV-I 0 W/m² 2,3 °C 0,0 km/h (0 Bft)
27.11.2016 18:32 2,8 °C 2,9 °C 96 % 1017,0 hPa 0,0 mm 0,0 km/h (0 Bft) NO 47 ° 0 min 0,000 mm 0,0 UV-I 0 W/m² 2,2 °C 0,0 km/h (0 Bft)
27.11.2016 18:33 2,8 °C 2,9 °C 96 % 1017,0 hPa 0,0 mm 0,0 km/h (0 Bft) NO 46 ° 0 min 0,000 mm 0,0 UV-I 0 W/m² 2,2 °C 0,0 km/h (0 Bft)
27.11.2016 18:34 2,8 °C 2,9 °C 96 % 1017,0 hPa 0,2 mm 0,0 km/h (0 Bft) NO 47 ° 0 min 0,000 mm 0,0 UV-I 0 W/m² 2,2 °C 0,0 km/h (0 Bft)
27.11.2016 18:35 2,8 °C 2,8 °C 96 % 1017,0 hPa 0,0 mm 0,0 km/h (0 Bft) NO 46 ° 0 min 0,000 mm 0,0 UV-I 0 W/m² 2,2 °C 0,0 km/h (0 Bft)
27.11.2016 18:36 2,8 °C 2,8 °C 96 % 1017,0 hPa 0,0 mm 0,0 km/h (0 Bft) NO 47 ° 0 min 0,000 mm 0,0 UV-I 0 W/m² 2,2 °C 0,0 km/h (0 Bft)
27.11.2016 18:37 2,8 °C 2,8 °C 96 % 1017,0 hPa 0,0 mm 0,0 km/h (0 Bft) NO 47 ° 0 min 0,000 mm 0,0 UV-I 0 W/m² 2,2 °C 0,0 km/h (0 Bft)
27.11.2016 18:38 2,8 °C 2,8 °C 96 % 1017,0 hPa 0,0 mm 0,0 km/h (0 Bft) NO 47 ° 0 min 0,000 mm 0,0 UV-I 0 W/m² 2,2 °C 0,0 km/h (0 Bft)
27.11.2016 18:39 2,8 °C 2,8 °C 96 % 1017,0 hPa 0,0 mm 0,0 km/h (0 Bft) NO 47 ° 0 min 0,000 mm 0,0 UV-I 0 W/m² 2,2 °C 0,0 km/h (0 Bft)
27.11.2016 18:40 2,8 °C 2,8 °C 96 % 1017,0 hPa 0,0 mm 0,0 km/h (0 Bft) NO 47 ° 0 min 0,000 mm 0,0 UV-I 0 W/m² 2,2 °C 0,0 km/h (0 Bft)
27.11.2016 18:41 2,8 °C 2,8 °C 95 % 1017,0 hPa 0,0 mm 0,0 km/h (0 Bft) NO 47 ° 0 min 0,000 mm 0,0 UV-I 0 W/m² 2,1 °C 0,0 km/h (0 Bft)
27.11.2016 18:42 2,8 °C 2,8 °C 95 % 1017,1 hPa 0,0 mm 0,0 km/h (0 Bft) NO 47 ° 0 min 0,000 mm 0,0 UV-I 0 W/m² 2,1 °C 0,0 km/h (0 Bft)
27.11.2016 18:43 2,8 °C 2,8 °C 95 % 1017,1 hPa 0,0 mm 0,0 km/h (0 Bft) NO 47 ° 0 min 0,000 mm 0,0 UV-I 0 W/m² 2,1 °C 0,0 km/h (0 Bft)
27.11.2016 18:44 2,8 °C 2,8 °C 95 % 1017,1 hPa 0,0 mm 0,0 km/h (0 Bft) NO 47 ° 0 min 0,000 mm 0,0 UV-I 0 W/m² 2,1 °C 0,0 km/h (0 Bft)
27.11.2016 18:45 2,8 °C 2,8 °C 96 % 1017,1 hPa 0,0 mm 0,0 km/h (0 Bft) NO 47 ° 0 min 0,000 mm 0,0 UV-I 0 W/m² 2,2 °C 0,0 km/h (0 Bft)
27.11.2016 18:46 2,8 °C 2,8 °C 95 % 1017,1 hPa 0,0 mm 0,9 km/h (0 Bft) NO 47 ° 0 min 0,000 mm 0,0 UV-I 0 W/m² 2,1 °C 1,6 km/h (1 Bft)
27.11.2016 18:47 2,8 °C 2,8 °C 96 % 1017,1 hPa 0,0 mm 1,7 km/h (1 Bft) O-NO 61 ° 0 min 0,000 mm 0,0 UV-I 0 W/m² 2,2 °C 3,2 km/h (1 Bft)
27.11.2016 18:48 2,7 °C 2,8 °C 96 % 1017,1 hPa 0,0 mm 3,0 km/h (1 Bft) O-NO 69 ° 0 min 0,000 mm 0,0 UV-I 0 W/m² 2,1 °C 3,2 km/h (1 Bft)
27.11.2016 18:49 2,7 °C 2,8 °C 96 % 1017,1 hPa 0,0 mm 3,0 km/h (1 Bft) O 98 ° 0 min 0,000 mm 0,0 UV-I 0 W/m² 2,1 °C 3,2 km/h (1 Bft)
27.11.2016 18:50 2,7 °C 2,8 °C 95 % 1017,1 hPa 0,0 mm 2,3 km/h (1 Bft) O 98 ° 0 min 0,000 mm 0,0 UV-I 0 W/m² 2,0 °C 3,2 km/h (1 Bft)
27.11.2016 18:51 2,8 °C 2,8 °C 96 % 1017,1 hPa 0,0 mm 0,6 km/h (0 Bft) O 98 ° 0 min 0,000 mm 0,0 UV-I 0 W/m² 2,2 °C 1,6 km/h (1 Bft)
27.11.2016 18:52 2,7 °C 2,8 °C 96 % 1017,1 hPa 0,0 mm 0,4 km/h (0 Bft) O 98 ° 0 min 0,000 mm 0,0 UV-I 0 W/m² 2,1 °C 1,6 km/h (1 Bft)
27.11.2016 18:53 2,7 °C 2,7 °C 96 % 1017,0 hPa 0,0 mm 0,5 km/h (0 Bft) O 98 ° 0 min 0,000 mm 0,0 UV-I 0 W/m² 2,1 °C 1,6 km/h (1 Bft)
27.11.2016 18:54 2,7 °C 2,7 °C 96 % 1017,1 hPa 0,0 mm 0,7 km/h (0 Bft) O 98 ° 0 min 0,000 mm 0,0 UV-I 0 W/m² 2,1 °C 1,6 km/h (1 Bft)
27.11.2016 18:55 2,7 °C 2,7 °C 96 % 1017,1 hPa 0,0 mm 1,7 km/h (1 Bft) O 98 ° 0 min 0,000 mm 0,0 UV-I 0 W/m² 2,1 °C 3,2 km/h (1 Bft)
27.11.2016 18:56 2,7 °C 2,7 °C 95 % 1017,1 hPa 0,0 mm 3,0 km/h (1 Bft) O 98 ° 0 min 0,000 mm 0,0 UV-I 0 W/m² 2,0 °C 3,2 km/h (1 Bft)
27.11.2016 18:57 2,7 °C 2,7 °C 96 % 1017,1 hPa 0,0 mm 2,8 km/h (1 Bft) O 98 ° 0 min 0,000 mm 0,0 UV-I 0 W/m² 2,1 °C 3,2 km/h (1 Bft)
27.11.2016 18:58 2,7 °C 2,7 °C 96 % 1017,2 hPa 0,0 mm 2,6 km/h (1 Bft) O-SO 109 ° 0 min 0,000 mm 0,0 UV-I 0 W/m² 2,1 °C 3,2 km/h (1 Bft)
27.11.2016 18:59 2,7 °C 2,7 °C 96 % 1017,2 hPa 0,0 mm 2,9 km/h (1 Bft) S-SO 158 ° 0 min 0,000 mm 0,0 UV-I 0 W/m² 2,1 °C 4,8 km/h (1 Bft)
27.11.2016 19:00 2,7 °C 2,7 °C 96 % 1017,2 hPa 0,2 mm 1,9 km/h (1 Bft) S-SO 158 ° 0 min 0,000 mm 0,0 UV-I 0 W/m² 2,1 °C 3,2 km/h (1 Bft)
27.11.2016 19:01 2,7 °C 2,7 °C 96 % 1017,2 hPa 0,0 mm 2,1 km/h (1 Bft) S-SO 158 ° 0 min 0,000 mm 0,0 UV-I 0 W/m² 2,1 °C 3,2 km/h (1 Bft)
27.11.2016 19:02 2,7 °C 2,7 °C 96 % 1017,2 hPa 0,0 mm 2,5 km/h (1 Bft) S-SO 158 ° 0 min 0,000 mm 0,0 UV-I 0 W/m² 2,1 °C 3,2 km/h (1 Bft)
27.11.2016 19:03 2,7 °C 2,7 °C 96 % 1017,2 hPa 0,0 mm 2,4 km/h (1 Bft) S-SO 158 ° 0 min 0,000 mm 0,0 UV-I 0 W/m² 2,1 °C 3,2 km/h (1 Bft)
27.11.2016 19:04 2,7 °C 2,7 °C 96 % 1017,2 hPa 0,0 mm 1,3 km/h (1 Bft) S-SO 158 ° 0 min 0,000 mm 0,0 UV-I 0 W/m² 2,1 °C 3,2 km/h (1 Bft)
27.11.2016 19:05 2,7 °C 2,7 °C 96 % 1017,2 hPa 0,0 mm 0,4 km/h (0 Bft) S-SO 158 ° 0 min 0,000 mm 0,0 UV-I 0 W/m² 2,1 °C 1,6 km/h (1 Bft)
27.11.2016 19:06 2,7 °C 2,7 °C 96 % 1017,2 hPa 0,0 mm 0,2 km/h (0 Bft) S-SO 158 ° 0 min 0,000 mm 0,0 UV-I 0 W/m² 2,1 °C 1,6 km/h (1 Bft)
27.11.2016 19:07 2,7 °C 2,7 °C 96 % 1017,2 hPa 0,0 mm 0,0 km/h (0 Bft) S-SO 158 ° 0 min 0,000 mm 0,0 UV-I 0 W/m² 2,1 °C 0,0 km/h (0 Bft)
27.11.2016 19:08 2,7 °C 2,7 °C 96 % 1017,2 hPa 0,0 mm 0,0 km/h (0 Bft) S-SO 158 ° 0 min 0,000 mm 0,0 UV-I 0 W/m² 2,1 °C 0,0 km/h (0 Bft)
27.11.2016 19:09 2,7 °C 2,7 °C 96 % 1017,2 hPa 0,0 mm 0,0 km/h (0 Bft) S-SO 158 ° 0 min 0,000 mm 0,0 UV-I 0 W/m² 2,1 °C 0,0 km/h (0 Bft)
27.11.2016 19:10 2,7 °C 2,7 °C 96 % 1017,3 hPa 0,0 mm 1,0 km/h (0 Bft) S-SO 158 ° 0 min 0,000 mm 0,0 UV-I 0 W/m² 2,1 °C 1,6 km/h (1 Bft)
27.11.2016 19:11 2,7 °C 2,7 °C 96 % 1017,3 hPa 0,0 mm 0,6 km/h (0 Bft) S-SO 158 ° 0 min 0,000 mm 0,0 UV-I 0 W/m² 2,1 °C 1,6 km/h (1 Bft)
27.11.2016 19:12 2,7 °C 2,7 °C 96 % 1017,3 hPa 0,0 mm 1,1 km/h (1 Bft) S-SO 158 ° 0 min 0,000 mm 0,0 UV-I 0 W/m² 2,1 °C 1,6 km/h (1 Bft)
27.11.2016 19:13 2,7 °C 2,7 °C 96 % 1017,3 hPa 0,0 mm 1,5 km/h (1 Bft) S-SO 158 ° 0 min 0,000 mm 0,0 UV-I 0 W/m² 2,1 °C 1,6 km/h (1 Bft)
27.11.2016 19:14 2,7 °C 2,7 °C 96 % 1017,3 hPa 0,0 mm 0,6 km/h (0 Bft) S-SO 158 ° 0 min 0,000 mm 0,0 UV-I 0 W/m² 2,1 °C 1,6 km/h (1 Bft)
27.11.2016 19:15 2,7 °C 2,7 °C 96 % 1017,3 hPa 0,0 mm 2,6 km/h (1 Bft) S-SO 158 ° 0 min 0,000 mm 0,0 UV-I 0 W/m² 2,1 °C 3,2 km/h (1 Bft)
27.11.2016 19:16 2,7 °C 2,7 °C 96 % 1017,3 hPa 0,0 mm 3,2 km/h (1 Bft) S-SO 158 ° 0 min 0,000 mm 0,0 UV-I 0 W/m² 2,1 °C 3,2 km/h (1 Bft)
27.11.2016 19:17 2,7 °C 2,7 °C 96 % 1017,3 hPa 0,0 mm 2,3 km/h (1 Bft) S-SO 158 ° 0 min 0,000 mm 0,0 UV-I 0 W/m² 2,1 °C 3,2 km/h (1 Bft)
27.11.2016 19:18 2,7 °C 2,7 °C 96 % 1017,3 hPa 0,0 mm 1,5 km/h (1 Bft) S-SO 158 ° 0 min 0,000 mm 0,0 UV-I 0 W/m² 2,1 °C 3,2 km/h (1 Bft)
27.11.2016 19:19 2,7 °C 2,7 °C 96 % 1017,4 hPa 0,0 mm 2,4 km/h (1 Bft) S-SO 158 ° 0 min 0,000 mm 0,0 UV-I 0 W/m² 2,1 °C 3,2 km/h (1 Bft)
27.11.2016 19:20 2,7 °C 2,7 °C 96 % 1017,4 hPa 0,0 mm 2,1 km/h (1 Bft) S-SO 158 ° 0 min 0,000 mm 0,0 UV-I 0 W/m² 2,1 °C 3,2 km/h (1 Bft)
27.11.2016 19:21 2,7 °C 2,7 °C 96 % 1017,4 hPa 0,0 mm 1,4 km/h (1 Bft) S-SO 158 ° 0 min 0,000 mm 0,0 UV-I 0 W/m² 2,1 °C 1,6 km/h (1 Bft)
27.11.2016 19:22 2,7 °C 2,7 °C 96 % 1017,4 hPa 0,0 mm 1,4 km/h (1 Bft) S-SO 158 ° 0 min 0,000 mm 0,0 UV-I 0 W/m² 2,1 °C 1,6 km/h (1 Bft)
27.11.2016 19:23 2,7 °C 2,7 °C 96 % 1017,4 hPa 0,0 mm 0,3 km/h (0 Bft) S-SO 158 ° 0 min 0,000 mm 0,0 UV-I 0 W/m² 2,1 °C 1,6 km/h (1 Bft)
27.11.2016 19:24 2,7 °C 2,7 °C 96 % 1017,4 hPa 0,0 mm 0,0 km/h (0 Bft) S-SO 158 ° 0 min 0,000 mm 0,0 UV-I 0 W/m² 2,1 °C 0,0 km/h (0 Bft)
27.11.2016 19:25 2,7 °C 2,7 °C 96 % 1017,4 hPa 0,0 mm 0,0 km/h (0 Bft) S-SO 158 ° 0 min 0,000 mm 0,0 UV-I 0 W/m² 2,1 °C 0,0 km/h (0 Bft)
27.11.2016 19:26 2,7 °C 2,7 °C 96 % 1017,4 hPa 0,2 mm 0,0 km/h (0 Bft) S-SO 158 ° 0 min 0,000 mm 0,0 UV-I 0 W/m² 2,1 °C 0,0 km/h (0 Bft)
27.11.2016 19:27 2,7 °C 2,7 °C 96 % 1017,4 hPa 0,0 mm 0,0 km/h (0 Bft) S-SO 158 ° 0 min 0,000 mm 0,0 UV-I 0 W/m² 2,1 °C 0,0 km/h (0 Bft)
27.11.2016 19:28 2,7 °C 2,7 °C 96 % 1017,4 hPa 0,0 mm 0,0 km/h (0 Bft) S-SO 158 ° 0 min 0,000 mm 0,0 UV-I 0 W/m² 2,1 °C 0,0 km/h (0 Bft)
27.11.2016 19:29 2,7 °C 2,7 °C 96 % 1017,5 hPa 0,0 mm 0,4 km/h (0 Bft) S-SO 158 ° 0 min 0,000 mm 0,0 UV-I 0 W/m² 2,1 °C 1,6 km/h (1 Bft)
27.11.2016 19:30 2,7 °C 2,7 °C 96 % 1017,5 hPa 0,0 mm 0,1 km/h (0 Bft) S-SO 158 ° 0 min 0,000 mm 0,0 UV-I 0 W/m² 2,1 °C 1,6 km/h (1 Bft)
27.11.2016 19:31 2,7 °C 2,7 °C 96 % 1017,5 hPa 0,0 mm 0,0 km/h (0 Bft) S-SO 158 ° 0 min 0,000 mm 0,0 UV-I 0 W/m² 2,1 °C 0,0 km/h (0 Bft)
27.11.2016 19:32 2,7 °C 2,7 °C 96 % 1017,5 hPa 0,0 mm 0,6 km/h (0 Bft) S-SO 158 ° 0 min 0,000 mm 0,0 UV-I 0 W/m² 2,1 °C 1,6 km/h (1 Bft)
27.11.2016 19:33 2,7 °C 2,7 °C 96 % 1017,5 hPa 0,2 mm 0,9 km/h (0 Bft) S-SO 158 ° 0 min 0,000 mm 0,0 UV-I 0 W/m² 2,1 °C 1,6 km/h (1 Bft)
27.11.2016 19:34 2,7 °C 2,7 °C 96 % 1017,5 hPa 0,0 mm 1,1 km/h (1 Bft) S-SO 158 ° 0 min 0,000 mm 0,0 UV-I 0 W/m² 2,1 °C 1,6 km/h (1 Bft)
27.11.2016 19:35 2,7 °C 2,7 °C 96 % 1017,5 hPa 0,0 mm 1,5 km/h (1 Bft) S-SO 158 ° 0 min 0,000 mm 0,0 UV-I 0 W/m² 2,1 °C 3,2 km/h (1 Bft)
27.11.2016 19:36 2,7 °C 2,7 °C 96 % 1017,5 hPa 0,0 mm 1,5 km/h (1 Bft) S-SO 158 ° 0 min 0,000 mm 0,0 UV-I 0 W/m² 2,1 °C 3,2 km/h (1 Bft)
27.11.2016 19:37 2,7 °C 2,7 °C 96 % 1017,5 hPa 0,0 mm 2,4 km/h (1 Bft) S-SO 158 ° 0 min 0,000 mm 0,0 UV-I 0 W/m² 2,1 °C 3,2 km/h (1 Bft)
27.11.2016 19:38 2,7 °C 2,7 °C 96 % 1017,5 hPa 0,0 mm 1,5 km/h (1 Bft) S-SO 158 ° 0 min 0,000 mm 0,0 UV-I 0 W/m² 2,1 °C 3,2 km/h (1 Bft)
27.11.2016 19:39 2,7 °C 2,7 °C 96 % 1017,6 hPa 0,0 mm 2,1 km/h (1 Bft) N-NO 33 ° 0 min 0,000 mm 0,0 UV-I 0 W/m² 2,1 °C 4,8 km/h (1 Bft)
27.11.2016 19:40 2,7 °C 2,7 °C 96 % 1017,6 hPa 0,2 mm 3,3 km/h (1 Bft) N-NW 332 ° 0 min 0,000 mm 0,0 UV-I 0 W/m² 2,1 °C 4,8 km/h (1 Bft)
27.11.2016 19:41 2,7 °C 2,7 °C 96 % 1017,6 hPa 0,0 mm 4,4 km/h (1 Bft) N 5 ° 0 min 0,000 mm 0,0 UV-I 0 W/m² 2,1 °C 6,4 km/h (2 Bft)
27.11.2016 19:42 2,7 °C 2,7 °C 96 % 1017,6 hPa 0,0 mm 3,9 km/h (1 Bft) N 5 ° 0 min 0,000 mm 0,0 UV-I 0 W/m² 2,1 °C 4,8 km/h (1 Bft)
27.11.2016 19:43 2,7 °C 2,7 °C 96 % 1017,6 hPa 0,0 mm 3,1 km/h (1 Bft) NO 44 ° 0 min 0,000 mm 0,0 UV-I 0 W/m² 2,1 °C 4,8 km/h (1 Bft)
27.11.2016 19:44 2,7 °C 2,7 °C 95 % 1017,6 hPa 0,0 mm 2,6 km/h (1 Bft) N 360 ° 0 min 0,000 mm 0,0 UV-I 0 W/m² 2,0 °C 4,8 km/h (1 Bft)
27.11.2016 19:45 2,7 °C 2,7 °C 95 % 1017,6 hPa 0,0 mm 3,2 km/h (1 Bft) N 9 ° 0 min 0,000 mm 0,0 UV-I 0 W/m² 2,0 °C 4,8 km/h (1 Bft)
27.11.2016 19:46 2,7 °C 2,7 °C 95 % 1017,6 hPa 0,2 mm 1,9 km/h (1 Bft) N 9 ° 0 min 0,000 mm 0,0 UV-I 0 W/m² 2,0 °C 3,2 km/h (1 Bft)
27.11.2016 19:47 2,7 °C 2,7 °C 95 % 1017,6 hPa 0,0 mm 0,4 km/h (0 Bft) N 9 ° 0 min 0,000 mm 0,0 UV-I 0 W/m² 2,0 °C 1,6 km/h (1 Bft)
27.11.2016 19:48 2,7 °C 2,7 °C 95 % 1017,6 hPa 0,0 mm 1,8 km/h (1 Bft) N 9 ° 0 min 0,000 mm 0,0 UV-I 0 W/m² 2,0 °C 3,2 km/h (1 Bft)
27.11.2016 19:49 2,7 °C 2,7 °C 95 % 1017,6 hPa 0,0 mm 1,4 km/h (1 Bft) N 9 ° 0 min 0,000 mm 0,0 UV-I 0 W/m² 2,0 °C 1,6 km/h (1 Bft)
27.11.2016 19:50 2,7 °C 2,7 °C 95 % 1017,6 hPa 0,0 mm 1,5 km/h (1 Bft) N 9 ° 0 min 0,000 mm 0,0 UV-I 0 W/m² 2,0 °C 3,2 km/h (1 Bft)
27.11.2016 19:51 2,7 °C 2,7 °C 95 % 1017,6 hPa 0,0 mm 1,4 km/h (1 Bft) N 9 ° 0 min 0,000 mm 0,0 UV-I 0 W/m² 2,0 °C 3,2 km/h (1 Bft)
27.11.2016 19:52 2,6 °C 2,7 °C 95 % 1017,6 hPa 0,0 mm 1,3 km/h (1 Bft) N 9 ° 0 min 0,000 mm 0,0 UV-I 0 W/m² 1,9 °C 3,2 km/h (1 Bft)
27.11.2016 19:53 2,7 °C 2,7 °C 95 % 1017,6 hPa 0,0 mm 1,1 km/h (1 Bft) N 9 ° 0 min 0,000 mm 0,0 UV-I 0 W/m² 2,0 °C 1,6 km/h (1 Bft)
27.11.2016 19:54 2,6 °C 2,7 °C 95 % 1017,6 hPa 0,0 mm 0,3 km/h (0 Bft) N 9 ° 0 min 0,000 mm 0,0 UV-I 0 W/m² 1,9 °C 1,6 km/h (1 Bft)
27.11.2016 19:55 2,6 °C 2,6 °C 95 % 1017,7 hPa 0,0 mm 1,5 km/h (1 Bft) N 9 ° 0 min 0,000 mm 0,0 UV-I 0 W/m² 1,9 °C 3,2 km/h (1 Bft)
27.11.2016 19:56 2,6 °C 2,6 °C 95 % 1017,6 hPa 0,0 mm 2,3 km/h (1 Bft) N 11 ° 0 min 0,000 mm 0,0 UV-I 0 W/m² 1,9 °C 3,2 km/h (1 Bft)
27.11.2016 19:57 2,6 °C 2,6 °C 95 % 1017,6 hPa 0,2 mm 1,5 km/h (1 Bft) N 11 ° 0 min 0,000 mm 0,0 UV-I 0 W/m² 1,9 °C 1,6 km/h (1 Bft)
27.11.2016 19:58 2,6 °C 2,6 °C 95 % 1017,6 hPa 0,0 mm 2,1 km/h (1 Bft) N-NO 16 ° 0 min 0,000 mm 0,0 UV-I 0 W/m² 1,9 °C 3,2 km/h (1 Bft)
27.11.2016 19:59 2,6 °C 2,6 °C 95 % 1017,6 hPa 0,0 mm 1,3 km/h (1 Bft) N-NO 16 ° 0 min 0,000 mm 0,0 UV-I 0 W/m² 1,9 °C 1,6 km/h (1 Bft)
27.11.2016 20:00 2,6 °C 2,6 °C 95 % 1017,6 hPa 0,0 mm 0,6 km/h (0 Bft) N-NO 16 ° 0 min 0,000 mm 0,0 UV-I 0 W/m² 1,9 °C 1,6 km/h (1 Bft)
27.11.2016 20:01 2,6 °C 2,6 °C 95 % 1017,7 hPa 0,0 mm 2,4 km/h (1 Bft) N-NO 16 ° 0 min 0,000 mm 0,0 UV-I 0 W/m² 1,9 °C 4,8 km/h (1 Bft)
27.11.2016 20:02 2,6 °C 2,6 °C 95 % 1017,7 hPa 0,0 mm 1,7 km/h (1 Bft) N-NO 16 ° 0 min 0,000 mm 0,0 UV-I 0 W/m² 1,9 °C 3,2 km/h (1 Bft)
27.11.2016 20:03 2,6 °C 2,6 °C 95 % 1017,7 hPa 0,0 mm 3,5 km/h (1 Bft) N-NO 16 ° 0 min 0,000 mm 0,0 UV-I 0 W/m² 1,9 °C 4,8 km/h (1 Bft)
27.11.2016 20:04 2,6 °C 2,6 °C 95 % 1017,7 hPa 0,0 mm 2,7 km/h (1 Bft) N-NO 16 ° 0 min 0,000 mm 0,0 UV-I 0 W/m² 1,9 °C 4,8 km/h (1 Bft)
27.11.2016 20:05 2,6 °C 2,6 °C 95 % 1017,6 hPa 0,0 mm 1,5 km/h (1 Bft) N-NO 16 ° 0 min 0,000 mm 0,0 UV-I 0 W/m² 1,9 °C 3,2 km/h (1 Bft)
27.11.2016 20:06 2,6 °C 2,6 °C 95 % 1017,7 hPa 0,0 mm 0,4 km/h (0 Bft) N-NO 16 ° 0 min 0,000 mm 0,0 UV-I 0 W/m² 1,9 °C 1,6 km/h (1 Bft)
27.11.2016 20:07 2,6 °C 2,6 °C 95 % 1017,6 hPa 0,0 mm 0,9 km/h (0 Bft) N-NO 16 ° 0 min 0,000 mm 0,0 UV-I 0 W/m² 1,9 °C 1,6 km/h (1 Bft)
27.11.2016 20:08 2,6 °C 2,6 °C 95 % 1017,6 hPa 0,0 mm 1,7 km/h (1 Bft) N-NO 16 ° 0 min 0,000 mm 0,0 UV-I 0 W/m² 1,9 °C 3,2 km/h (1 Bft)
27.11.2016 20:09 2,6 °C 2,6 °C 95 % 1017,7 hPa 0,0 mm 1,7 km/h (1 Bft) N-NO 16 ° 0 min 0,000 mm 0,0 UV-I 0 W/m² 1,9 °C 3,2 km/h (1 Bft)
27.11.2016 20:10 2,6 °C 2,6 °C 95 % 1017,7 hPa 0,0 mm 1,9 km/h (1 Bft) N-NO 16 ° 0 min 0,000 mm 0,0 UV-I 0 W/m² 1,9 °C 3,2 km/h (1 Bft)
27.11.2016 20:11 2,6 °C 2,6 °C 95 % 1017,6 hPa 0,0 mm 1,0 km/h (0 Bft) N-NO 16 ° 0 min 0,000 mm 0,0 UV-I 0 W/m² 1,9 °C 1,6 km/h (1 Bft)
27.11.2016 20:12 2,6 °C 2,6 °C 95 % 1017,7 hPa 0,0 mm 1,5 km/h (1 Bft) NO 36 ° 0 min 0,000 mm 0,0 UV-I 0 W/m² 1,9 °C 4,8 km/h (1 Bft)
27.11.2016 20:13 2,5 °C 2,6 °C 95 % 1017,7 hPa 0,0 mm 2,9 km/h (1 Bft) O-NO 58 ° 0 min 0,000 mm 0,0 UV-I 0 W/m² 1,8 °C 4,8 km/h (1 Bft)
27.11.2016 20:14 2,6 °C 2,6 °C 95 % 1017,7 hPa 0,0 mm 1,5 km/h (1 Bft) O-NO 58 ° 0 min 0,000 mm 0,0 UV-I 0 W/m² 1,9 °C 3,2 km/h (1 Bft)
27.11.2016 20:15 2,5 °C 2,6 °C 95 % 1017,8 hPa 0,2 mm 1,2 km/h (1 Bft) O-NO 58 ° 0 min 0,000 mm 0,0 UV-I 0 W/m² 1,8 °C 3,2 km/h (1 Bft)
27.11.2016 20:16 2,6 °C 2,6 °C 95 % 1017,7 hPa 0,0 mm 8,4 km/h (2 Bft) O 97 ° 0 min 0,000 mm 0,0 UV-I 0 W/m² 1,9 °C 11,3 km/h (2 Bft)
27.11.2016 20:17 2,5 °C 2,6 °C 95 % 1017,8 hPa 0,0 mm 4,3 km/h (1 Bft) O 85 ° 0 min 0,000 mm 0,0 UV-I 0 W/m² 1,8 °C 9,7 km/h (2 Bft)
27.11.2016 20:18 2,5 °C 2,5 °C 95 % 1017,7 hPa 0,0 mm 4,5 km/h (1 Bft) O 87 ° 0 min 0,000 mm 0,0 UV-I 0 W/m² 1,8 °C 6,4 km/h (2 Bft)
27.11.2016 20:19 2,4 °C 2,5 °C 95 % 1017,8 hPa 0,0 mm 5,4 km/h (1 Bft) NO 38 ° 0 min 0,000 mm 0,0 UV-I 0 W/m² 1,7 °C 8,0 km/h (2 Bft)
27.11.2016 20:20 2,4 °C 2,4 °C 95 % 1017,8 hPa 0,0 mm 2,1 km/h (1 Bft) N-NO 17 ° 0 min 0,000 mm 0,0 UV-I 0 W/m² 1,7 °C 6,4 km/h (2 Bft)
27.11.2016 20:21 2,4 °C 2,4 °C 95 % 1017,8 hPa 0,0 mm 1,6 km/h (1 Bft) NO 40 ° 0 min 0,000 mm 0,0 UV-I 0 W/m² 1,7 °C 3,2 km/h (1 Bft)
27.11.2016 20:22 2,4 °C 2,4 °C 95 % 1017,8 hPa 0,0 mm 1,3 km/h (1 Bft) NO 40 ° 0 min 0,000 mm 0,0 UV-I 0 W/m² 1,7 °C 1,6 km/h (1 Bft)
27.11.2016 20:23 2,4 °C 2,4 °C 95 % 1017,8 hPa 0,0 mm 1,7 km/h (1 Bft) NO 40 ° 0 min 0,000 mm 0,0 UV-I 0 W/m² 1,7 °C 3,2 km/h (1 Bft)
27.11.2016 20:24 2,4 °C 2,4 °C 95 % 1017,8 hPa 0,0 mm 0,4 km/h (0 Bft) NO 40 ° 0 min 0,000 mm 0,0 UV-I 0 W/m² 1,7 °C 1,6 km/h (1 Bft)
27.11.2016 20:25 2,4 °C 2,4 °C 95 % 1017,8 hPa 0,0 mm 0,0 km/h (0 Bft) NO 40 ° 0 min 0,000 mm 0,0 UV-I 0 W/m² 1,7 °C 0,0 km/h (0 Bft)
27.11.2016 20:26 2,4 °C 2,4 °C 95 % 1017,8 hPa 0,0 mm 0,0 km/h (0 Bft) NO 40 ° 0 min 0,000 mm 0,0 UV-I 0 W/m² 1,7 °C 0,0 km/h (0 Bft)
27.11.2016 20:27 2,4 °C 2,4 °C 95 % 1017,8 hPa 0,0 mm 0,2 km/h (0 Bft) NO 40 ° 0 min 0,000 mm 0,0 UV-I 0 W/m² 1,7 °C 1,6 km/h (1 Bft)
27.11.2016 20:28 2,4 °C 2,4 °C 95 % 1017,8 hPa 0,0 mm 1,2 km/h (1 Bft) NO 40 ° 0 min 0,000 mm 0,0 UV-I 0 W/m² 1,7 °C 3,2 km/h (1 Bft)
27.11.2016 20:29 2,4 °C 2,4 °C 95 % 1017,8 hPa 0,0 mm 1,1 km/h (1 Bft) NO 40 ° 0 min 0,000 mm 0,0 UV-I 0 W/m² 1,7 °C 3,2 km/h (1 Bft)
27.11.2016 20:30 2,4 °C 2,4 °C 95 % 1017,8 hPa 0,0 mm 0,5 km/h (0 Bft) NO 40 ° 0 min 0,000 mm 0,0 UV-I 0 W/m² 1,7 °C 1,6 km/h (1 Bft)
27.11.2016 20:31 2,4 °C 2,4 °C 95 % 1017,8 hPa 0,2 mm 0,0 km/h (0 Bft) NO 40 ° 0 min 0,000 mm 0,0 UV-I 0 W/m² 1,7 °C 0,0 km/h (0 Bft)
27.11.2016 20:32 2,4 °C 2,4 °C 95 % 1017,8 hPa 0,0 mm 0,0 km/h (0 Bft) NO 40 ° 0 min 0,000 mm 0,0 UV-I 0 W/m² 1,7 °C 0,0 km/h (0 Bft)
27.11.2016 20:33 2,4 °C 2,4 °C 95 % 1017,8 hPa 0,0 mm 1,5 km/h (1 Bft) NO 40 ° 0 min 0,000 mm 0,0 UV-I 0 W/m² 1,7 °C 3,2 km/h (1 Bft)
27.11.2016 20:34 2,4 °C 2,4 °C 95 % 1017,9 hPa 0,0 mm 1,9 km/h (1 Bft) NO 40 ° 0 min 0,000 mm 0,0 UV-I 0 W/m² 1,7 °C 3,2 km/h (1 Bft)
27.11.2016 20:35 2,4 °C 2,4 °C 95 % 1017,9 hPa 0,0 mm 4,3 km/h (1 Bft) N 355 ° 0 min 0,000 mm 0,0 UV-I 0 W/m² 1,7 °C 6,4 km/h (2 Bft)
27.11.2016 20:36 2,3 °C 2,4 °C 95 % 1018,0 hPa 0,0 mm 7,2 km/h (2 Bft) N 355 ° 0 min 0,000 mm 0,0 UV-I 0 W/m² 1,6 °C 17,7 km/h (3 Bft)
27.11.2016 20:37 2,3 °C 2,4 °C 95 % 1018,0 hPa 0,0 mm 9,1 km/h (2 Bft) N-NO 13 ° 0 min 0,000 mm 0,0 UV-I 0 W/m² 1,6 °C 14,5 km/h (3 Bft)
27.11.2016 20:38 2,3 °C 2,3 °C 95 % 1018,0 hPa 0,0 mm 8,8 km/h (2 Bft) N-NW 332 ° 0 min 0,000 mm 0,0 UV-I 0 W/m² 1,6 °C 14,5 km/h (3 Bft)
27.11.2016 20:39 2,3 °C 2,3 °C 95 % 1018,0 hPa 0,0 mm 4,8 km/h (1 Bft) N 360 ° 0 min 0,000 mm 0,0 UV-I 0 W/m² 1,6 °C 6,4 km/h (2 Bft)
27.11.2016 20:40 2,3 °C 2,3 °C 95 % 1018,0 hPa 0,0 mm 10,4 km/h (2 Bft) N 355 ° 0 min 0,000 mm 0,0 UV-I 0 W/m² 1,6 °C 16,1 km/h (3 Bft)
27.11.2016 20:41 2,2 °C 2,3 °C 95 % 1018,1 hPa 0,0 mm 12,0 km/h (2 Bft) N-NO 13 ° 0 min 0,000 mm 0,0 UV-I 0 W/m² 1,5 °C 16,1 km/h (3 Bft)
27.11.2016 20:42 2,2 °C 2,2 °C 95 % 1018,1 hPa 0,2 mm 5,0 km/h (1 Bft) N 360 ° 0 min 0,000 mm 0,0 UV-I 0 W/m² 1,5 °C 8,0 km/h (2 Bft)
27.11.2016 20:43 2,2 °C 2,2 °C 94 % 1018,1 hPa 0,0 mm 6,6 km/h (2 Bft) N-NO 20 ° 0 min 0,000 mm 0,0 UV-I 0 W/m² 1,3 °C 11,3 km/h (2 Bft)
27.11.2016 20:44 2,1 °C 2,2 °C 94 % 1018,1 hPa 0,0 mm 9,1 km/h (2 Bft) N-NO 30 ° 0 min 0,000 mm 0,0 UV-I 0 W/m² 1,2 °C 12,9 km/h (3 Bft)
27.11.2016 20:45 2,1 °C 2,1 °C 94 % 1018,1 hPa 0,0 mm 5,6 km/h (1 Bft) N-NO 27 ° 0 min 0,000 mm 0,0 UV-I 0 W/m² 1,2 °C 8,0 km/h (2 Bft)
27.11.2016 20:46 2,1 °C 2,1 °C 94 % 1018,1 hPa 0,0 mm 5,6 km/h (1 Bft) N 360 ° 0 min 0,000 mm 0,0 UV-I 0 W/m² 1,2 °C 8,0 km/h (2 Bft)
27.11.2016 20:47 2,0 °C 2,1 °C 94 % 1018,1 hPa 0,0 mm 3,8 km/h (1 Bft) N-NW 344 ° 0 min 0,000 mm 0,0 UV-I 0 W/m² 1,1 °C 6,4 km/h (2 Bft)
27.11.2016 20:48 2,0 °C 2,0 °C 94 % 1018,1 hPa 0,0 mm 8,2 km/h (2 Bft) O-NO 67 ° 0 min 0,000 mm 0,0 UV-I 0 W/m² 1,1 °C 12,9 km/h (3 Bft)
27.11.2016 20:49 2,0 °C 2,0 °C 94 % 1018,1 hPa 0,0 mm 5,2 km/h (1 Bft) O-NO 67 ° 0 min 0,000 mm 0,0 UV-I 0 W/m² 1,1 °C 9,7 km/h (2 Bft)
27.11.2016 20:50 1,9 °C 2,0 °C 94 % 1018,1 hPa 0,0 mm 7,1 km/h (2 Bft) O-NO 57 ° 0 min 0,000 mm 0,0 UV-I 0 W/m² 1,0 °C 11,3 km/h (2 Bft)
27.11.2016 20:51 1,9 °C 1,9 °C 94 % 1018,1 hPa 0,0 mm 6,2 km/h (2 Bft) O-NO 74 ° 0 min 0,000 mm 0,0 UV-I 0 W/m² 1,0 °C 9,7 km/h (2 Bft)
27.11.2016 20:52 1,9 °C 1,9 °C 94 % 1018,1 hPa 0,0 mm 5,0 km/h (1 Bft) O-NO 62 ° 0 min 0,000 mm 0,0 UV-I 0 W/m² 1,0 °C 8,0 km/h (2 Bft)
27.11.2016 20:53 1,9 °C 1,9 °C 94 % 1018,2 hPa 0,0 mm 4,6 km/h (1 Bft) O-NO 62 ° 0 min 0,000 mm 0,0 UV-I 0 W/m² 1,0 °C 6,4 km/h (2 Bft)
27.11.2016 20:54 1,8 °C 1,9 °C 94 % 1018,2 hPa 0,0 mm 5,2 km/h (1 Bft) NO 47 ° 0 min 0,000 mm 0,0 UV-I 0 W/m² 0,9 °C 11,3 km/h (2 Bft)
27.11.2016 20:55 1,8 °C 1,8 °C 94 % 1018,2 hPa 0,0 mm 8,0 km/h (2 Bft) O-NO 61 ° 0 min 0,000 mm 0,0 UV-I 0 W/m² 0,9 °C 11,3 km/h (2 Bft)
27.11.2016 20:56 1,8 °C 1,8 °C 94 % 1018,2 hPa 0,0 mm 7,1 km/h (2 Bft) O 90 ° 0 min 0,000 mm 0,0 UV-I 0 W/m² 0,9 °C 11,3 km/h (2 Bft)
27.11.2016 20:57 1,8 °C 1,8 °C 94 % 1018,2 hPa 0,0 mm 6,0 km/h (2 Bft) O-NO 68 ° 0 min 0,000 mm 0,0 UV-I 0 W/m² 0,9 °C 9,7 km/h (2 Bft)
27.11.2016 20:58 1,7 °C 1,8 °C 94 % 1018,3 hPa 0,0 mm 6,9 km/h (2 Bft) O-SO 105 ° 0 min 0,000 mm 0,0 UV-I 0 W/m² 0,8 °C 11,3 km/h (2 Bft)
27.11.2016 20:59 1,7 °C 1,7 °C 94 % 1018,3 hPa 0,0 mm 5,9 km/h (2 Bft) N-NO 13 ° 0 min 0,000 mm 0,0 UV-I 0 W/m² 0,8 °C 9,7 km/h (2 Bft)
27.11.2016 21:00 1,7 °C 1,7 °C 94 % 1018,3 hPa 0,0 mm 6,9 km/h (2 Bft) NO 51 ° 0 min 0,000 mm 0,0 UV-I 0 W/m² 0,8 °C 9,7 km/h (2 Bft)
27.11.2016 21:01 1,7 °C 1,7 °C 94 % 1018,3 hPa 0,0 mm 6,6 km/h (2 Bft) O-NO 73 ° 0 min 0,000 mm 0,0 UV-I 0 W/m² 0,8 °C 9,7 km/h (2 Bft)
27.11.2016 21:02 1,7 °C 1,7 °C 94 % 1018,3 hPa 0,0 mm 3,0 km/h (1 Bft) NO 49 ° 0 min 0,000 mm 0,0 UV-I 0 W/m² 0,8 °C 4,8 km/h (1 Bft)
27.11.2016 21:03 1,6 °C 1,7 °C 94 % 1018,3 hPa 0,0 mm 6,0 km/h (2 Bft) NO 55 ° 0 min 0,000 mm 0,0 UV-I 0 W/m² 0,7 °C 9,7 km/h (2 Bft)
27.11.2016 21:04 1,6 °C 1,6 °C 94 % 1018,3 hPa 0,0 mm 6,4 km/h (2 Bft) O 92 ° 0 min 0,000 mm 0,0 UV-I 0 W/m² 0,7 °C 11,3 km/h (2 Bft)
27.11.2016 21:05 1,6 °C 1,6 °C 94 % 1018,4 hPa 0,0 mm 6,8 km/h (2 Bft) O-NO 78 ° 0 min 0,000 mm 0,0 UV-I 0 W/m² 0,7 °C 11,3 km/h (2 Bft)
27.11.2016 21:06 1,6 °C 1,6 °C 94 % 1018,3 hPa 0,0 mm 4,8 km/h (1 Bft) O-NO 66 ° 0 min 0,000 mm 0,0 UV-I 0 W/m² 0,7 °C 6,4 km/h (2 Bft)
27.11.2016 21:07 1,5 °C 1,6 °C 94 % 1018,4 hPa 0,0 mm 7,8 km/h (2 Bft) O-NO 77 ° 0 min 0,000 mm 0,0 UV-I 0 W/m² 0,6 °C 11,3 km/h (2 Bft)
27.11.2016 21:08 1,5 °C 1,6 °C 94 % 1018,4 hPa 0,0 mm 4,3 km/h (1 Bft) O-NO 76 ° 0 min 0,000 mm 0,0 UV-I 0 W/m² 0,6 °C 9,7 km/h (2 Bft)
27.11.2016 21:09 1,4 °C 1,5 °C 94 % 1018,4 hPa 0,0 mm 4,8 km/h (1 Bft) O 88 ° 0 min 0,000 mm 0,0 UV-I 0 W/m² 0,5 °C 8,0 km/h (2 Bft)
27.11.2016 21:10 1,4 °C 1,4 °C 94 % 1018,3 hPa 0,2 mm 2,5 km/h (1 Bft) O-NO 65 ° 0 min 0,000 mm 0,0 UV-I 0 W/m² 0,5 °C 6,4 km/h (2 Bft)
27.11.2016 21:11 1,4 °C 1,4 °C 94 % 1018,3 hPa 0,0 mm 4,5 km/h (1 Bft) NO 54 ° 0 min 0,000 mm 0,0 UV-I 0 W/m² 0,5 °C 4,8 km/h (1 Bft)
27.11.2016 21:12 1,4 °C 1,4 °C 94 % 1018,3 hPa 0,0 mm 3,4 km/h (1 Bft) NO 55 ° 0 min 0,000 mm 0,0 UV-I 0 W/m² 0,5 °C 6,4 km/h (2 Bft)
27.11.2016 21:13 1,4 °C 1,4 °C 94 % 1018,4 hPa 0,0 mm 3,5 km/h (1 Bft) O 82 ° 0 min 0,000 mm 0,0 UV-I 0 W/m² 0,5 °C 6,4 km/h (2 Bft)
27.11.2016 21:14 1,4 °C 1,4 °C 94 % 1018,4 hPa 0,0 mm 2,9 km/h (1 Bft) NO 42 ° 0 min 0,000 mm 0,0 UV-I 0 W/m² 0,5 °C 4,8 km/h (1 Bft)
27.11.2016 21:15 1,4 °C 1,4 °C 94 % 1018,4 hPa 0,0 mm 2,8 km/h (1 Bft) NO 50 ° 0 min 0,000 mm 0,0 UV-I 0 W/m² 0,5 °C 6,4 km/h (2 Bft)
27.11.2016 21:16 1,4 °C 1,4 °C 94 % 1018,4 hPa 0,0 mm 3,3 km/h (1 Bft) N 5 ° 0 min 0,000 mm 0,0 UV-I 0 W/m² 0,5 °C 4,8 km/h (1 Bft)
27.11.2016 21:17 1,3 °C 1,4 °C 94 % 1018,4 hPa 0,0 mm 3,7 km/h (1 Bft) N-NO 32 ° 0 min 0,000 mm 0,0 UV-I 0 W/m² 0,4 °C 4,8 km/h (1 Bft)
27.11.2016 21:18 1,4 °C 1,4 °C 94 % 1018,4 hPa 0,0 mm 2,8 km/h (1 Bft) N-NO 32 ° 0 min 0,000 mm 0,0 UV-I 0 W/m² 0,5 °C 4,8 km/h (1 Bft)
27.11.2016 21:19 1,3 °C 1,4 °C 94 % 1018,4 hPa 0,0 mm 0,9 km/h (0 Bft) N-NO 32 ° 0 min 0,000 mm 0,0 UV-I 0 W/m² 0,4 °C 1,6 km/h (1 Bft)
27.11.2016 21:20 1,3 °C 1,4 °C 94 % 1018,4 hPa 0,0 mm 1,3 km/h (1 Bft) N-NO 32 ° 0 min 0,000 mm 0,0 UV-I 0 W/m² 0,4 °C 3,2 km/h (1 Bft)
27.11.2016 21:21 1,4 °C 1,4 °C 94 % 1018,4 hPa 0,0 mm 0,6 km/h (0 Bft) N-NO 32 ° 0 min 0,000 mm 0,0 UV-I 0 W/m² 0,5 °C 1,6 km/h (1 Bft)
27.11.2016 21:22 1,3 °C 1,4 °C 94 % 1018,4 hPa 0,0 mm 0,7 km/h (0 Bft) NO 36 ° 0 min 0,000 mm 0,0 UV-I 0 W/m² 0,4 °C 1,6 km/h (1 Bft)
27.11.2016 21:23 1,4 °C 1,4 °C 94 % 1018,4 hPa 0,0 mm 0,3 km/h (0 Bft) NO 36 ° 0 min 0,000 mm 0,0 UV-I 0 W/m² 0,5 °C 1,6 km/h (1 Bft)
27.11.2016 21:24 1,4 °C 1,4 °C 94 % 1018,4 hPa 0,0 mm 0,0 km/h (0 Bft) NO 36 ° 0 min 0,000 mm 0,0 UV-I 0 W/m² 0,5 °C 0,0 km/h (0 Bft)
27.11.2016 21:25 1,3 °C 1,4 °C 94 % 1018,5 hPa 0,0 mm 0,0 km/h (0 Bft) NO 36 ° 0 min 0,000 mm 0,0 UV-I 0 W/m² 0,4 °C 0,0 km/h (0 Bft)
27.11.2016 21:26 1,3 °C 1,3 °C 94 % 1018,5 hPa 0,0 mm 0,0 km/h (0 Bft) NO 36 ° 0 min 0,000 mm 0,0 UV-I 0 W/m² 0,4 °C 0,0 km/h (0 Bft)
27.11.2016 21:27 1,3 °C 1,3 °C 94 % 1018,5 hPa 0,0 mm 0,0 km/h (0 Bft) NO 36 ° 0 min 0,000 mm 0,0 UV-I 0 W/m² 0,4 °C 0,0 km/h (0 Bft)
27.11.2016 21:28 1,3 °C 1,3 °C 94 % 1018,5 hPa 0,0 mm 0,0 km/h (0 Bft) NO 36 ° 0 min 0,000 mm 0,0 UV-I 0 W/m² 0,4 °C 0,0 km/h (0 Bft)
27.11.2016 21:29 1,3 °C 1,3 °C 94 % 1018,5 hPa 0,0 mm 0,3 km/h (0 Bft) NO 36 ° 0 min 0,000 mm 0,0 UV-I 0 W/m² 0,4 °C 1,6 km/h (1 Bft)
27.11.2016 21:30 1,3 °C 1,3 °C 94 % 1018,4 hPa 0,0 mm 2,6 km/h (1 Bft) NO 40 ° 0 min 0,000 mm 0,0 UV-I 0 W/m² 0,4 °C 3,2 km/h (1 Bft)
27.11.2016 21:31 1,3 °C 1,3 °C 94 % 1018,5 hPa 0,0 mm 3,0 km/h (1 Bft) NO 49 ° 0 min 0,000 mm 0,0 UV-I 0 W/m² 0,4 °C 4,8 km/h (1 Bft)
27.11.2016 21:32 1,3 °C 1,3 °C 94 % 1018,5 hPa 0,0 mm 1,9 km/h (1 Bft) NO 49 ° 0 min 0,000 mm 0,0 UV-I 0 W/m² 0,4 °C 3,2 km/h (1 Bft)
27.11.2016 21:33 1,3 °C 1,3 °C 94 % 1018,4 hPa 0,0 mm 2,3 km/h (1 Bft) NO 49 ° 0 min 0,000 mm 0,0 UV-I 0 W/m² 0,4 °C 3,2 km/h (1 Bft)
27.11.2016 21:34 1,3 °C 1,3 °C 94 % 1018,4 hPa 0,0 mm 2,1 km/h (1 Bft) NO 49 ° 0 min 0,000 mm 0,0 UV-I 0 W/m² 0,4 °C 3,2 km/h (1 Bft)
27.11.2016 21:35 1,3 °C 1,3 °C 94 % 1018,5 hPa 0,0 mm 3,7 km/h (1 Bft) O-NO 58 ° 0 min 0,000 mm 0,0 UV-I 0 W/m² 0,4 °C 4,8 km/h (1 Bft)
27.11.2016 21:36 1,3 °C 1,3 °C 94 % 1018,5 hPa 0,0 mm 4,5 km/h (1 Bft) O-NO 67 ° 0 min 0,000 mm 0,0 UV-I 0 W/m² 0,4 °C 4,8 km/h (1 Bft)
27.11.2016 21:37 1,3 °C 1,3 °C 94 % 1018,5 hPa 0,0 mm 2,5 km/h (1 Bft) O-NO 67 ° 0 min 0,000 mm 0,0 UV-I 0 W/m² 0,4 °C 3,2 km/h (1 Bft)
27.11.2016 21:38 1,3 °C 1,3 °C 94 % 1018,5 hPa 0,0 mm 1,5 km/h (1 Bft) O-NO 67 ° 0 min 0,000 mm 0,0 UV-I 0 W/m² 0,4 °C 3,2 km/h (1 Bft)
27.11.2016 21:39 1,3 °C 1,3 °C 94 % 1018,5 hPa 0,0 mm 2,3 km/h (1 Bft) S-SO 153 ° 0 min 0,000 mm 0,0 UV-I 0 W/m² 0,4 °C 3,2 km/h (1 Bft)
27.11.2016 21:40 1,3 °C 1,3 °C 94 % 1018,5 hPa 0,0 mm 0,8 km/h (0 Bft) S-SO 153 ° 0 min 0,000 mm 0,0 UV-I 0 W/m² 0,4 °C 1,6 km/h (1 Bft)
27.11.2016 21:41 1,3 °C 1,3 °C 94 % 1018,5 hPa 0,0 mm 2,2 km/h (1 Bft) S-SO 153 ° 0 min 0,000 mm 0,0 UV-I 0 W/m² 0,4 °C 3,2 km/h (1 Bft)
27.11.2016 21:42 1,3 °C 1,3 °C 94 % 1018,5 hPa 0,0 mm 2,5 km/h (1 Bft) SO 144 ° 0 min 0,000 mm 0,0 UV-I 0 W/m² 0,4 °C 3,2 km/h (1 Bft)
27.11.2016 21:43 1,3 °C 1,3 °C 94 % 1018,5 hPa 0,0 mm 2,8 km/h (1 Bft) O 80 ° 0 min 0,000 mm 0,0 UV-I 0 W/m² 0,4 °C 3,2 km/h (1 Bft)
27.11.2016 21:44 1,3 °C 1,3 °C 94 % 1018,5 hPa 0,0 mm 4,0 km/h (1 Bft) O-SO 104 ° 0 min 0,000 mm 0,0 UV-I 0 W/m² 0,4 °C 6,4 km/h (2 Bft)
27.11.2016 21:45 1,3 °C 1,3 °C 94 % 1018,5 hPa 0,0 mm 4,6 km/h (1 Bft) NO 53 ° 0 min 0,000 mm 0,0 UV-I 0 W/m² 0,4 °C 6,4 km/h (2 Bft)
27.11.2016 21:46 1,3 °C 1,3 °C 94 % 1018,5 hPa 0,0 mm 0,7 km/h (0 Bft) NO 53 ° 0 min 0,000 mm 0,0 UV-I 0 W/m² 0,4 °C 3,2 km/h (1 Bft)
27.11.2016 21:47 1,2 °C 1,3 °C 94 % 1018,5 hPa 0,0 mm 0,9 km/h (0 Bft) NO 53 ° 0 min 0,000 mm 0,0 UV-I 0 W/m² 0,3 °C 1,6 km/h (1 Bft)
27.11.2016 21:48 1,3 °C 1,3 °C 94 % 1018,5 hPa 0,0 mm 0,5 km/h (0 Bft) NO 53 ° 0 min 0,000 mm 0,0 UV-I 0 W/m² 0,4 °C 1,6 km/h (1 Bft)
27.11.2016 21:49 1,3 °C 1,3 °C 94 % 1018,5 hPa 0,0 mm 0,0 km/h (0 Bft) NO 53 ° 0 min 0,000 mm 0,0 UV-I 0 W/m² 0,4 °C 0,0 km/h (0 Bft)
27.11.2016 21:50 1,2 °C 1,3 °C 94 % 1018,5 hPa 0,0 mm 1,6 km/h (1 Bft) O 90 ° 0 min 0,000 mm 0,0 UV-I 0 W/m² 0,3 °C 4,8 km/h (1 Bft)
27.11.2016 21:51 1,2 °C 1,2 °C 94 % 1018,6 hPa 0,0 mm 3,1 km/h (1 Bft) O 90 ° 0 min 0,000 mm 0,0 UV-I 0 W/m² 0,3 °C 4,8 km/h (1 Bft)
27.11.2016 21:52 1,2 °C 1,2 °C 94 % 1018,5 hPa 0,0 mm 3,3 km/h (1 Bft) O 85 ° 0 min 0,000 mm 0,0 UV-I 0 W/m² 0,3 °C 4,8 km/h (1 Bft)
27.11.2016 21:53 1,2 °C 1,2 °C 94 % 1018,5 hPa 0,0 mm 3,2 km/h (1 Bft) O-NO 72 ° 0 min 0,000 mm 0,0 UV-I 0 W/m² 0,3 °C 3,2 km/h (1 Bft)
27.11.2016 21:54 1,2 °C 1,2 °C 94 % 1018,6 hPa 0,0 mm 2,7 km/h (1 Bft) O-NO 72 ° 0 min 0,000 mm 0,0 UV-I 0 W/m² 0,3 °C 3,2 km/h (1 Bft)
27.11.2016 21:55 1,2 °C 1,2 °C 94 % 1018,5 hPa 0,0 mm 2,2 km/h (1 Bft) O-NO 74 ° 0 min 0,000 mm 0,0 UV-I 0 W/m² 0,3 °C 4,8 km/h (1 Bft)
27.11.2016 21:56 1,2 °C 1,2 °C 94 % 1018,6 hPa 0,0 mm 1,0 km/h (0 Bft) O-NO 74 ° 0 min 0,000 mm 0,0 UV-I 0 W/m² 0,3 °C 3,2 km/h (1 Bft)
27.11.2016 21:57 1,2 °C 1,2 °C 94 % 1018,6 hPa 0,0 mm 2,2 km/h (1 Bft) O-NO 74 ° 0 min 0,000 mm 0,0 UV-I 0 W/m² 0,3 °C 3,2 km/h (1 Bft)
27.11.2016 21:58 1,2 °C 1,2 °C 94 % 1018,5 hPa 0,0 mm 3,6 km/h (1 Bft) O-NO 74 ° 0 min 0,000 mm 0,0 UV-I 0 W/m² 0,3 °C 4,8 km/h (1 Bft)
27.11.2016 21:59 1,2 °C 1,2 °C 94 % 1018,6 hPa 0,0 mm 2,7 km/h (1 Bft) O-NO 74 ° 0 min 0,000 mm 0,0 UV-I 0 W/m² 0,3 °C 3,2 km/h (1 Bft)
27.11.2016 22:00 1,2 °C 1,2 °C 94 % 1018,6 hPa 0,0 mm 1,0 km/h (0 Bft) O-NO 74 ° 0 min 0,000 mm 0,0 UV-I 0 W/m² 0,3 °C 3,2 km/h (1 Bft)
27.11.2016 22:01 1,2 °C 1,2 °C 94 % 1018,5 hPa 0,0 mm 1,6 km/h (1 Bft) O-NO 74 ° 0 min 0,000 mm 0,0 UV-I 0 W/m² 0,3 °C 3,2 km/h (1 Bft)
27.11.2016 22:02 1,2 °C 1,2 °C 94 % 1018,6 hPa 0,0 mm 1,8 km/h (1 Bft) O-NO 74 ° 0 min 0,000 mm 0,0 UV-I 0 W/m² 0,3 °C 3,2 km/h (1 Bft)
27.11.2016 22:03 1,2 °C 1,2 °C 94 % 1018,5 hPa 0,0 mm 2,5 km/h (1 Bft) O 92 ° 0 min 0,000 mm 0,0 UV-I 0 W/m² 0,3 °C 4,8 km/h (1 Bft)
27.11.2016 22:04 1,2 °C 1,2 °C 94 % 1018,5 hPa 0,0 mm 2,1 km/h (1 Bft) O 92 ° 0 min 0,000 mm 0,0 UV-I 0 W/m² 0,3 °C 3,2 km/h (1 Bft)
27.11.2016 22:05 1,2 °C 1,2 °C 94 % 1018,5 hPa 0,0 mm 1,9 km/h (1 Bft) SO 133 ° 0 min 0,000 mm 0,0 UV-I 0 W/m² 0,3 °C 3,2 km/h (1 Bft)
27.11.2016 22:06 1,2 °C 1,2 °C 94 % 1018,5 hPa 0,0 mm 3,4 km/h (1 Bft) O 92 ° 0 min 0,000 mm 0,0 UV-I 0 W/m² 0,3 °C 6,4 km/h (2 Bft)
27.11.2016 22:07 1,1 °C 1,2 °C 94 % 1018,4 hPa 0,0 mm 1,0 km/h (0 Bft) O 92 ° 0 min 0,000 mm 0,0 UV-I 0 W/m² 0,2 °C 3,2 km/h (1 Bft)
27.11.2016 22:08 1,2 °C 1,2 °C 94 % 1018,5 hPa 0,0 mm 0,7 km/h (0 Bft) O 92 ° 0 min 0,000 mm 0,0 UV-I 0 W/m² 0,3 °C 1,6 km/h (1 Bft)
27.11.2016 22:09 1,2 °C 1,2 °C 94 % 1018,5 hPa 0,0 mm 1,2 km/h (1 Bft) O 92 ° 0 min 0,000 mm 0,0 UV-I 0 W/m² 0,3 °C 3,2 km/h (1 Bft)
27.11.2016 22:10 1,1 °C 1,2 °C 94 % 1018,4 hPa 0,0 mm 1,6 km/h (1 Bft) O 92 ° 0 min 0,000 mm 0,0 UV-I 0 W/m² 0,2 °C 3,2 km/h (1 Bft)
27.11.2016 22:11 1,2 °C 1,2 °C 94 % 1018,5 hPa 0,0 mm 1,9 km/h (1 Bft) O 92 ° 0 min 0,000 mm 0,0 UV-I 0 W/m² 0,3 °C 3,2 km/h (1 Bft)
27.11.2016 22:12 1,2 °C 1,2 °C 94 % 1018,5 hPa 0,0 mm 1,9 km/h (1 Bft) O 92 ° 0 min 0,000 mm 0,0 UV-I 0 W/m² 0,3 °C 3,2 km/h (1 Bft)
27.11.2016 22:13 1,2 °C 1,2 °C 94 % 1018,5 hPa 0,0 mm 1,9 km/h (1 Bft) O 92 ° 0 min 0,000 mm 0,0 UV-I 0 W/m² 0,3 °C 4,8 km/h (1 Bft)
27.11.2016 22:14 1,1 °C 1,2 °C 94 % 1018,5 hPa 0,0 mm 3,5 km/h (1 Bft) O 92 ° 0 min 0,000 mm 0,0 UV-I 0 W/m² 0,2 °C 4,8 km/h (1 Bft)
27.11.2016 22:15 1,1 °C 1,2 °C 94 % 1018,4 hPa 0,0 mm 2,7 km/h (1 Bft) O 92 ° 0 min 0,000 mm 0,0 UV-I 0 W/m² 0,2 °C 3,2 km/h (1 Bft)
27.11.2016 22:16 1,1 °C 1,2 °C 94 % 1018,4 hPa 0,0 mm 1,5 km/h (1 Bft) O 92 ° 0 min 0,000 mm 0,0 UV-I 0 W/m² 0,2 °C 3,2 km/h (1 Bft)
27.11.2016 22:17 1,1 °C 1,2 °C 94 % 1018,4 hPa 0,0 mm 2,5 km/h (1 Bft) O 92 ° 0 min 0,000 mm 0,0 UV-I 0 W/m² 0,2 °C 3,2 km/h (1 Bft)
27.11.2016 22:18 1,1 °C 1,2 °C 94 % 1018,4 hPa 0,0 mm 0,3 km/h (0 Bft) O 92 ° 0 min 0,000 mm 0,0 UV-I 0 W/m² 0,2 °C 1,6 km/h (1 Bft)
27.11.2016 22:19 1,1 °C 1,2 °C 94 % 1018,4 hPa 0,0 mm 0,3 km/h (0 Bft) O 92 ° 0 min 0,000 mm 0,0 UV-I 0 W/m² 0,2 °C 1,6 km/h (1 Bft)
27.11.2016 22:20 1,1 °C 1,1 °C 94 % 1018,4 hPa 0,0 mm 0,0 km/h (0 Bft) O 92 ° 0 min 0,000 mm 0,0 UV-I 0 W/m² 0,2 °C 0,0 km/h (0 Bft)
27.11.2016 22:21 1,1 °C 1,1 °C 94 % 1018,4 hPa 0,0 mm 0,0 km/h (0 Bft) O 92 ° 0 min 0,000 mm 0,0 UV-I 0 W/m² 0,2 °C 0,0 km/h (0 Bft)
27.11.2016 22:22 1,1 °C 1,1 °C 94 % 1018,4 hPa 0,0 mm 0,2 km/h (0 Bft) O 92 ° 0 min 0,000 mm 0,0 UV-I 0 W/m² 0,2 °C 1,6 km/h (1 Bft)
27.11.2016 22:23 1,1 °C 1,1 °C 94 % 1018,4 hPa 0,0 mm 3,1 km/h (1 Bft) O 92 ° 0 min 0,000 mm 0,0 UV-I 0 W/m² 0,2 °C 4,8 km/h (1 Bft)
27.11.2016 22:24 1,1 °C 1,1 °C 94 % 1018,4 hPa 0,0 mm 2,7 km/h (1 Bft) O 92 ° 0 min 0,000 mm 0,0 UV-I 0 W/m² 0,2 °C 4,8 km/h (1 Bft)
27.11.2016 22:25 1,1 °C 1,1 °C 94 % 1018,4 hPa 0,0 mm 3,2 km/h (1 Bft) O 89 ° 0 min 0,000 mm 0,0 UV-I 0 W/m² 0,2 °C 4,8 km/h (1 Bft)
27.11.2016 22:26 1,1 °C 1,1 °C 94 % 1018,3 hPa 0,0 mm 2,2 km/h (1 Bft) O 89 ° 0 min 0,000 mm 0,0 UV-I 0 W/m² 0,2 °C 3,2 km/h (1 Bft)
27.11.2016 22:27 1,1 °C 1,1 °C 94 % 1018,3 hPa 0,0 mm 2,0 km/h (1 Bft) O 89 ° 0 min 0,000 mm 0,0 UV-I 0 W/m² 0,2 °C 3,2 km/h (1 Bft)
27.11.2016 22:28 1,1 °C 1,1 °C 94 % 1018,2 hPa 0,0 mm 0,8 km/h (0 Bft) O 89 ° 0 min 0,000 mm 0,0 UV-I 0 W/m² 0,2 °C 1,6 km/h (1 Bft)
27.11.2016 22:29 1,1 °C 1,1 °C 94 % 1018,2 hPa 0,0 mm 1,3 km/h (1 Bft) O 89 ° 0 min 0,000 mm 0,0 UV-I 0 W/m² 0,2 °C 3,2 km/h (1 Bft)
27.11.2016 22:30 1,1 °C 1,1 °C 94 % 1018,3 hPa 0,0 mm 3,3 km/h (1 Bft) NO 55 ° 0 min 0,000 mm 0,0 UV-I 0 W/m² 0,2 °C 4,8 km/h (1 Bft)
27.11.2016 22:31 1,1 °C 1,1 °C 94 % 1018,3 hPa 0,0 mm 1,3 km/h (1 Bft) NO 55 ° 0 min 0,000 mm 0,0 UV-I 0 W/m² 0,2 °C 3,2 km/h (1 Bft)
27.11.2016 22:32 1,1 °C 1,1 °C 94 % 1018,3 hPa 0,0 mm 0,2 km/h (0 Bft) NO 55 ° 0 min 0,000 mm 0,0 UV-I 0 W/m² 0,2 °C 1,6 km/h (1 Bft)
27.11.2016 22:33 1,1 °C 1,1 °C 94 % 1018,3 hPa 0,0 mm 1,2 km/h (1 Bft) NO 55 ° 0 min 0,000 mm 0,0 UV-I 0 W/m² 0,2 °C 3,2 km/h (1 Bft)
27.11.2016 22:34 1,1 °C 1,1 °C 94 % 1018,3 hPa 0,0 mm 2,4 km/h (1 Bft) NO 55 ° 0 min 0,000 mm 0,0 UV-I 0 W/m² 0,2 °C 3,2 km/h (1 Bft)
27.11.2016 22:35 1,1 °C 1,1 °C 94 % 1018,4 hPa 0,0 mm 2,8 km/h (1 Bft) NO 55 ° 0 min 0,000 mm 0,0 UV-I 0 W/m² 0,2 °C 3,2 km/h (1 Bft)
27.11.2016 22:36 1,1 °C 1,1 °C 94 % 1018,3 hPa 0,0 mm 1,9 km/h (1 Bft) NO 55 ° 0 min 0,000 mm 0,0 UV-I 0 W/m² 0,2 °C 3,2 km/h (1 Bft)
27.11.2016 22:37 1,1 °C 1,1 °C 94 % 1018,4 hPa 0,0 mm 1,9 km/h (1 Bft) NO 55 ° 0 min 0,000 mm 0,0 UV-I 0 W/m² 0,2 °C 3,2 km/h (1 Bft)
27.11.2016 22:38 1,1 °C 1,1 °C 95 % 1018,3 hPa 0,0 mm 0,9 km/h (0 Bft) NO 55 ° 0 min 0,000 mm 0,0 UV-I 0 W/m² 0,4 °C 1,6 km/h (1 Bft)
27.11.2016 22:39 1,1 °C 1,1 °C 94 % 1018,4 hPa 0,0 mm 1,7 km/h (1 Bft) NO 55 ° 0 min 0,000 mm 0,0 UV-I 0 W/m² 0,2 °C 3,2 km/h (1 Bft)
27.11.2016 22:40 1,1 °C 1,1 °C 95 % 1018,4 hPa 0,0 mm 2,0 km/h (1 Bft) NO 55 ° 0 min 0,000 mm 0,0 UV-I 0 W/m² 0,4 °C 3,2 km/h (1 Bft)
27.11.2016 22:41 1,1 °C 1,1 °C 95 % 1018,3 hPa 0,0 mm 2,0 km/h (1 Bft) NO 56 ° 0 min 0,000 mm 0,0 UV-I 0 W/m² 0,4 °C 3,2 km/h (1 Bft)
27.11.2016 22:42 1,1 °C 1,1 °C 95 % 1018,3 hPa 0,0 mm 0,1 km/h (0 Bft) NO 55 ° 0 min 0,000 mm 0,0 UV-I 0 W/m² 0,4 °C 1,6 km/h (1 Bft)
27.11.2016 22:43 1,1 °C 1,1 °C 95 % 1018,3 hPa 0,0 mm 0,0 km/h (0 Bft) NO 55 ° 0 min 0,000 mm 0,0 UV-I 0 W/m² 0,4 °C 0,0 km/h (0 Bft)
27.11.2016 22:44 1,1 °C 1,1 °C 95 % 1018,4 hPa 0,0 mm 0,0 km/h (0 Bft) NO 56 ° 0 min 0,000 mm 0,0 UV-I 0 W/m² 0,4 °C 0,0 km/h (0 Bft)
27.11.2016 22:45 1,1 °C 1,1 °C 95 % 1018,3 hPa 0,0 mm 1,1 km/h (1 Bft) NO 56 ° 0 min 0,000 mm 0,0 UV-I 0 W/m² 0,4 °C 1,6 km/h (1 Bft)
27.11.2016 22:46 1,1 °C 1,1 °C 95 % 1018,4 hPa 0,0 mm 1,4 km/h (1 Bft) NO 56 ° 0 min 0,000 mm 0,0 UV-I 0 W/m² 0,4 °C 1,6 km/h (1 Bft)
27.11.2016 22:47 1,1 °C 1,1 °C 95 % 1018,4 hPa 0,0 mm 1,2 km/h (1 Bft) NO 55 ° 0 min 0,000 mm 0,0 UV-I 0 W/m² 0,4 °C 1,6 km/h (1 Bft)
27.11.2016 22:48 1,1 °C 1,1 °C 95 % 1018,3 hPa 0,0 mm 0,8 km/h (0 Bft) NO 55 ° 0 min 0,000 mm 0,0 UV-I 0 W/m² 0,4 °C 3,2 km/h (1 Bft)
27.11.2016 22:49 1,1 °C 1,1 °C 95 % 1018,3 hPa 0,0 mm 0,1 km/h (0 Bft) NO 55 ° 0 min 0,000 mm 0,0 UV-I 0 W/m² 0,4 °C 1,6 km/h (1 Bft)
27.11.2016 22:50 1,1 °C 1,1 °C 95 % 1018,3 hPa 0,0 mm 0,4 km/h (0 Bft) NO 55 ° 0 min 0,000 mm 0,0 UV-I 0 W/m² 0,4 °C 1,6 km/h (1 Bft)
27.11.2016 22:51 1,1 °C 1,1 °C 95 % 1018,3 hPa 0,0 mm 0,0 km/h (0 Bft) NO 56 ° 0 min 0,000 mm 0,0 UV-I 0 W/m² 0,4 °C 0,0 km/h (0 Bft)
27.11.2016 22:52 1,1 °C 1,1 °C 95 % 1018,3 hPa 0,0 mm 0,0 km/h (0 Bft) NO 55 ° 0 min 0,000 mm 0,0 UV-I 0 W/m² 0,4 °C 0,0 km/h (0 Bft)
27.11.2016 22:53 1,1 °C 1,1 °C 95 % 1018,3 hPa 0,0 mm 0,0 km/h (0 Bft) NO 55 ° 0 min 0,000 mm 0,0 UV-I 0 W/m² 0,4 °C 0,0 km/h (0 Bft)
27.11.2016 22:54 1,1 °C 1,1 °C 95 % 1018,3 hPa 0,0 mm 0,0 km/h (0 Bft) NO 55 ° 0 min 0,000 mm 0,0 UV-I 0 W/m² 0,4 °C 0,0 km/h (0 Bft)
27.11.2016 22:55 1,1 °C 1,1 °C 95 % 1018,3 hPa 0,0 mm 0,0 km/h (0 Bft) NO 56 ° 0 min 0,000 mm 0,0 UV-I 0 W/m² 0,4 °C 0,0 km/h (0 Bft)
27.11.2016 22:56 1,1 °C 1,1 °C 95 % 1018,3 hPa 0,0 mm 0,4 km/h (0 Bft) NO 56 ° 0 min 0,000 mm 0,0 UV-I 0 W/m² 0,4 °C 1,6 km/h (1 Bft)
27.11.2016 22:57 1,1 °C 1,1 °C 95 % 1018,3 hPa 0,0 mm 2,2 km/h (1 Bft) O-SO 102 ° 0 min 0,000 mm 0,0 UV-I 0 W/m² 0,4 °C 3,2 km/h (1 Bft)
27.11.2016 22:58 1,1 °C 1,1 °C 95 % 1018,3 hPa 0,0 mm 1,8 km/h (1 Bft) O-SO 102 ° 0 min 0,000 mm 0,0 UV-I 0 W/m² 0,4 °C 3,2 km/h (1 Bft)
27.11.2016 22:59 1,1 °C 1,1 °C 95 % 1018,3 hPa 0,0 mm 2,3 km/h (1 Bft) O-SO 102 ° 0 min 0,000 mm 0,0 UV-I 0 W/m² 0,4 °C 3,2 km/h (1 Bft)
27.11.2016 23:00 1,1 °C 1,1 °C 95 % 1018,3 hPa 0,0 mm 0,3 km/h (0 Bft) O-SO 102 ° 0 min 0,000 mm 0,0 UV-I 0 W/m² 0,4 °C 1,6 km/h (1 Bft)
27.11.2016 23:01 1,1 °C 1,1 °C 95 % 1018,3 hPa 0,0 mm 1,1 km/h (1 Bft) O-SO 102 ° 0 min 0,000 mm 0,0 UV-I 0 W/m² 0,4 °C 1,6 km/h (1 Bft)
27.11.2016 23:02 1,1 °C 1,1 °C 95 % 1018,3 hPa 0,0 mm 0,2 km/h (0 Bft) O-SO 102 ° 0 min 0,000 mm 0,0 UV-I 0 W/m² 0,4 °C 1,6 km/h (1 Bft)
27.11.2016 23:03 1,1 °C 1,1 °C 95 % 1018,3 hPa 0,0 mm 0,9 km/h (0 Bft) O-SO 102 ° 0 min 0,000 mm 0,0 UV-I 0 W/m² 0,4 °C 1,6 km/h (1 Bft)
27.11.2016 23:04 1,1 °C 1,1 °C 95 % 1018,3 hPa 0,0 mm 0,6 km/h (0 Bft) O-SO 102 ° 0 min 0,000 mm 0,0 UV-I 0 W/m² 0,4 °C 1,6 km/h (1 Bft)
27.11.2016 23:05 1,1 °C 1,1 °C 95 % 1018,3 hPa 0,0 mm 2,5 km/h (1 Bft) O-SO 102 ° 0 min 0,000 mm 0,0 UV-I 0 W/m² 0,4 °C 3,2 km/h (1 Bft)
27.11.2016 23:06 1,1 °C 1,1 °C 95 % 1018,3 hPa 0,0 mm 2,6 km/h (1 Bft) O-SO 102 ° 0 min 0,000 mm 0,0 UV-I 0 W/m² 0,4 °C 3,2 km/h (1 Bft)
27.11.2016 23:07 1,1 °C 1,1 °C 95 % 1018,3 hPa 0,0 mm 2,1 km/h (1 Bft) O-SO 102 ° 0 min 0,000 mm 0,0 UV-I 0 W/m² 0,4 °C 3,2 km/h (1 Bft)
27.11.2016 23:08 1,1 °C 1,1 °C 95 % 1018,2 hPa 0,0 mm 2,2 km/h (1 Bft) O-SO 102 ° 0 min 0,000 mm 0,0 UV-I 0 W/m² 0,4 °C 3,2 km/h (1 Bft)
27.11.2016 23:09 1,1 °C 1,1 °C 95 % 1018,3 hPa 0,0 mm 2,0 km/h (1 Bft) O-SO 102 ° 0 min 0,000 mm 0,0 UV-I 0 W/m² 0,4 °C 3,2 km/h (1 Bft)
27.11.2016 23:10 1,1 °C 1,1 °C 95 % 1018,2 hPa 0,0 mm 2,7 km/h (1 Bft) O-NO 69 ° 0 min 0,000 mm 0,0 UV-I 0 W/m² 0,4 °C 3,2 km/h (1 Bft)
27.11.2016 23:11 1,1 °C 1,1 °C 95 % 1018,2 hPa 0,0 mm 2,7 km/h (1 Bft) O-NO 69 ° 0 min 0,000 mm 0,0 UV-I 0 W/m² 0,4 °C 4,8 km/h (1 Bft)
27.11.2016 23:12 1,1 °C 1,1 °C 95 % 1018,2 hPa 0,0 mm 4,4 km/h (1 Bft) O-NO 68 ° 0 min 0,000 mm 0,0 UV-I 0 W/m² 0,4 °C 6,4 km/h (2 Bft)
27.11.2016 23:13 1,1 °C 1,1 °C 95 % 1018,3 hPa 0,0 mm 3,1 km/h (1 Bft) O-NO 68 ° 0 min 0,000 mm 0,0 UV-I 0 W/m² 0,4 °C 4,8 km/h (1 Bft)
27.11.2016 23:14 1,1 °C 1,1 °C 95 % 1018,2 hPa 0,0 mm 3,2 km/h (1 Bft) O-NO 68 ° 0 min 0,000 mm 0,0 UV-I 0 W/m² 0,4 °C 6,4 km/h (2 Bft)
27.11.2016 23:15 1,1 °C 1,1 °C 95 % 1018,2 hPa 0,0 mm 2,8 km/h (1 Bft) O-NO 68 ° 0 min 0,000 mm 0,0 UV-I 0 W/m² 0,4 °C 4,8 km/h (1 Bft)
27.11.2016 23:16 1,1 °C 1,1 °C 95 % 1018,2 hPa 0,0 mm 3,0 km/h (1 Bft) O-NO 68 ° 0 min 0,000 mm 0,0 UV-I 0 W/m² 0,4 °C 3,2 km/h (1 Bft)
27.11.2016 23:17 1,1 °C 1,1 °C 95 % 1018,2 hPa 0,0 mm 3,8 km/h (1 Bft) O-NO 59 ° 0 min 0,000 mm 0,0 UV-I 0 W/m² 0,4 °C 6,4 km/h (2 Bft)
27.11.2016 23:18 1,1 °C 1,1 °C 95 % 1018,2 hPa 0,0 mm 4,2 km/h (1 Bft) O-NO 62 ° 0 min 0,000 mm 0,0 UV-I 0 W/m² 0,4 °C 6,4 km/h (2 Bft)
27.11.2016 23:19 1,1 °C 1,1 °C 95 % 1018,2 hPa 0,0 mm 1,9 km/h (1 Bft) O-NO 62 ° 0 min 0,000 mm 0,0 UV-I 0 W/m² 0,4 °C 3,2 km/h (1 Bft)
27.11.2016 23:20 1,1 °C 1,1 °C 95 % 1018,2 hPa 0,0 mm 2,7 km/h (1 Bft) O-NO 63 ° 0 min 0,000 mm 0,0 UV-I 0 W/m² 0,4 °C 4,8 km/h (1 Bft)
27.11.2016 23:21 1,1 °C 1,1 °C 95 % 1018,2 hPa 0,0 mm 3,6 km/h (1 Bft) O-NO 67 ° 0 min 0,000 mm 0,0 UV-I 0 W/m² 0,4 °C 4,8 km/h (1 Bft)
27.11.2016 23:22 1,1 °C 1,1 °C 95 % 1018,2 hPa 0,0 mm 3,6 km/h (1 Bft) O-NO 63 ° 0 min 0,000 mm 0,0 UV-I 0 W/m² 0,4 °C 6,4 km/h (2 Bft)
27.11.2016 23:23 1,1 °C 1,1 °C 95 % 1018,2 hPa 0,0 mm 3,8 km/h (1 Bft) O-NO 64 ° 0 min 0,000 mm 0,0 UV-I 0 W/m² 0,4 °C 4,8 km/h (1 Bft)
27.11.2016 23:24 1,1 °C 1,1 °C 95 % 1018,2 hPa 0,0 mm 2,9 km/h (1 Bft) O-NO 64 ° 0 min 0,000 mm 0,0 UV-I 0 W/m² 0,4 °C 4,8 km/h (1 Bft)
27.11.2016 23:25 1,1 °C 1,1 °C 95 % 1018,3 hPa 0,0 mm 3,2 km/h (1 Bft) NO 48 ° 0 min 0,000 mm 0,0 UV-I 0 W/m² 0,4 °C 6,4 km/h (2 Bft)
27.11.2016 23:26 1,1 °C 1,1 °C 95 % 1018,4 hPa 0,0 mm 4,2 km/h (1 Bft) O-NO 63 ° 0 min 0,000 mm 0,0 UV-I 0 W/m² 0,4 °C 4,8 km/h (1 Bft)
27.11.2016 23:27 1,1 °C 1,1 °C 95 % 1018,2 hPa 0,0 mm 4,3 km/h (1 Bft) SO 146 ° 0 min 0,000 mm 0,0 UV-I 0 W/m² 0,4 °C 6,4 km/h (2 Bft)
27.11.2016 23:28 1,1 °C 1,1 °C 95 % 1018,2 hPa 0,0 mm 4,3 km/h (1 Bft) O-NO 66 ° 0 min 0,000 mm 0,0 UV-I 0 W/m² 0,4 °C 6,4 km/h (2 Bft)
27.11.2016 23:29 1,0 °C 1,1 °C 95 % 1018,3 hPa 0,0 mm 3,6 km/h (1 Bft) NO 42 ° 0 min 0,000 mm 0,0 UV-I 0 W/m² 0,3 °C 4,8 km/h (1 Bft)
27.11.2016 23:30 1,0 °C 1,1 °C 95 % 1018,3 hPa 0,0 mm 3,7 km/h (1 Bft) O-NO 65 ° 0 min 0,000 mm 0,0 UV-I 0 W/m² 0,3 °C 8,0 km/h (2 Bft)
27.11.2016 23:31 1,0 °C 1,1 °C 95 % 1018,3 hPa 0,0 mm 4,7 km/h (1 Bft) O-NO 62 ° 0 min 0,000 mm 0,0 UV-I 0 W/m² 0,3 °C 6,4 km/h (2 Bft)
27.11.2016 23:32 1,1 °C 1,1 °C 95 % 1018,3 hPa 0,0 mm 4,7 km/h (1 Bft) O-NO 66 ° 0 min 0,000 mm 0,0 UV-I 0 W/m² 0,4 °C 6,4 km/h (2 Bft)
27.11.2016 23:33 1,1 °C 1,1 °C 95 % 1018,4 hPa 0,0 mm 3,8 km/h (1 Bft) NO 56 ° 0 min 0,000 mm 0,0 UV-I 0 W/m² 0,4 °C 6,4 km/h (2 Bft)
27.11.2016 23:34 1,0 °C 1,1 °C 95 % 1018,3 hPa 0,0 mm 6,8 km/h (2 Bft) O-NO 76 ° 0 min 0,000 mm 0,0 UV-I 0 W/m² 0,3 °C 14,5 km/h (3 Bft)
27.11.2016 23:35 1,0 °C 1,0 °C 95 % 1018,4 hPa 0,0 mm 5,5 km/h (1 Bft) O 86 ° 0 min 0,000 mm 0,0 UV-I 0 W/m² 0,3 °C 9,7 km/h (2 Bft)
27.11.2016 23:36 1,0 °C 1,1 °C 95 % 1018,3 hPa 0,0 mm 6,6 km/h (2 Bft) O-NO 77 ° 0 min 0,000 mm 0,0 UV-I 0 W/m² 0,3 °C 12,9 km/h (3 Bft)
27.11.2016 23:37 1,0 °C 1,0 °C 95 % 1018,4 hPa 0,0 mm 1,6 km/h (1 Bft) O-NO 77 ° 0 min 0,000 mm 0,0 UV-I 0 W/m² 0,3 °C 3,2 km/h (1 Bft)
27.11.2016 23:38 1,0 °C 1,0 °C 95 % 1018,4 hPa 0,0 mm 2,2 km/h (1 Bft) O-NO 77 ° 0 min 0,000 mm 0,0 UV-I 0 W/m² 0,3 °C 3,2 km/h (1 Bft)
27.11.2016 23:39 1,0 °C 1,0 °C 95 % 1018,4 hPa 0,0 mm 3,8 km/h (1 Bft) O-NO 67 ° 0 min 0,000 mm 0,0 UV-I 0 W/m² 0,3 °C 6,4 km/h (2 Bft)
27.11.2016 23:40 1,0 °C 1,0 °C 95 % 1018,4 hPa 0,0 mm 3,9 km/h (1 Bft) O 90 ° 0 min 0,000 mm 0,0 UV-I 0 W/m² 0,3 °C 4,8 km/h (1 Bft)
27.11.2016 23:41 1,0 °C 1,0 °C 95 % 1018,3 hPa 0,0 mm 5,1 km/h (1 Bft) NO 53 ° 0 min 0,000 mm 0,0 UV-I 0 W/m² 0,3 °C 9,7 km/h (2 Bft)
27.11.2016 23:42 1,0 °C 1,0 °C 95 % 1018,4 hPa 0,0 mm 5,6 km/h (1 Bft) O 82 ° 0 min 0,000 mm 0,0 UV-I 0 W/m² 0,3 °C 8,0 km/h (2 Bft)
27.11.2016 23:43 1,0 °C 1,0 °C 95 % 1018,4 hPa 0,0 mm 3,2 km/h (1 Bft) O-NO 71 ° 0 min 0,000 mm 0,0 UV-I 0 W/m² 0,3 °C 4,8 km/h (1 Bft)
27.11.2016 23:44 0,9 °C 1,0 °C 95 % 1018,4 hPa 0,0 mm 4,3 km/h (1 Bft) SO 129 ° 0 min 0,000 mm 0,0 UV-I 0 W/m² 0,2 °C 6,4 km/h (2 Bft)
27.11.2016 23:45 1,0 °C 1,0 °C 95 % 1018,4 hPa 0,0 mm 5,5 km/h (1 Bft) O-NO 71 ° 0 min 0,000 mm 0,0 UV-I 0 W/m² 0,3 °C 8,0 km/h (2 Bft)
27.11.2016 23:46 1,0 °C 1,0 °C 95 % 1018,4 hPa 0,0 mm 5,8 km/h (2 Bft) O-NO 65 ° 0 min 0,000 mm 0,0 UV-I 0 W/m² 0,3 °C 8,0 km/h (2 Bft)
27.11.2016 23:47 0,9 °C 1,0 °C 95 % 1018,4 hPa 0,0 mm 5,8 km/h (2 Bft) O-NO 70 ° 0 min 0,000 mm 0,0 UV-I 0 W/m² 0,2 °C 6,4 km/h (2 Bft)
27.11.2016 23:48 1,0 °C 1,0 °C 95 % 1018,4 hPa 0,0 mm 4,2 km/h (1 Bft) O-NO 75 ° 0 min 0,000 mm 0,0 UV-I 0 W/m² 0,3 °C 4,8 km/h (1 Bft)
27.11.2016 23:49 0,9 °C 1,0 °C 95 % 1018,4 hPa 0,0 mm 4,0 km/h (1 Bft) O-NO 74 ° 0 min 0,000 mm 0,0 UV-I 0 W/m² 0,2 °C 6,4 km/h (2 Bft)
27.11.2016 23:50 0,9 °C 0,9 °C 95 % 1018,4 hPa 0,0 mm 2,3 km/h (1 Bft) O 84 ° 0 min 0,000 mm 0,0 UV-I 0 W/m² 0,2 °C 3,2 km/h (1 Bft)
27.11.2016 23:51 0,9 °C 0,9 °C 95 % 1018,4 hPa 0,0 mm 2,2 km/h (1 Bft) O-NO 74 ° 0 min 0,000 mm 0,0 UV-I 0 W/m² 0,2 °C 3,2 km/h (1 Bft)
27.11.2016 23:52 0,9 °C 0,9 °C 94 % 1018,4 hPa 0,0 mm 3,9 km/h (1 Bft) O-NO 57 ° 0 min 0,000 mm 0,0 UV-I 0 W/m² 0,0 °C 6,4 km/h (2 Bft)
27.11.2016 23:53 0,9 °C 0,9 °C 95 % 1018,4 hPa 0,0 mm 2,6 km/h (1 Bft) O-NO 57 ° 0 min 0,000 mm 0,0 UV-I 0 W/m² 0,2 °C 4,8 km/h (1 Bft)
27.11.2016 23:54 0,9 °C 0,9 °C 95 % 1018,4 hPa 0,0 mm 4,0 km/h (1 Bft) O-NO 64 ° 0 min 0,000 mm 0,0 UV-I 0 W/m² 0,2 °C 4,8 km/h (1 Bft)
27.11.2016 23:55 0,9 °C 0,9 °C 95 % 1018,4 hPa 0,0 mm 1,3 km/h (1 Bft) O-NO 67 ° 0 min 0,000 mm 0,0 UV-I 0 W/m² 0,2 °C 4,8 km/h (1 Bft)
27.11.2016 23:56 0,9 °C 0,9 °C 95 % 1018,4 hPa 0,0 mm 0,5 km/h (0 Bft) O-NO 67 ° 0 min 0,000 mm 0,0 UV-I 0 W/m² 0,2 °C 1,6 km/h (1 Bft)
27.11.2016 23:57 0,9 °C 0,9 °C 95 % 1018,4 hPa 0,0 mm 1,6 km/h (1 Bft) O-NO 67 ° 0 min 0,000 mm 0,0 UV-I 0 W/m² 0,2 °C 3,2 km/h (1 Bft)
27.11.2016 23:58 0,9 °C 0,9 °C 95 % 1018,4 hPa 0,0 mm 2,2 km/h (1 Bft) O-NO 67 ° 0 min 0,000 mm 0,0 UV-I 0 W/m² 0,2 °C 3,2 km/h (1 Bft)
27.11.2016 23:59 0,9 °C 0,9 °C 95 % 1018,4 hPa 0,0 mm 0,5 km/h (0 Bft) O-NO 67 ° 0 min 0,000 mm 0,0 UV-I 0 W/m² 0,2 °C 1,6 km/h (1 Bft)
_ Min-Zeit 23:59 23:59 23:52 14:50 - 22:55 - - - - - - 23:52 22:55
Minimum _ 0,9 °C 0,9 °C 94 % 1015,5 hPa - 0,0 km/h (0 Bft) - - - - - - 0,0 °C 0,0 km/h (0 Bft)
_ Max-Zeit 04:56 05:04 19:43 22:02 21:10 05:49 - - 23:59 23:59 23:59 10:04 04:32 05:49
Maximum _ 5,8 °C 5,8 °C 96 % 1018,6 hPa 0,2 mm 15,6 km/h
W (3 Bft)
- - 0 min 0,000 mm 0,0 UV-I 40 W/m² 5,1 °C 20,9 km/h
W (4 Bft)
Durchschnitt _ 4,0 °C 4,0 °C 95 % 1016,7 hPa #3,8 mm 2,6 km/h (1 Bft) W - #0 min. #0,000 mm 0,0 UV-I 5 W/m² 3,3 °C 4,2 km/h (1 Bft)